<?xml version="1.0" encoding="UTF-8" standalone="no" ?>
<gpx xmlns="http://www.topografix.com/GPX/1/1" xmlns:xsi="http://www.w3.org/2001/XMLSchema-instance" xsi:schemaLocation="http://www.topografix.com/GPX/1/1 http://www.topografix.com/GPX/1/1/gpx.xsd" version="1.1" creator="VisuGPX - https://www.visugpx.com">
  <metadata>
    <name>05 Février 2011 %u2013 Trail Blanc du Semnoz %u2013 10 kms 320 m D </name>
    <desc><![CDATA[Trail Blanc du Semnoz : 20ème]]></desc>
  </metadata>
  <trk>
    <name><![CDATA[2011-02-05T16:31:33Z]]></name>
    <trkseg>
      <trkpt lat="45.80479" lon="6.09827">
        <ele>1478.1643066</ele>
        <time>2011-02-05T16:31:33Z</time>
      </trkpt>
      <trkpt lat="45.80479" lon="6.09828">
        <ele>1478.1643066</ele>
        <time>2011-02-05T16:31:34Z</time>
      </trkpt>
      <trkpt lat="45.80487" lon="6.09847">
        <ele>1478.6450195</ele>
        <time>2011-02-05T16:31:38Z</time>
      </trkpt>
      <trkpt lat="45.80493" lon="6.09859">
        <ele>1478.6450195</ele>
        <time>2011-02-05T16:31:40Z</time>
      </trkpt>
      <trkpt lat="45.80499" lon="6.09871">
        <ele>1479.1254883</ele>
        <time>2011-02-05T16:31:42Z</time>
      </trkpt>
      <trkpt lat="45.80504" lon="6.09883">
        <ele>1478.6450195</ele>
        <time>2011-02-05T16:31:44Z</time>
      </trkpt>
      <trkpt lat="45.80509" lon="6.09893">
        <ele>1478.1643066</ele>
        <time>2011-02-05T16:31:46Z</time>
      </trkpt>
      <trkpt lat="45.80514" lon="6.09903">
        <ele>1477.6835938</ele>
        <time>2011-02-05T16:31:48Z</time>
      </trkpt>
      <trkpt lat="45.8052" lon="6.0992">
        <ele>1477.6835938</ele>
        <time>2011-02-05T16:31:51Z</time>
      </trkpt>
      <trkpt lat="45.80524" lon="6.09931">
        <ele>1478.1643066</ele>
        <time>2011-02-05T16:31:53Z</time>
      </trkpt>
      <trkpt lat="45.80529" lon="6.0994">
        <ele>1479.6062012</ele>
        <time>2011-02-05T16:31:55Z</time>
      </trkpt>
      <trkpt lat="45.80536" lon="6.09955">
        <ele>1479.6062012</ele>
        <time>2011-02-05T16:31:58Z</time>
      </trkpt>
      <trkpt lat="45.80538" lon="6.0996">
        <ele>1479.6062012</ele>
        <time>2011-02-05T16:31:59Z</time>
      </trkpt>
      <trkpt lat="45.80544" lon="6.09975">
        <ele>1480.567627</ele>
        <time>2011-02-05T16:32:02Z</time>
      </trkpt>
      <trkpt lat="45.80547" lon="6.09985">
        <ele>1481.5288086</ele>
        <time>2011-02-05T16:32:04Z</time>
      </trkpt>
      <trkpt lat="45.80551" lon="6.09995">
        <ele>1482.0095215</ele>
        <time>2011-02-05T16:32:06Z</time>
      </trkpt>
      <trkpt lat="45.80553" lon="6.10007">
        <ele>1482.4902344</ele>
        <time>2011-02-05T16:32:08Z</time>
      </trkpt>
      <trkpt lat="45.80551" lon="6.10018">
        <ele>1482.9707031</ele>
        <time>2011-02-05T16:32:10Z</time>
      </trkpt>
      <trkpt lat="45.80547" lon="6.10027">
        <ele>1483.451416</ele>
        <time>2011-02-05T16:32:12Z</time>
      </trkpt>
      <trkpt lat="45.80542" lon="6.10037">
        <ele>1483.9321289</ele>
        <time>2011-02-05T16:32:14Z</time>
      </trkpt>
      <trkpt lat="45.80536" lon="6.10045">
        <ele>1484.8937988</ele>
        <time>2011-02-05T16:32:16Z</time>
      </trkpt>
      <trkpt lat="45.80531" lon="6.10053">
        <ele>1485.8549805</ele>
        <time>2011-02-05T16:32:18Z</time>
      </trkpt>
      <trkpt lat="45.80527" lon="6.10062">
        <ele>1486.8161621</ele>
        <time>2011-02-05T16:32:20Z</time>
      </trkpt>
      <trkpt lat="45.80525" lon="6.10072">
        <ele>1487.296875</ele>
        <time>2011-02-05T16:32:22Z</time>
      </trkpt>
      <trkpt lat="45.80526" lon="6.10082">
        <ele>1487.296875</ele>
        <time>2011-02-05T16:32:24Z</time>
      </trkpt>
      <trkpt lat="45.80538" lon="6.10088">
        <ele>1486.8161621</ele>
        <time>2011-02-05T16:32:27Z</time>
      </trkpt>
      <trkpt lat="45.80546" lon="6.10091">
        <ele>1486.3356934</ele>
        <time>2011-02-05T16:32:29Z</time>
      </trkpt>
      <trkpt lat="45.80555" lon="6.10094">
        <ele>1486.8161621</ele>
        <time>2011-02-05T16:32:31Z</time>
      </trkpt>
      <trkpt lat="45.80562" lon="6.10099">
        <ele>1486.8161621</ele>
        <time>2011-02-05T16:32:33Z</time>
      </trkpt>
      <trkpt lat="45.80569" lon="6.10103">
        <ele>1486.8161621</ele>
        <time>2011-02-05T16:32:35Z</time>
      </trkpt>
      <trkpt lat="45.80576" lon="6.10107">
        <ele>1485.8549805</ele>
        <time>2011-02-05T16:32:37Z</time>
      </trkpt>
      <trkpt lat="45.80582" lon="6.10112">
        <ele>1485.3742676</ele>
        <time>2011-02-05T16:32:39Z</time>
      </trkpt>
      <trkpt lat="45.80589" lon="6.10116">
        <ele>1485.3742676</ele>
        <time>2011-02-05T16:32:41Z</time>
      </trkpt>
      <trkpt lat="45.80594" lon="6.1012">
        <ele>1485.3742676</ele>
        <time>2011-02-05T16:32:43Z</time>
      </trkpt>
      <trkpt lat="45.806" lon="6.10123">
        <ele>1485.8549805</ele>
        <time>2011-02-05T16:32:45Z</time>
      </trkpt>
      <trkpt lat="45.80606" lon="6.10126">
        <ele>1485.8549805</ele>
        <time>2011-02-05T16:32:47Z</time>
      </trkpt>
      <trkpt lat="45.80612" lon="6.10131">
        <ele>1486.8161621</ele>
        <time>2011-02-05T16:32:49Z</time>
      </trkpt>
      <trkpt lat="45.80617" lon="6.10134">
        <ele>1487.296875</ele>
        <time>2011-02-05T16:32:51Z</time>
      </trkpt>
      <trkpt lat="45.80622" lon="6.10138">
        <ele>1488.2583008</ele>
        <time>2011-02-05T16:32:53Z</time>
      </trkpt>
      <trkpt lat="45.80627" lon="6.10143">
        <ele>1489.7001953</ele>
        <time>2011-02-05T16:32:55Z</time>
      </trkpt>
      <trkpt lat="45.80632" lon="6.10149">
        <ele>1490.661377</ele>
        <time>2011-02-05T16:32:57Z</time>
      </trkpt>
      <trkpt lat="45.80638" lon="6.10154">
        <ele>1492.5842285</ele>
        <time>2011-02-05T16:32:59Z</time>
      </trkpt>
      <trkpt lat="45.80642" lon="6.1016">
        <ele>1494.026123</ele>
        <time>2011-02-05T16:33:01Z</time>
      </trkpt>
      <trkpt lat="45.80647" lon="6.10164">
        <ele>1494.5065918</ele>
        <time>2011-02-05T16:33:03Z</time>
      </trkpt>
      <trkpt lat="45.80652" lon="6.10167">
        <ele>1495.4680176</ele>
        <time>2011-02-05T16:33:05Z</time>
      </trkpt>
      <trkpt lat="45.80658" lon="6.10167">
        <ele>1496.4294434</ele>
        <time>2011-02-05T16:33:07Z</time>
      </trkpt>
      <trkpt lat="45.80667" lon="6.10163">
        <ele>1499.3132324</ele>
        <time>2011-02-05T16:33:09Z</time>
      </trkpt>
      <trkpt lat="45.8067" lon="6.10159">
        <ele>1500.7553711</ele>
        <time>2011-02-05T16:33:10Z</time>
      </trkpt>
      <trkpt lat="45.80675" lon="6.10144">
        <ele>1501.7167969</ele>
        <time>2011-02-05T16:33:13Z</time>
      </trkpt>
      <trkpt lat="45.80677" lon="6.10134">
        <ele>1502.6779785</ele>
        <time>2011-02-05T16:33:15Z</time>
      </trkpt>
      <trkpt lat="45.80678" lon="6.10125">
        <ele>1503.6394043</ele>
        <time>2011-02-05T16:33:17Z</time>
      </trkpt>
      <trkpt lat="45.8068" lon="6.10116">
        <ele>1504.6005859</ele>
        <time>2011-02-05T16:33:19Z</time>
      </trkpt>
      <trkpt lat="45.8068" lon="6.10107">
        <ele>1505.0812988</ele>
        <time>2011-02-05T16:33:21Z</time>
      </trkpt>
      <trkpt lat="45.80678" lon="6.10096">
        <ele>1505.5620117</ele>
        <time>2011-02-05T16:33:23Z</time>
      </trkpt>
      <trkpt lat="45.80676" lon="6.10087">
        <ele>1507.0039063</ele>
        <time>2011-02-05T16:33:25Z</time>
      </trkpt>
      <trkpt lat="45.80673" lon="6.10076">
        <ele>1507.4846191</ele>
        <time>2011-02-05T16:33:27Z</time>
      </trkpt>
      <trkpt lat="45.8067" lon="6.10065">
        <ele>1506.5231934</ele>
        <time>2011-02-05T16:33:29Z</time>
      </trkpt>
      <trkpt lat="45.80666" lon="6.10055">
        <ele>1506.5231934</ele>
        <time>2011-02-05T16:33:31Z</time>
      </trkpt>
      <trkpt lat="45.80661" lon="6.10044">
        <ele>1506.5231934</ele>
        <time>2011-02-05T16:33:33Z</time>
      </trkpt>
      <trkpt lat="45.80659" lon="6.10038">
        <ele>1506.5231934</ele>
        <time>2011-02-05T16:33:34Z</time>
      </trkpt>
      <trkpt lat="45.80652" lon="6.10021">
        <ele>1505.0812988</ele>
        <time>2011-02-05T16:33:37Z</time>
      </trkpt>
      <trkpt lat="45.80649" lon="6.1001">
        <ele>1504.1201172</ele>
        <time>2011-02-05T16:33:39Z</time>
      </trkpt>
      <trkpt lat="45.80644" lon="6.09994">
        <ele>1503.1586914</ele>
        <time>2011-02-05T16:33:42Z</time>
      </trkpt>
      <trkpt lat="45.8064" lon="6.09983">
        <ele>1503.1586914</ele>
        <time>2011-02-05T16:33:44Z</time>
      </trkpt>
      <trkpt lat="45.80636" lon="6.09971">
        <ele>1501.7167969</ele>
        <time>2011-02-05T16:33:46Z</time>
      </trkpt>
      <trkpt lat="45.80632" lon="6.0996">
        <ele>1501.236084</ele>
        <time>2011-02-05T16:33:48Z</time>
      </trkpt>
      <trkpt lat="45.80626" lon="6.09945">
        <ele>1499.7939453</ele>
        <time>2011-02-05T16:33:51Z</time>
      </trkpt>
      <trkpt lat="45.80622" lon="6.09935">
        <ele>1497.390625</ele>
        <time>2011-02-05T16:33:53Z</time>
      </trkpt>
      <trkpt lat="45.80616" lon="6.0992">
        <ele>1494.9873047</ele>
        <time>2011-02-05T16:33:56Z</time>
      </trkpt>
      <trkpt lat="45.80612" lon="6.09909">
        <ele>1494.026123</ele>
        <time>2011-02-05T16:33:58Z</time>
      </trkpt>
      <trkpt lat="45.80608" lon="6.09898">
        <ele>1493.5454102</ele>
        <time>2011-02-05T16:34:00Z</time>
      </trkpt>
      <trkpt lat="45.80602" lon="6.0989">
        <ele>1492.1035156</ele>
        <time>2011-02-05T16:34:02Z</time>
      </trkpt>
      <trkpt lat="45.80599" lon="6.09886">
        <ele>1491.6228027</ele>
        <time>2011-02-05T16:34:03Z</time>
      </trkpt>
      <trkpt lat="45.80589" lon="6.09875">
        <ele>1490.661377</ele>
        <time>2011-02-05T16:34:06Z</time>
      </trkpt>
      <trkpt lat="45.80578" lon="6.09866">
        <ele>1489.7001953</ele>
        <time>2011-02-05T16:34:09Z</time>
      </trkpt>
      <trkpt lat="45.8057" lon="6.0986">
        <ele>1489.2194824</ele>
        <time>2011-02-05T16:34:11Z</time>
      </trkpt>
      <trkpt lat="45.80558" lon="6.0985">
        <ele>1488.2583008</ele>
        <time>2011-02-05T16:34:14Z</time>
      </trkpt>
      <trkpt lat="45.80551" lon="6.09843">
        <ele>1487.296875</ele>
        <time>2011-02-05T16:34:16Z</time>
      </trkpt>
      <trkpt lat="45.80545" lon="6.09836">
        <ele>1485.8549805</ele>
        <time>2011-02-05T16:34:18Z</time>
      </trkpt>
      <trkpt lat="45.80541" lon="6.09832">
        <ele>1485.8549805</ele>
        <time>2011-02-05T16:34:19Z</time>
      </trkpt>
      <trkpt lat="45.80533" lon="6.0982">
        <ele>1484.8937988</ele>
        <time>2011-02-05T16:34:22Z</time>
      </trkpt>
      <trkpt lat="45.80529" lon="6.09811">
        <ele>1484.4130859</ele>
        <time>2011-02-05T16:34:24Z</time>
      </trkpt>
      <trkpt lat="45.80525" lon="6.09802">
        <ele>1483.9321289</ele>
        <time>2011-02-05T16:34:26Z</time>
      </trkpt>
      <trkpt lat="45.80521" lon="6.09793">
        <ele>1482.9707031</ele>
        <time>2011-02-05T16:34:28Z</time>
      </trkpt>
      <trkpt lat="45.80516" lon="6.09785">
        <ele>1482.4902344</ele>
        <time>2011-02-05T16:34:30Z</time>
      </trkpt>
      <trkpt lat="45.8051" lon="6.09777">
        <ele>1482.4902344</ele>
        <time>2011-02-05T16:34:32Z</time>
      </trkpt>
      <trkpt lat="45.80504" lon="6.09769">
        <ele>1482.9707031</ele>
        <time>2011-02-05T16:34:34Z</time>
      </trkpt>
      <trkpt lat="45.80498" lon="6.09762">
        <ele>1482.9707031</ele>
        <time>2011-02-05T16:34:36Z</time>
      </trkpt>
      <trkpt lat="45.80492" lon="6.09754">
        <ele>1483.451416</ele>
        <time>2011-02-05T16:34:38Z</time>
      </trkpt>
      <trkpt lat="45.80482" lon="6.09742">
        <ele>1482.9707031</ele>
        <time>2011-02-05T16:34:41Z</time>
      </trkpt>
      <trkpt lat="45.80476" lon="6.09733">
        <ele>1482.4902344</ele>
        <time>2011-02-05T16:34:43Z</time>
      </trkpt>
      <trkpt lat="45.8047" lon="6.09725">
        <ele>1482.4902344</ele>
        <time>2011-02-05T16:34:45Z</time>
      </trkpt>
      <trkpt lat="45.80464" lon="6.09716">
        <ele>1481.5288086</ele>
        <time>2011-02-05T16:34:47Z</time>
      </trkpt>
      <trkpt lat="45.80458" lon="6.09707">
        <ele>1481.0483398</ele>
        <time>2011-02-05T16:34:49Z</time>
      </trkpt>
      <trkpt lat="45.80453" lon="6.09698">
        <ele>1481.0483398</ele>
        <time>2011-02-05T16:34:51Z</time>
      </trkpt>
      <trkpt lat="45.80448" lon="6.09688">
        <ele>1481.0483398</ele>
        <time>2011-02-05T16:34:53Z</time>
      </trkpt>
      <trkpt lat="45.80442" lon="6.09679">
        <ele>1481.0483398</ele>
        <time>2011-02-05T16:34:55Z</time>
      </trkpt>
      <trkpt lat="45.80436" lon="6.09669">
        <ele>1480.0869141</ele>
        <time>2011-02-05T16:34:57Z</time>
      </trkpt>
      <trkpt lat="45.80425" lon="6.09657">
        <ele>1478.6450195</ele>
        <time>2011-02-05T16:35:00Z</time>
      </trkpt>
      <trkpt lat="45.80417" lon="6.09647">
        <ele>1477.6835938</ele>
        <time>2011-02-05T16:35:02Z</time>
      </trkpt>
      <trkpt lat="45.8041" lon="6.09641">
        <ele>1476.2416992</ele>
        <time>2011-02-05T16:35:04Z</time>
      </trkpt>
      <trkpt lat="45.80407" lon="6.09639">
        <ele>1475.7609863</ele>
        <time>2011-02-05T16:35:05Z</time>
      </trkpt>
      <trkpt lat="45.80393" lon="6.09641">
        <ele>1475.2802734</ele>
        <time>2011-02-05T16:35:09Z</time>
      </trkpt>
      <trkpt lat="45.80386" lon="6.09645">
        <ele>1475.7609863</ele>
        <time>2011-02-05T16:35:11Z</time>
      </trkpt>
      <trkpt lat="45.80381" lon="6.09649">
        <ele>1476.2416992</ele>
        <time>2011-02-05T16:35:13Z</time>
      </trkpt>
      <trkpt lat="45.80375" lon="6.09656">
        <ele>1476.7224121</ele>
        <time>2011-02-05T16:35:15Z</time>
      </trkpt>
      <trkpt lat="45.8037" lon="6.09662">
        <ele>1477.6835938</ele>
        <time>2011-02-05T16:35:17Z</time>
      </trkpt>
      <trkpt lat="45.80367" lon="6.09666">
        <ele>1478.1643066</ele>
        <time>2011-02-05T16:35:18Z</time>
      </trkpt>
      <trkpt lat="45.8036" lon="6.09676">
        <ele>1478.6450195</ele>
        <time>2011-02-05T16:35:21Z</time>
      </trkpt>
      <trkpt lat="45.80358" lon="6.0968">
        <ele>1479.1254883</ele>
        <time>2011-02-05T16:35:22Z</time>
      </trkpt>
      <trkpt lat="45.80358" lon="6.0968">
        <ele>1479.1254883</ele>
        <time>2011-02-05T16:35:22Z</time>
      </trkpt>
      <trkpt lat="45.80355" lon="6.09684">
        <ele>1479.1254883</ele>
        <time>2011-02-05T16:35:23Z</time>
      </trkpt>
      <trkpt lat="45.80349" lon="6.09691">
        <ele>1479.1254883</ele>
        <time>2011-02-05T16:35:25Z</time>
      </trkpt>
      <trkpt lat="45.80342" lon="6.09697">
        <ele>1479.6062012</ele>
        <time>2011-02-05T16:35:27Z</time>
      </trkpt>
      <trkpt lat="45.80334" lon="6.09702">
        <ele>1479.1254883</ele>
        <time>2011-02-05T16:35:29Z</time>
      </trkpt>
      <trkpt lat="45.80326" lon="6.09705">
        <ele>1479.1254883</ele>
        <time>2011-02-05T16:35:31Z</time>
      </trkpt>
      <trkpt lat="45.80318" lon="6.09706">
        <ele>1480.0869141</ele>
        <time>2011-02-05T16:35:33Z</time>
      </trkpt>
      <trkpt lat="45.80311" lon="6.09708">
        <ele>1479.6062012</ele>
        <time>2011-02-05T16:35:35Z</time>
      </trkpt>
      <trkpt lat="45.80303" lon="6.09709">
        <ele>1479.6062012</ele>
        <time>2011-02-05T16:35:37Z</time>
      </trkpt>
      <trkpt lat="45.80296" lon="6.09708">
        <ele>1479.1254883</ele>
        <time>2011-02-05T16:35:39Z</time>
      </trkpt>
      <trkpt lat="45.80288" lon="6.09707">
        <ele>1479.6062012</ele>
        <time>2011-02-05T16:35:41Z</time>
      </trkpt>
      <trkpt lat="45.80281" lon="6.09706">
        <ele>1479.1254883</ele>
        <time>2011-02-05T16:35:43Z</time>
      </trkpt>
      <trkpt lat="45.80274" lon="6.09706">
        <ele>1478.1643066</ele>
        <time>2011-02-05T16:35:45Z</time>
      </trkpt>
      <trkpt lat="45.80267" lon="6.09707">
        <ele>1478.1643066</ele>
        <time>2011-02-05T16:35:47Z</time>
      </trkpt>
      <trkpt lat="45.8026" lon="6.09706">
        <ele>1477.6835938</ele>
        <time>2011-02-05T16:35:49Z</time>
      </trkpt>
      <trkpt lat="45.80254" lon="6.09705">
        <ele>1477.203125</ele>
        <time>2011-02-05T16:35:51Z</time>
      </trkpt>
      <trkpt lat="45.80248" lon="6.09704">
        <ele>1477.203125</ele>
        <time>2011-02-05T16:35:53Z</time>
      </trkpt>
      <trkpt lat="45.80242" lon="6.09702">
        <ele>1478.1643066</ele>
        <time>2011-02-05T16:35:55Z</time>
      </trkpt>
      <trkpt lat="45.80236" lon="6.09699">
        <ele>1478.1643066</ele>
        <time>2011-02-05T16:35:57Z</time>
      </trkpt>
      <trkpt lat="45.80231" lon="6.09697">
        <ele>1479.6062012</ele>
        <time>2011-02-05T16:35:59Z</time>
      </trkpt>
      <trkpt lat="45.80225" lon="6.09694">
        <ele>1480.567627</ele>
        <time>2011-02-05T16:36:01Z</time>
      </trkpt>
      <trkpt lat="45.8022" lon="6.09692">
        <ele>1481.5288086</ele>
        <time>2011-02-05T16:36:03Z</time>
      </trkpt>
      <trkpt lat="45.80215" lon="6.0969">
        <ele>1482.0095215</ele>
        <time>2011-02-05T16:36:05Z</time>
      </trkpt>
      <trkpt lat="45.80209" lon="6.09687">
        <ele>1482.9707031</ele>
        <time>2011-02-05T16:36:07Z</time>
      </trkpt>
      <trkpt lat="45.80204" lon="6.09685">
        <ele>1483.9321289</ele>
        <time>2011-02-05T16:36:09Z</time>
      </trkpt>
      <trkpt lat="45.802" lon="6.09683">
        <ele>1484.8937988</ele>
        <time>2011-02-05T16:36:11Z</time>
      </trkpt>
      <trkpt lat="45.80196" lon="6.0968">
        <ele>1485.8549805</ele>
        <time>2011-02-05T16:36:13Z</time>
      </trkpt>
      <trkpt lat="45.80191" lon="6.09678">
        <ele>1486.3356934</ele>
        <time>2011-02-05T16:36:15Z</time>
      </trkpt>
      <trkpt lat="45.80186" lon="6.09676">
        <ele>1486.8161621</ele>
        <time>2011-02-05T16:36:17Z</time>
      </trkpt>
      <trkpt lat="45.80181" lon="6.09673">
        <ele>1487.7775879</ele>
        <time>2011-02-05T16:36:19Z</time>
      </trkpt>
      <trkpt lat="45.80177" lon="6.09671">
        <ele>1488.7390137</ele>
        <time>2011-02-05T16:36:21Z</time>
      </trkpt>
      <trkpt lat="45.80172" lon="6.0967">
        <ele>1489.2194824</ele>
        <time>2011-02-05T16:36:23Z</time>
      </trkpt>
      <trkpt lat="45.80168" lon="6.09669">
        <ele>1489.7001953</ele>
        <time>2011-02-05T16:36:25Z</time>
      </trkpt>
      <trkpt lat="45.80163" lon="6.09667">
        <ele>1493.0646973</ele>
        <time>2011-02-05T16:36:27Z</time>
      </trkpt>
      <trkpt lat="45.80159" lon="6.09665">
        <ele>1494.026123</ele>
        <time>2011-02-05T16:36:29Z</time>
      </trkpt>
      <trkpt lat="45.80154" lon="6.09662">
        <ele>1494.9873047</ele>
        <time>2011-02-05T16:36:31Z</time>
      </trkpt>
      <trkpt lat="45.80148" lon="6.0966">
        <ele>1495.4680176</ele>
        <time>2011-02-05T16:36:33Z</time>
      </trkpt>
      <trkpt lat="45.80144" lon="6.09657">
        <ele>1496.9099121</ele>
        <time>2011-02-05T16:36:35Z</time>
      </trkpt>
      <trkpt lat="45.80139" lon="6.09654">
        <ele>1497.8713379</ele>
        <time>2011-02-05T16:36:37Z</time>
      </trkpt>
      <trkpt lat="45.80134" lon="6.09651">
        <ele>1498.8325195</ele>
        <time>2011-02-05T16:36:39Z</time>
      </trkpt>
      <trkpt lat="45.8013" lon="6.09648">
        <ele>1498.8325195</ele>
        <time>2011-02-05T16:36:41Z</time>
      </trkpt>
      <trkpt lat="45.80125" lon="6.09644">
        <ele>1499.3132324</ele>
        <time>2011-02-05T16:36:43Z</time>
      </trkpt>
      <trkpt lat="45.8012" lon="6.0964">
        <ele>1499.3132324</ele>
        <time>2011-02-05T16:36:45Z</time>
      </trkpt>
      <trkpt lat="45.80114" lon="6.09636">
        <ele>1499.3132324</ele>
        <time>2011-02-05T16:36:47Z</time>
      </trkpt>
      <trkpt lat="45.8011" lon="6.09631">
        <ele>1499.3132324</ele>
        <time>2011-02-05T16:36:49Z</time>
      </trkpt>
      <trkpt lat="45.80106" lon="6.09626">
        <ele>1499.3132324</ele>
        <time>2011-02-05T16:36:51Z</time>
      </trkpt>
      <trkpt lat="45.80102" lon="6.09621">
        <ele>1500.2749023</ele>
        <time>2011-02-05T16:36:53Z</time>
      </trkpt>
      <trkpt lat="45.80097" lon="6.09616">
        <ele>1500.7553711</ele>
        <time>2011-02-05T16:36:55Z</time>
      </trkpt>
      <trkpt lat="45.80093" lon="6.09611">
        <ele>1503.1586914</ele>
        <time>2011-02-05T16:36:57Z</time>
      </trkpt>
      <trkpt lat="45.8009" lon="6.09606">
        <ele>1504.6005859</ele>
        <time>2011-02-05T16:36:59Z</time>
      </trkpt>
      <trkpt lat="45.80087" lon="6.09602">
        <ele>1506.0424805</ele>
        <time>2011-02-05T16:37:01Z</time>
      </trkpt>
      <trkpt lat="45.80083" lon="6.09598">
        <ele>1507.4846191</ele>
        <time>2011-02-05T16:37:03Z</time>
      </trkpt>
      <trkpt lat="45.80078" lon="6.09595">
        <ele>1508.4458008</ele>
        <time>2011-02-05T16:37:05Z</time>
      </trkpt>
      <trkpt lat="45.80073" lon="6.09593">
        <ele>1508.4458008</ele>
        <time>2011-02-05T16:37:07Z</time>
      </trkpt>
      <trkpt lat="45.80068" lon="6.09591">
        <ele>1509.4072266</ele>
        <time>2011-02-05T16:37:09Z</time>
      </trkpt>
      <trkpt lat="45.80063" lon="6.09588">
        <ele>1509.4072266</ele>
        <time>2011-02-05T16:37:11Z</time>
      </trkpt>
      <trkpt lat="45.80058" lon="6.09586">
        <ele>1510.3684082</ele>
        <time>2011-02-05T16:37:13Z</time>
      </trkpt>
      <trkpt lat="45.80053" lon="6.09583">
        <ele>1510.3684082</ele>
        <time>2011-02-05T16:37:15Z</time>
      </trkpt>
      <trkpt lat="45.80049" lon="6.0958">
        <ele>1510.8491211</ele>
        <time>2011-02-05T16:37:17Z</time>
      </trkpt>
      <trkpt lat="45.80044" lon="6.09578">
        <ele>1511.8105469</ele>
        <time>2011-02-05T16:37:19Z</time>
      </trkpt>
      <trkpt lat="45.80039" lon="6.09576">
        <ele>1512.2910156</ele>
        <time>2011-02-05T16:37:21Z</time>
      </trkpt>
      <trkpt lat="45.80034" lon="6.09576">
        <ele>1512.7717285</ele>
        <time>2011-02-05T16:37:23Z</time>
      </trkpt>
      <trkpt lat="45.80029" lon="6.09576">
        <ele>1512.7717285</ele>
        <time>2011-02-05T16:37:25Z</time>
      </trkpt>
      <trkpt lat="45.80024" lon="6.09575">
        <ele>1512.7717285</ele>
        <time>2011-02-05T16:37:27Z</time>
      </trkpt>
      <trkpt lat="45.8002" lon="6.09575">
        <ele>1513.2524414</ele>
        <time>2011-02-05T16:37:29Z</time>
      </trkpt>
      <trkpt lat="45.80015" lon="6.09574">
        <ele>1514.213623</ele>
        <time>2011-02-05T16:37:31Z</time>
      </trkpt>
      <trkpt lat="45.80011" lon="6.09572">
        <ele>1514.213623</ele>
        <time>2011-02-05T16:37:33Z</time>
      </trkpt>
      <trkpt lat="45.80006" lon="6.09571">
        <ele>1514.6943359</ele>
        <time>2011-02-05T16:37:35Z</time>
      </trkpt>
      <trkpt lat="45.80002" lon="6.09569">
        <ele>1514.6943359</ele>
        <time>2011-02-05T16:37:37Z</time>
      </trkpt>
      <trkpt lat="45.79996" lon="6.09569">
        <ele>1514.6943359</ele>
        <time>2011-02-05T16:37:39Z</time>
      </trkpt>
      <trkpt lat="45.79991" lon="6.09569">
        <ele>1514.6943359</ele>
        <time>2011-02-05T16:37:41Z</time>
      </trkpt>
      <trkpt lat="45.79984" lon="6.09567">
        <ele>1515.1750488</ele>
        <time>2011-02-05T16:37:44Z</time>
      </trkpt>
      <trkpt lat="45.79977" lon="6.09563">
        <ele>1516.6171875</ele>
        <time>2011-02-05T16:37:47Z</time>
      </trkpt>
      <trkpt lat="45.79975" lon="6.09562">
        <ele>1517.0979004</ele>
        <time>2011-02-05T16:37:48Z</time>
      </trkpt>
      <trkpt lat="45.79967" lon="6.09555">
        <ele>1519.9816895</ele>
        <time>2011-02-05T16:37:51Z</time>
      </trkpt>
      <trkpt lat="45.79962" lon="6.09551">
        <ele>1521.423584</ele>
        <time>2011-02-05T16:37:53Z</time>
      </trkpt>
      <trkpt lat="45.79958" lon="6.09548">
        <ele>1521.423584</ele>
        <time>2011-02-05T16:37:55Z</time>
      </trkpt>
      <trkpt lat="45.79955" lon="6.09544">
        <ele>1520.9431152</ele>
        <time>2011-02-05T16:37:57Z</time>
      </trkpt>
      <trkpt lat="45.79951" lon="6.0954">
        <ele>1519.5012207</ele>
        <time>2011-02-05T16:37:59Z</time>
      </trkpt>
      <trkpt lat="45.79948" lon="6.09535">
        <ele>1519.0205078</ele>
        <time>2011-02-05T16:38:01Z</time>
      </trkpt>
      <trkpt lat="45.79944" lon="6.09532">
        <ele>1518.059082</ele>
        <time>2011-02-05T16:38:03Z</time>
      </trkpt>
      <trkpt lat="45.79941" lon="6.09529">
        <ele>1517.0979004</ele>
        <time>2011-02-05T16:38:05Z</time>
      </trkpt>
      <trkpt lat="45.79936" lon="6.09526">
        <ele>1518.5397949</ele>
        <time>2011-02-05T16:38:07Z</time>
      </trkpt>
      <trkpt lat="45.79931" lon="6.09523">
        <ele>1518.059082</ele>
        <time>2011-02-05T16:38:09Z</time>
      </trkpt>
      <trkpt lat="45.79927" lon="6.0952">
        <ele>1518.5397949</ele>
        <time>2011-02-05T16:38:11Z</time>
      </trkpt>
      <trkpt lat="45.79919" lon="6.09515">
        <ele>1522.3850098</ele>
        <time>2011-02-05T16:38:14Z</time>
      </trkpt>
      <trkpt lat="45.79915" lon="6.09513">
        <ele>1523.8269043</ele>
        <time>2011-02-05T16:38:16Z</time>
      </trkpt>
      <trkpt lat="45.79911" lon="6.09511">
        <ele>1524.3076172</ele>
        <time>2011-02-05T16:38:18Z</time>
      </trkpt>
      <trkpt lat="45.79905" lon="6.09509">
        <ele>1526.7109375</ele>
        <time>2011-02-05T16:38:21Z</time>
      </trkpt>
      <trkpt lat="45.799" lon="6.09505">
        <ele>1529.5947266</ele>
        <time>2011-02-05T16:38:23Z</time>
      </trkpt>
      <trkpt lat="45.79892" lon="6.09499">
        <ele>1531.9980469</ele>
        <time>2011-02-05T16:38:27Z</time>
      </trkpt>
      <trkpt lat="45.79886" lon="6.09494">
        <ele>1534.8823242</ele>
        <time>2011-02-05T16:38:30Z</time>
      </trkpt>
      <trkpt lat="45.7988" lon="6.09493">
        <ele>1535.362793</ele>
        <time>2011-02-05T16:38:33Z</time>
      </trkpt>
      <trkpt lat="45.79878" lon="6.09492">
        <ele>1534.4016113</ele>
        <time>2011-02-05T16:38:34Z</time>
      </trkpt>
      <trkpt lat="45.7987" lon="6.09488">
        <ele>1532.4790039</ele>
        <time>2011-02-05T16:38:38Z</time>
      </trkpt>
      <trkpt lat="45.79865" lon="6.09485">
        <ele>1532.4790039</ele>
        <time>2011-02-05T16:38:41Z</time>
      </trkpt>
      <trkpt lat="45.79858" lon="6.0948">
        <ele>1535.362793</ele>
        <time>2011-02-05T16:38:44Z</time>
      </trkpt>
      <trkpt lat="45.79852" lon="6.09474">
        <ele>1538.2468262</ele>
        <time>2011-02-05T16:38:47Z</time>
      </trkpt>
      <trkpt lat="45.79847" lon="6.09471">
        <ele>1539.2080078</ele>
        <time>2011-02-05T16:38:50Z</time>
      </trkpt>
      <trkpt lat="45.79841" lon="6.09472">
        <ele>1537.7661133</ele>
        <time>2011-02-05T16:38:53Z</time>
      </trkpt>
      <trkpt lat="45.79835" lon="6.09472">
        <ele>1537.7661133</ele>
        <time>2011-02-05T16:38:56Z</time>
      </trkpt>
      <trkpt lat="45.7983" lon="6.09475">
        <ele>1537.2854004</ele>
        <time>2011-02-05T16:38:59Z</time>
      </trkpt>
      <trkpt lat="45.79824" lon="6.09477">
        <ele>1536.8046875</ele>
        <time>2011-02-05T16:39:02Z</time>
      </trkpt>
      <trkpt lat="45.79818" lon="6.0948">
        <ele>1535.362793</ele>
        <time>2011-02-05T16:39:05Z</time>
      </trkpt>
      <trkpt lat="45.79813" lon="6.09483">
        <ele>1535.8435059</ele>
        <time>2011-02-05T16:39:08Z</time>
      </trkpt>
      <trkpt lat="45.79807" lon="6.09484">
        <ele>1536.8046875</ele>
        <time>2011-02-05T16:39:11Z</time>
      </trkpt>
      <trkpt lat="45.79801" lon="6.09485">
        <ele>1537.2854004</ele>
        <time>2011-02-05T16:39:14Z</time>
      </trkpt>
      <trkpt lat="45.79795" lon="6.09486">
        <ele>1538.7275391</ele>
        <time>2011-02-05T16:39:17Z</time>
      </trkpt>
      <trkpt lat="45.79789" lon="6.09488">
        <ele>1538.7275391</ele>
        <time>2011-02-05T16:39:20Z</time>
      </trkpt>
      <trkpt lat="45.79783" lon="6.09489">
        <ele>1539.2080078</ele>
        <time>2011-02-05T16:39:23Z</time>
      </trkpt>
      <trkpt lat="45.79777" lon="6.09491">
        <ele>1539.6887207</ele>
        <time>2011-02-05T16:39:26Z</time>
      </trkpt>
      <trkpt lat="45.79771" lon="6.09492">
        <ele>1541.1306152</ele>
        <time>2011-02-05T16:39:29Z</time>
      </trkpt>
      <trkpt lat="45.79765" lon="6.09494">
        <ele>1541.6113281</ele>
        <time>2011-02-05T16:39:32Z</time>
      </trkpt>
      <trkpt lat="45.7976" lon="6.09496">
        <ele>1543.0532227</ele>
        <time>2011-02-05T16:39:35Z</time>
      </trkpt>
      <trkpt lat="45.79754" lon="6.09497">
        <ele>1544.0146484</ele>
        <time>2011-02-05T16:39:38Z</time>
      </trkpt>
      <trkpt lat="45.79749" lon="6.09498">
        <ele>1546.4179688</ele>
        <time>2011-02-05T16:39:41Z</time>
      </trkpt>
      <trkpt lat="45.79743" lon="6.09499">
        <ele>1547.8598633</ele>
        <time>2011-02-05T16:39:44Z</time>
      </trkpt>
      <trkpt lat="45.79737" lon="6.09501">
        <ele>1549.302002</ele>
        <time>2011-02-05T16:39:47Z</time>
      </trkpt>
      <trkpt lat="45.79731" lon="6.09501">
        <ele>1550.2634277</ele>
        <time>2011-02-05T16:39:50Z</time>
      </trkpt>
      <trkpt lat="45.79726" lon="6.09501">
        <ele>1552.185791</ele>
        <time>2011-02-05T16:39:53Z</time>
      </trkpt>
      <trkpt lat="45.7972" lon="6.09501">
        <ele>1553.1472168</ele>
        <time>2011-02-05T16:39:56Z</time>
      </trkpt>
      <trkpt lat="45.79714" lon="6.09502">
        <ele>1553.6279297</ele>
        <time>2011-02-05T16:39:59Z</time>
      </trkpt>
      <trkpt lat="45.79709" lon="6.09503">
        <ele>1555.0698242</ele>
        <time>2011-02-05T16:40:02Z</time>
      </trkpt>
      <trkpt lat="45.79703" lon="6.09504">
        <ele>1556.0310059</ele>
        <time>2011-02-05T16:40:05Z</time>
      </trkpt>
      <trkpt lat="45.79697" lon="6.09505">
        <ele>1556.9924316</ele>
        <time>2011-02-05T16:40:08Z</time>
      </trkpt>
      <trkpt lat="45.79692" lon="6.09506">
        <ele>1558.4343262</ele>
        <time>2011-02-05T16:40:11Z</time>
      </trkpt>
      <trkpt lat="45.79688" lon="6.09508">
        <ele>1559.8762207</ele>
        <time>2011-02-05T16:40:13Z</time>
      </trkpt>
      <trkpt lat="45.79682" lon="6.09511">
        <ele>1563.7214355</ele>
        <time>2011-02-05T16:40:17Z</time>
      </trkpt>
      <trkpt lat="45.79678" lon="6.09513">
        <ele>1565.1638184</ele>
        <time>2011-02-05T16:40:21Z</time>
      </trkpt>
      <trkpt lat="45.79674" lon="6.09515">
        <ele>1564.6831055</ele>
        <time>2011-02-05T16:40:24Z</time>
      </trkpt>
      <trkpt lat="45.79671" lon="6.09516">
        <ele>1566.125</ele>
        <time>2011-02-05T16:40:28Z</time>
      </trkpt>
      <trkpt lat="45.79668" lon="6.0952">
        <ele>1566.125</ele>
        <time>2011-02-05T16:40:31Z</time>
      </trkpt>
      <trkpt lat="45.79664" lon="6.09527">
        <ele>1566.6057129</ele>
        <time>2011-02-05T16:40:35Z</time>
      </trkpt>
      <trkpt lat="45.79663" lon="6.09531">
        <ele>1567.5668945</ele>
        <time>2011-02-05T16:40:38Z</time>
      </trkpt>
      <trkpt lat="45.79662" lon="6.09535">
        <ele>1568.5283203</ele>
        <time>2011-02-05T16:40:41Z</time>
      </trkpt>
      <trkpt lat="45.79662" lon="6.09538">
        <ele>1568.5283203</ele>
        <time>2011-02-05T16:40:44Z</time>
      </trkpt>
      <trkpt lat="45.79661" lon="6.09544">
        <ele>1568.5283203</ele>
        <time>2011-02-05T16:40:48Z</time>
      </trkpt>
      <trkpt lat="45.7966" lon="6.0955">
        <ele>1568.5283203</ele>
        <time>2011-02-05T16:40:52Z</time>
      </trkpt>
      <trkpt lat="45.7966" lon="6.09553">
        <ele>1569.0090332</ele>
        <time>2011-02-05T16:40:54Z</time>
      </trkpt>
      <trkpt lat="45.79661" lon="6.09562">
        <ele>1571.4121094</ele>
        <time>2011-02-05T16:40:58Z</time>
      </trkpt>
      <trkpt lat="45.79661" lon="6.09573">
        <ele>1573.3349609</ele>
        <time>2011-02-05T16:41:02Z</time>
      </trkpt>
      <trkpt lat="45.7966" lon="6.09583">
        <ele>1575.2573242</ele>
        <time>2011-02-05T16:41:05Z</time>
      </trkpt>
      <trkpt lat="45.7966" lon="6.09592">
        <ele>1576.21875</ele>
        <time>2011-02-05T16:41:08Z</time>
      </trkpt>
      <trkpt lat="45.7966" lon="6.09601">
        <ele>1577.6606445</ele>
        <time>2011-02-05T16:41:11Z</time>
      </trkpt>
      <trkpt lat="45.79659" lon="6.09611">
        <ele>1579.1025391</ele>
        <time>2011-02-05T16:41:14Z</time>
      </trkpt>
      <trkpt lat="45.79659" lon="6.0962">
        <ele>1580.064209</ele>
        <time>2011-02-05T16:41:17Z</time>
      </trkpt>
      <trkpt lat="45.7966" lon="6.0963">
        <ele>1581.5061035</ele>
        <time>2011-02-05T16:41:20Z</time>
      </trkpt>
      <trkpt lat="45.7966" lon="6.09639">
        <ele>1582.4675293</ele>
        <time>2011-02-05T16:41:23Z</time>
      </trkpt>
      <trkpt lat="45.79659" lon="6.09649">
        <ele>1583.9094238</ele>
        <time>2011-02-05T16:41:26Z</time>
      </trkpt>
      <trkpt lat="45.79658" lon="6.09658">
        <ele>1584.3901367</ele>
        <time>2011-02-05T16:41:29Z</time>
      </trkpt>
      <trkpt lat="45.79655" lon="6.09666">
        <ele>1584.8708496</ele>
        <time>2011-02-05T16:41:32Z</time>
      </trkpt>
      <trkpt lat="45.79649" lon="6.09674">
        <ele>1585.8320313</ele>
        <time>2011-02-05T16:41:36Z</time>
      </trkpt>
      <trkpt lat="45.79644" lon="6.09677">
        <ele>1586.7932129</ele>
        <time>2011-02-05T16:41:39Z</time>
      </trkpt>
      <trkpt lat="45.79639" lon="6.0968">
        <ele>1587.7546387</ele>
        <time>2011-02-05T16:41:42Z</time>
      </trkpt>
      <trkpt lat="45.79633" lon="6.09681">
        <ele>1589.1965332</ele>
        <time>2011-02-05T16:41:45Z</time>
      </trkpt>
      <trkpt lat="45.79627" lon="6.09682">
        <ele>1590.157959</ele>
        <time>2011-02-05T16:41:48Z</time>
      </trkpt>
      <trkpt lat="45.79622" lon="6.09684">
        <ele>1591.5998535</ele>
        <time>2011-02-05T16:41:51Z</time>
      </trkpt>
      <trkpt lat="45.79616" lon="6.09687">
        <ele>1592.0805664</ele>
        <time>2011-02-05T16:41:54Z</time>
      </trkpt>
      <trkpt lat="45.79609" lon="6.0969">
        <ele>1593.041748</ele>
        <time>2011-02-05T16:41:57Z</time>
      </trkpt>
      <trkpt lat="45.79602" lon="6.09695">
        <ele>1593.5224609</ele>
        <time>2011-02-05T16:42:00Z</time>
      </trkpt>
      <trkpt lat="45.79602" lon="6.09695">
        <ele>1593.5224609</ele>
        <time>2011-02-05T16:42:00Z</time>
      </trkpt>
      <trkpt lat="45.796" lon="6.09697">
        <ele>1594.0031738</ele>
        <time>2011-02-05T16:42:01Z</time>
      </trkpt>
      <trkpt lat="45.79596" lon="6.09699">
        <ele>1594.4836426</ele>
        <time>2011-02-05T16:42:03Z</time>
      </trkpt>
      <trkpt lat="45.79592" lon="6.09702">
        <ele>1595.4450684</ele>
        <time>2011-02-05T16:42:05Z</time>
      </trkpt>
      <trkpt lat="45.79587" lon="6.09705">
        <ele>1595.9257813</ele>
        <time>2011-02-05T16:42:07Z</time>
      </trkpt>
      <trkpt lat="45.79583" lon="6.09708">
        <ele>1596.4067383</ele>
        <time>2011-02-05T16:42:09Z</time>
      </trkpt>
      <trkpt lat="45.79578" lon="6.0971">
        <ele>1597.3679199</ele>
        <time>2011-02-05T16:42:11Z</time>
      </trkpt>
      <trkpt lat="45.79574" lon="6.09713">
        <ele>1597.8486328</ele>
        <time>2011-02-05T16:42:13Z</time>
      </trkpt>
      <trkpt lat="45.79569" lon="6.09716">
        <ele>1598.3291016</ele>
        <time>2011-02-05T16:42:15Z</time>
      </trkpt>
      <trkpt lat="45.79565" lon="6.09719">
        <ele>1599.2905273</ele>
        <time>2011-02-05T16:42:17Z</time>
      </trkpt>
      <trkpt lat="45.79561" lon="6.09721">
        <ele>1599.2905273</ele>
        <time>2011-02-05T16:42:19Z</time>
      </trkpt>
      <trkpt lat="45.79556" lon="6.09725">
        <ele>1599.7712402</ele>
        <time>2011-02-05T16:42:21Z</time>
      </trkpt>
      <trkpt lat="45.79552" lon="6.09728">
        <ele>1600.2519531</ele>
        <time>2011-02-05T16:42:23Z</time>
      </trkpt>
      <trkpt lat="45.79548" lon="6.09731">
        <ele>1600.7324219</ele>
        <time>2011-02-05T16:42:25Z</time>
      </trkpt>
      <trkpt lat="45.79544" lon="6.09735">
        <ele>1601.2131348</ele>
        <time>2011-02-05T16:42:27Z</time>
      </trkpt>
      <trkpt lat="45.79539" lon="6.09739">
        <ele>1601.6938477</ele>
        <time>2011-02-05T16:42:29Z</time>
      </trkpt>
      <trkpt lat="45.79535" lon="6.09743">
        <ele>1602.1743164</ele>
        <time>2011-02-05T16:42:31Z</time>
      </trkpt>
      <trkpt lat="45.79531" lon="6.09746">
        <ele>1602.1743164</ele>
        <time>2011-02-05T16:42:33Z</time>
      </trkpt>
      <trkpt lat="45.79526" lon="6.0975">
        <ele>1602.6550293</ele>
        <time>2011-02-05T16:42:35Z</time>
      </trkpt>
      <trkpt lat="45.79522" lon="6.09755">
        <ele>1603.1357422</ele>
        <time>2011-02-05T16:42:37Z</time>
      </trkpt>
      <trkpt lat="45.79518" lon="6.09758">
        <ele>1604.097168</ele>
        <time>2011-02-05T16:42:39Z</time>
      </trkpt>
      <trkpt lat="45.79514" lon="6.09762">
        <ele>1604.5776367</ele>
        <time>2011-02-05T16:42:41Z</time>
      </trkpt>
      <trkpt lat="45.7951" lon="6.09766">
        <ele>1604.5776367</ele>
        <time>2011-02-05T16:42:43Z</time>
      </trkpt>
      <trkpt lat="45.79506" lon="6.0977">
        <ele>1605.0583496</ele>
        <time>2011-02-05T16:42:45Z</time>
      </trkpt>
      <trkpt lat="45.79502" lon="6.09774">
        <ele>1605.0583496</ele>
        <time>2011-02-05T16:42:47Z</time>
      </trkpt>
      <trkpt lat="45.79497" lon="6.09779">
        <ele>1605.5390625</ele>
        <time>2011-02-05T16:42:49Z</time>
      </trkpt>
      <trkpt lat="45.79493" lon="6.09784">
        <ele>1606.0195313</ele>
        <time>2011-02-05T16:42:51Z</time>
      </trkpt>
      <trkpt lat="45.79489" lon="6.09789">
        <ele>1606.5002441</ele>
        <time>2011-02-05T16:42:53Z</time>
      </trkpt>
      <trkpt lat="45.79484" lon="6.09794">
        <ele>1606.5002441</ele>
        <time>2011-02-05T16:42:55Z</time>
      </trkpt>
      <trkpt lat="45.7948" lon="6.09798">
        <ele>1606.980957</ele>
        <time>2011-02-05T16:42:57Z</time>
      </trkpt>
      <trkpt lat="45.79476" lon="6.09804">
        <ele>1607.4616699</ele>
        <time>2011-02-05T16:42:59Z</time>
      </trkpt>
      <trkpt lat="45.79471" lon="6.09808">
        <ele>1607.9423828</ele>
        <time>2011-02-05T16:43:01Z</time>
      </trkpt>
      <trkpt lat="45.79467" lon="6.09813">
        <ele>1607.4616699</ele>
        <time>2011-02-05T16:43:03Z</time>
      </trkpt>
      <trkpt lat="45.79463" lon="6.09818">
        <ele>1607.9423828</ele>
        <time>2011-02-05T16:43:05Z</time>
      </trkpt>
      <trkpt lat="45.79458" lon="6.09822">
        <ele>1608.4228516</ele>
        <time>2011-02-05T16:43:07Z</time>
      </trkpt>
      <trkpt lat="45.79454" lon="6.09827">
        <ele>1608.9035645</ele>
        <time>2011-02-05T16:43:09Z</time>
      </trkpt>
      <trkpt lat="45.7945" lon="6.09831">
        <ele>1609.3842773</ele>
        <time>2011-02-05T16:43:11Z</time>
      </trkpt>
      <trkpt lat="45.79446" lon="6.09836">
        <ele>1609.3842773</ele>
        <time>2011-02-05T16:43:13Z</time>
      </trkpt>
      <trkpt lat="45.79441" lon="6.0984">
        <ele>1609.3842773</ele>
        <time>2011-02-05T16:43:15Z</time>
      </trkpt>
      <trkpt lat="45.79436" lon="6.09844">
        <ele>1609.3842773</ele>
        <time>2011-02-05T16:43:17Z</time>
      </trkpt>
      <trkpt lat="45.79432" lon="6.09848">
        <ele>1609.8647461</ele>
        <time>2011-02-05T16:43:19Z</time>
      </trkpt>
      <trkpt lat="45.79427" lon="6.09852">
        <ele>1610.345459</ele>
        <time>2011-02-05T16:43:21Z</time>
      </trkpt>
      <trkpt lat="45.79422" lon="6.09855">
        <ele>1610.8261719</ele>
        <time>2011-02-05T16:43:23Z</time>
      </trkpt>
      <trkpt lat="45.79417" lon="6.09858">
        <ele>1611.3068848</ele>
        <time>2011-02-05T16:43:25Z</time>
      </trkpt>
      <trkpt lat="45.79413" lon="6.09861">
        <ele>1612.2683105</ele>
        <time>2011-02-05T16:43:27Z</time>
      </trkpt>
      <trkpt lat="45.79409" lon="6.09864">
        <ele>1612.7490234</ele>
        <time>2011-02-05T16:43:29Z</time>
      </trkpt>
      <trkpt lat="45.79404" lon="6.09867">
        <ele>1613.7102051</ele>
        <time>2011-02-05T16:43:31Z</time>
      </trkpt>
      <trkpt lat="45.794" lon="6.09869">
        <ele>1614.6716309</ele>
        <time>2011-02-05T16:43:33Z</time>
      </trkpt>
      <trkpt lat="45.79396" lon="6.09872">
        <ele>1615.6330566</ele>
        <time>2011-02-05T16:43:35Z</time>
      </trkpt>
      <trkpt lat="45.79392" lon="6.09875">
        <ele>1615.6330566</ele>
        <time>2011-02-05T16:43:37Z</time>
      </trkpt>
      <trkpt lat="45.79387" lon="6.09879">
        <ele>1616.5942383</ele>
        <time>2011-02-05T16:43:39Z</time>
      </trkpt>
      <trkpt lat="45.79383" lon="6.09882">
        <ele>1617.0749512</ele>
        <time>2011-02-05T16:43:41Z</time>
      </trkpt>
      <trkpt lat="45.79378" lon="6.09886">
        <ele>1618.0361328</ele>
        <time>2011-02-05T16:43:43Z</time>
      </trkpt>
      <trkpt lat="45.79374" lon="6.09889">
        <ele>1618.9975586</ele>
        <time>2011-02-05T16:43:45Z</time>
      </trkpt>
      <trkpt lat="45.79369" lon="6.09893">
        <ele>1619.4782715</ele>
        <time>2011-02-05T16:43:47Z</time>
      </trkpt>
      <trkpt lat="45.79364" lon="6.09897">
        <ele>1619.4782715</ele>
        <time>2011-02-05T16:43:49Z</time>
      </trkpt>
      <trkpt lat="45.79359" lon="6.099">
        <ele>1619.4782715</ele>
        <time>2011-02-05T16:43:51Z</time>
      </trkpt>
      <trkpt lat="45.79354" lon="6.09903">
        <ele>1619.9587402</ele>
        <time>2011-02-05T16:43:53Z</time>
      </trkpt>
      <trkpt lat="45.79348" lon="6.09907">
        <ele>1619.9587402</ele>
        <time>2011-02-05T16:43:55Z</time>
      </trkpt>
      <trkpt lat="45.79343" lon="6.09911">
        <ele>1620.4394531</ele>
        <time>2011-02-05T16:43:57Z</time>
      </trkpt>
      <trkpt lat="45.79338" lon="6.09915">
        <ele>1620.920166</ele>
        <time>2011-02-05T16:43:59Z</time>
      </trkpt>
      <trkpt lat="45.79333" lon="6.09919">
        <ele>1620.920166</ele>
        <time>2011-02-05T16:44:01Z</time>
      </trkpt>
      <trkpt lat="45.79328" lon="6.09922">
        <ele>1621.4006348</ele>
        <time>2011-02-05T16:44:03Z</time>
      </trkpt>
      <trkpt lat="45.79323" lon="6.09926">
        <ele>1621.8813477</ele>
        <time>2011-02-05T16:44:05Z</time>
      </trkpt>
      <trkpt lat="45.79319" lon="6.0993">
        <ele>1622.3620605</ele>
        <time>2011-02-05T16:44:07Z</time>
      </trkpt>
      <trkpt lat="45.79314" lon="6.09934">
        <ele>1622.8427734</ele>
        <time>2011-02-05T16:44:09Z</time>
      </trkpt>
      <trkpt lat="45.79309" lon="6.09937">
        <ele>1623.3234863</ele>
        <time>2011-02-05T16:44:11Z</time>
      </trkpt>
      <trkpt lat="45.79304" lon="6.09941">
        <ele>1623.8039551</ele>
        <time>2011-02-05T16:44:13Z</time>
      </trkpt>
      <trkpt lat="45.793" lon="6.09943">
        <ele>1624.7653809</ele>
        <time>2011-02-05T16:44:15Z</time>
      </trkpt>
      <trkpt lat="45.79296" lon="6.09945">
        <ele>1625.7265625</ele>
        <time>2011-02-05T16:44:17Z</time>
      </trkpt>
      <trkpt lat="45.79291" lon="6.09947">
        <ele>1626.6879883</ele>
        <time>2011-02-05T16:44:19Z</time>
      </trkpt>
      <trkpt lat="45.79287" lon="6.09949">
        <ele>1627.6491699</ele>
        <time>2011-02-05T16:44:21Z</time>
      </trkpt>
      <trkpt lat="45.79283" lon="6.09952">
        <ele>1628.6108398</ele>
        <time>2011-02-05T16:44:23Z</time>
      </trkpt>
      <trkpt lat="45.79279" lon="6.09955">
        <ele>1630.0527344</ele>
        <time>2011-02-05T16:44:25Z</time>
      </trkpt>
      <trkpt lat="45.79275" lon="6.09957">
        <ele>1631.0141602</ele>
        <time>2011-02-05T16:44:27Z</time>
      </trkpt>
      <trkpt lat="45.7927" lon="6.09958">
        <ele>1631.9753418</ele>
        <time>2011-02-05T16:44:29Z</time>
      </trkpt>
      <trkpt lat="45.79265" lon="6.0996">
        <ele>1632.4560547</ele>
        <time>2011-02-05T16:44:31Z</time>
      </trkpt>
      <trkpt lat="45.7926" lon="6.09961">
        <ele>1633.4172363</ele>
        <time>2011-02-05T16:44:33Z</time>
      </trkpt>
      <trkpt lat="45.79255" lon="6.09961">
        <ele>1633.8979492</ele>
        <time>2011-02-05T16:44:35Z</time>
      </trkpt>
      <trkpt lat="45.7925" lon="6.09961">
        <ele>1634.3786621</ele>
        <time>2011-02-05T16:44:37Z</time>
      </trkpt>
      <trkpt lat="45.79246" lon="6.09961">
        <ele>1634.859375</ele>
        <time>2011-02-05T16:44:39Z</time>
      </trkpt>
      <trkpt lat="45.7924" lon="6.09961">
        <ele>1635.3398438</ele>
        <time>2011-02-05T16:44:41Z</time>
      </trkpt>
      <trkpt lat="45.79235" lon="6.09961">
        <ele>1635.8205566</ele>
        <time>2011-02-05T16:44:43Z</time>
      </trkpt>
      <trkpt lat="45.7923" lon="6.09961">
        <ele>1635.8205566</ele>
        <time>2011-02-05T16:44:45Z</time>
      </trkpt>
      <trkpt lat="45.79225" lon="6.09961">
        <ele>1635.8205566</ele>
        <time>2011-02-05T16:44:47Z</time>
      </trkpt>
      <trkpt lat="45.79219" lon="6.09961">
        <ele>1636.3012695</ele>
        <time>2011-02-05T16:44:49Z</time>
      </trkpt>
      <trkpt lat="45.79214" lon="6.0996">
        <ele>1636.3012695</ele>
        <time>2011-02-05T16:44:51Z</time>
      </trkpt>
      <trkpt lat="45.79208" lon="6.0996">
        <ele>1636.3012695</ele>
        <time>2011-02-05T16:44:53Z</time>
      </trkpt>
      <trkpt lat="45.79202" lon="6.0996">
        <ele>1636.7817383</ele>
        <time>2011-02-05T16:44:55Z</time>
      </trkpt>
      <trkpt lat="45.79197" lon="6.0996">
        <ele>1636.7817383</ele>
        <time>2011-02-05T16:44:57Z</time>
      </trkpt>
      <trkpt lat="45.79191" lon="6.0996">
        <ele>1637.2624512</ele>
        <time>2011-02-05T16:44:59Z</time>
      </trkpt>
      <trkpt lat="45.79185" lon="6.09959">
        <ele>1637.7431641</ele>
        <time>2011-02-05T16:45:01Z</time>
      </trkpt>
      <trkpt lat="45.7918" lon="6.09959">
        <ele>1637.7431641</ele>
        <time>2011-02-05T16:45:03Z</time>
      </trkpt>
      <trkpt lat="45.79174" lon="6.09958">
        <ele>1638.223877</ele>
        <time>2011-02-05T16:45:05Z</time>
      </trkpt>
      <trkpt lat="45.79168" lon="6.09958">
        <ele>1638.223877</ele>
        <time>2011-02-05T16:45:07Z</time>
      </trkpt>
      <trkpt lat="45.79162" lon="6.09956">
        <ele>1638.223877</ele>
        <time>2011-02-05T16:45:09Z</time>
      </trkpt>
      <trkpt lat="45.79156" lon="6.09953">
        <ele>1638.7045898</ele>
        <time>2011-02-05T16:45:11Z</time>
      </trkpt>
      <trkpt lat="45.79151" lon="6.09949">
        <ele>1639.1850586</ele>
        <time>2011-02-05T16:45:13Z</time>
      </trkpt>
      <trkpt lat="45.79145" lon="6.09944">
        <ele>1639.1850586</ele>
        <time>2011-02-05T16:45:15Z</time>
      </trkpt>
      <trkpt lat="45.79139" lon="6.0994">
        <ele>1639.6657715</ele>
        <time>2011-02-05T16:45:17Z</time>
      </trkpt>
      <trkpt lat="45.79133" lon="6.09936">
        <ele>1639.6657715</ele>
        <time>2011-02-05T16:45:19Z</time>
      </trkpt>
      <trkpt lat="45.79127" lon="6.09932">
        <ele>1640.6269531</ele>
        <time>2011-02-05T16:45:21Z</time>
      </trkpt>
      <trkpt lat="45.79121" lon="6.09929">
        <ele>1640.6269531</ele>
        <time>2011-02-05T16:45:23Z</time>
      </trkpt>
      <trkpt lat="45.79115" lon="6.09926">
        <ele>1641.107666</ele>
        <time>2011-02-05T16:45:25Z</time>
      </trkpt>
      <trkpt lat="45.79109" lon="6.09923">
        <ele>1641.5883789</ele>
        <time>2011-02-05T16:45:27Z</time>
      </trkpt>
      <trkpt lat="45.79102" lon="6.0992">
        <ele>1641.5883789</ele>
        <time>2011-02-05T16:45:29Z</time>
      </trkpt>
      <trkpt lat="45.79096" lon="6.09917">
        <ele>1641.5883789</ele>
        <time>2011-02-05T16:45:31Z</time>
      </trkpt>
      <trkpt lat="45.7909" lon="6.09913">
        <ele>1641.107666</ele>
        <time>2011-02-05T16:45:33Z</time>
      </trkpt>
      <trkpt lat="45.79084" lon="6.09908">
        <ele>1641.107666</ele>
        <time>2011-02-05T16:45:35Z</time>
      </trkpt>
      <trkpt lat="45.79079" lon="6.09902">
        <ele>1641.5883789</ele>
        <time>2011-02-05T16:45:37Z</time>
      </trkpt>
      <trkpt lat="45.79073" lon="6.09895">
        <ele>1641.5883789</ele>
        <time>2011-02-05T16:45:39Z</time>
      </trkpt>
      <trkpt lat="45.79069" lon="6.09888">
        <ele>1641.5883789</ele>
        <time>2011-02-05T16:45:41Z</time>
      </trkpt>
      <trkpt lat="45.79064" lon="6.09881">
        <ele>1641.5883789</ele>
        <time>2011-02-05T16:45:43Z</time>
      </trkpt>
      <trkpt lat="45.79059" lon="6.09873">
        <ele>1641.5883789</ele>
        <time>2011-02-05T16:45:45Z</time>
      </trkpt>
      <trkpt lat="45.79054" lon="6.09866">
        <ele>1641.5883789</ele>
        <time>2011-02-05T16:45:47Z</time>
      </trkpt>
      <trkpt lat="45.79049" lon="6.09859">
        <ele>1641.5883789</ele>
        <time>2011-02-05T16:45:49Z</time>
      </trkpt>
      <trkpt lat="45.79045" lon="6.09852">
        <ele>1642.0690918</ele>
        <time>2011-02-05T16:45:51Z</time>
      </trkpt>
      <trkpt lat="45.7904" lon="6.09846">
        <ele>1642.5498047</ele>
        <time>2011-02-05T16:45:53Z</time>
      </trkpt>
      <trkpt lat="45.79036" lon="6.0984">
        <ele>1643.0302734</ele>
        <time>2011-02-05T16:45:55Z</time>
      </trkpt>
      <trkpt lat="45.79032" lon="6.09834">
        <ele>1643.9916992</ele>
        <time>2011-02-05T16:45:57Z</time>
      </trkpt>
      <trkpt lat="45.79027" lon="6.09828">
        <ele>1643.9916992</ele>
        <time>2011-02-05T16:45:59Z</time>
      </trkpt>
      <trkpt lat="45.79022" lon="6.09822">
        <ele>1644.4724121</ele>
        <time>2011-02-05T16:46:01Z</time>
      </trkpt>
      <trkpt lat="45.79017" lon="6.09816">
        <ele>1644.953125</ele>
        <time>2011-02-05T16:46:03Z</time>
      </trkpt>
      <trkpt lat="45.79012" lon="6.0981">
        <ele>1644.953125</ele>
        <time>2011-02-05T16:46:05Z</time>
      </trkpt>
      <trkpt lat="45.79007" lon="6.09804">
        <ele>1645.4338379</ele>
        <time>2011-02-05T16:46:07Z</time>
      </trkpt>
      <trkpt lat="45.79001" lon="6.09798">
        <ele>1645.9145508</ele>
        <time>2011-02-05T16:46:09Z</time>
      </trkpt>
      <trkpt lat="45.78996" lon="6.09791">
        <ele>1646.3952637</ele>
        <time>2011-02-05T16:46:11Z</time>
      </trkpt>
      <trkpt lat="45.78991" lon="6.09785">
        <ele>1646.8757324</ele>
        <time>2011-02-05T16:46:13Z</time>
      </trkpt>
      <trkpt lat="45.78986" lon="6.0978">
        <ele>1647.8371582</ele>
        <time>2011-02-05T16:46:15Z</time>
      </trkpt>
      <trkpt lat="45.78982" lon="6.09774">
        <ele>1648.317627</ele>
        <time>2011-02-05T16:46:17Z</time>
      </trkpt>
      <trkpt lat="45.78977" lon="6.09767">
        <ele>1649.2790527</ele>
        <time>2011-02-05T16:46:19Z</time>
      </trkpt>
      <trkpt lat="45.78973" lon="6.09761">
        <ele>1649.7597656</ele>
        <time>2011-02-05T16:46:21Z</time>
      </trkpt>
      <trkpt lat="45.78969" lon="6.09754">
        <ele>1650.2404785</ele>
        <time>2011-02-05T16:46:23Z</time>
      </trkpt>
      <trkpt lat="45.78964" lon="6.09748">
        <ele>1650.2404785</ele>
        <time>2011-02-05T16:46:25Z</time>
      </trkpt>
      <trkpt lat="45.7896" lon="6.09741">
        <ele>1650.2404785</ele>
        <time>2011-02-05T16:46:27Z</time>
      </trkpt>
      <trkpt lat="45.78956" lon="6.09735">
        <ele>1650.2404785</ele>
        <time>2011-02-05T16:46:29Z</time>
      </trkpt>
      <trkpt lat="45.78952" lon="6.09729">
        <ele>1650.2404785</ele>
        <time>2011-02-05T16:46:31Z</time>
      </trkpt>
      <trkpt lat="45.78948" lon="6.09722">
        <ele>1650.2404785</ele>
        <time>2011-02-05T16:46:33Z</time>
      </trkpt>
      <trkpt lat="45.78944" lon="6.09716">
        <ele>1650.7209473</ele>
        <time>2011-02-05T16:46:35Z</time>
      </trkpt>
      <trkpt lat="45.7894" lon="6.09709">
        <ele>1650.2404785</ele>
        <time>2011-02-05T16:46:37Z</time>
      </trkpt>
      <trkpt lat="45.78936" lon="6.09703">
        <ele>1650.2404785</ele>
        <time>2011-02-05T16:46:39Z</time>
      </trkpt>
      <trkpt lat="45.78932" lon="6.09697">
        <ele>1650.2404785</ele>
        <time>2011-02-05T16:46:41Z</time>
      </trkpt>
      <trkpt lat="45.78928" lon="6.09691">
        <ele>1650.2404785</ele>
        <time>2011-02-05T16:46:43Z</time>
      </trkpt>
      <trkpt lat="45.78924" lon="6.09685">
        <ele>1650.2404785</ele>
        <time>2011-02-05T16:46:45Z</time>
      </trkpt>
      <trkpt lat="45.78921" lon="6.09677">
        <ele>1650.7209473</ele>
        <time>2011-02-05T16:46:47Z</time>
      </trkpt>
      <trkpt lat="45.78917" lon="6.0967">
        <ele>1651.2016602</ele>
        <time>2011-02-05T16:46:49Z</time>
      </trkpt>
      <trkpt lat="45.78913" lon="6.09663">
        <ele>1651.682373</ele>
        <time>2011-02-05T16:46:51Z</time>
      </trkpt>
      <trkpt lat="45.78909" lon="6.09656">
        <ele>1652.1628418</ele>
        <time>2011-02-05T16:46:53Z</time>
      </trkpt>
      <trkpt lat="45.78906" lon="6.09649">
        <ele>1652.6435547</ele>
        <time>2011-02-05T16:46:55Z</time>
      </trkpt>
      <trkpt lat="45.78902" lon="6.09642">
        <ele>1653.1242676</ele>
        <time>2011-02-05T16:46:57Z</time>
      </trkpt>
      <trkpt lat="45.78898" lon="6.09636">
        <ele>1654.0856934</ele>
        <time>2011-02-05T16:46:59Z</time>
      </trkpt>
      <trkpt lat="45.78895" lon="6.09629">
        <ele>1655.046875</ele>
        <time>2011-02-05T16:47:01Z</time>
      </trkpt>
      <trkpt lat="45.78892" lon="6.09623">
        <ele>1655.5275879</ele>
        <time>2011-02-05T16:47:03Z</time>
      </trkpt>
      <trkpt lat="45.78888" lon="6.09618">
        <ele>1656.4887695</ele>
        <time>2011-02-05T16:47:05Z</time>
      </trkpt>
      <trkpt lat="45.78884" lon="6.09612">
        <ele>1656.9694824</ele>
        <time>2011-02-05T16:47:07Z</time>
      </trkpt>
      <trkpt lat="45.78881" lon="6.09605">
        <ele>1657.9309082</ele>
        <time>2011-02-05T16:47:09Z</time>
      </trkpt>
      <trkpt lat="45.78877" lon="6.09599">
        <ele>1658.8920898</ele>
        <time>2011-02-05T16:47:11Z</time>
      </trkpt>
      <trkpt lat="45.78874" lon="6.09593">
        <ele>1659.8532715</ele>
        <time>2011-02-05T16:47:13Z</time>
      </trkpt>
      <trkpt lat="45.7887" lon="6.09587">
        <ele>1660.3342285</ele>
        <time>2011-02-05T16:47:15Z</time>
      </trkpt>
      <trkpt lat="45.78866" lon="6.09581">
        <ele>1660.8149414</ele>
        <time>2011-02-05T16:47:17Z</time>
      </trkpt>
      <trkpt lat="45.78863" lon="6.09575">
        <ele>1661.2956543</ele>
        <time>2011-02-05T16:47:19Z</time>
      </trkpt>
      <trkpt lat="45.78861" lon="6.09572">
        <ele>1661.2956543</ele>
        <time>2011-02-05T16:47:20Z</time>
      </trkpt>
      <trkpt lat="45.78858" lon="6.09565">
        <ele>1662.2568359</ele>
        <time>2011-02-05T16:47:22Z</time>
      </trkpt>
      <trkpt lat="45.78854" lon="6.09559">
        <ele>1662.2568359</ele>
        <time>2011-02-05T16:47:24Z</time>
      </trkpt>
      <trkpt lat="45.7885" lon="6.09553">
        <ele>1662.7375488</ele>
        <time>2011-02-05T16:47:26Z</time>
      </trkpt>
      <trkpt lat="45.78846" lon="6.09546">
        <ele>1663.2182617</ele>
        <time>2011-02-05T16:47:28Z</time>
      </trkpt>
      <trkpt lat="45.78841" lon="6.09541">
        <ele>1663.2182617</ele>
        <time>2011-02-05T16:47:30Z</time>
      </trkpt>
      <trkpt lat="45.78837" lon="6.09534">
        <ele>1664.1794434</ele>
        <time>2011-02-05T16:47:32Z</time>
      </trkpt>
      <trkpt lat="45.78832" lon="6.09528">
        <ele>1664.6601563</ele>
        <time>2011-02-05T16:47:34Z</time>
      </trkpt>
      <trkpt lat="45.78827" lon="6.09523">
        <ele>1664.6601563</ele>
        <time>2011-02-05T16:47:36Z</time>
      </trkpt>
      <trkpt lat="45.78822" lon="6.09518">
        <ele>1665.1408691</ele>
        <time>2011-02-05T16:47:38Z</time>
      </trkpt>
      <trkpt lat="45.78817" lon="6.09512">
        <ele>1665.1408691</ele>
        <time>2011-02-05T16:47:40Z</time>
      </trkpt>
      <trkpt lat="45.78811" lon="6.09507">
        <ele>1665.1408691</ele>
        <time>2011-02-05T16:47:42Z</time>
      </trkpt>
      <trkpt lat="45.78806" lon="6.09503">
        <ele>1664.6601563</ele>
        <time>2011-02-05T16:47:44Z</time>
      </trkpt>
      <trkpt lat="45.78801" lon="6.09498">
        <ele>1664.1794434</ele>
        <time>2011-02-05T16:47:46Z</time>
      </trkpt>
      <trkpt lat="45.78796" lon="6.09493">
        <ele>1663.6987305</ele>
        <time>2011-02-05T16:47:48Z</time>
      </trkpt>
      <trkpt lat="45.7879" lon="6.09488">
        <ele>1662.7375488</ele>
        <time>2011-02-05T16:47:50Z</time>
      </trkpt>
      <trkpt lat="45.78785" lon="6.09483">
        <ele>1662.7375488</ele>
        <time>2011-02-05T16:47:52Z</time>
      </trkpt>
      <trkpt lat="45.78779" lon="6.09478">
        <ele>1662.2568359</ele>
        <time>2011-02-05T16:47:54Z</time>
      </trkpt>
      <trkpt lat="45.78773" lon="6.09473">
        <ele>1662.2568359</ele>
        <time>2011-02-05T16:47:56Z</time>
      </trkpt>
      <trkpt lat="45.78767" lon="6.09469">
        <ele>1661.7763672</ele>
        <time>2011-02-05T16:47:58Z</time>
      </trkpt>
      <trkpt lat="45.78761" lon="6.09464">
        <ele>1661.7763672</ele>
        <time>2011-02-05T16:48:00Z</time>
      </trkpt>
      <trkpt lat="45.78754" lon="6.0946">
        <ele>1661.7763672</ele>
        <time>2011-02-05T16:48:02Z</time>
      </trkpt>
      <trkpt lat="45.78748" lon="6.09455">
        <ele>1662.2568359</ele>
        <time>2011-02-05T16:48:04Z</time>
      </trkpt>
      <trkpt lat="45.78742" lon="6.0945">
        <ele>1662.7375488</ele>
        <time>2011-02-05T16:48:06Z</time>
      </trkpt>
      <trkpt lat="45.78735" lon="6.09446">
        <ele>1662.7375488</ele>
        <time>2011-02-05T16:48:08Z</time>
      </trkpt>
      <trkpt lat="45.78729" lon="6.09441">
        <ele>1662.2568359</ele>
        <time>2011-02-05T16:48:10Z</time>
      </trkpt>
      <trkpt lat="45.78723" lon="6.09436">
        <ele>1661.2956543</ele>
        <time>2011-02-05T16:48:12Z</time>
      </trkpt>
      <trkpt lat="45.78716" lon="6.09431">
        <ele>1660.8149414</ele>
        <time>2011-02-05T16:48:14Z</time>
      </trkpt>
      <trkpt lat="45.78709" lon="6.09425">
        <ele>1660.3342285</ele>
        <time>2011-02-05T16:48:16Z</time>
      </trkpt>
      <trkpt lat="45.78703" lon="6.0942">
        <ele>1659.8532715</ele>
        <time>2011-02-05T16:48:18Z</time>
      </trkpt>
      <trkpt lat="45.78695" lon="6.09416">
        <ele>1658.8920898</ele>
        <time>2011-02-05T16:48:20Z</time>
      </trkpt>
      <trkpt lat="45.78687" lon="6.09412">
        <ele>1657.9309082</ele>
        <time>2011-02-05T16:48:22Z</time>
      </trkpt>
      <trkpt lat="45.78684" lon="6.09411">
        <ele>1657.4501953</ele>
        <time>2011-02-05T16:48:23Z</time>
      </trkpt>
      <trkpt lat="45.78673" lon="6.09414">
        <ele>1655.5275879</ele>
        <time>2011-02-05T16:48:26Z</time>
      </trkpt>
      <trkpt lat="45.78666" lon="6.0942">
        <ele>1655.046875</ele>
        <time>2011-02-05T16:48:28Z</time>
      </trkpt>
      <trkpt lat="45.78661" lon="6.09429">
        <ele>1654.5661621</ele>
        <time>2011-02-05T16:48:30Z</time>
      </trkpt>
      <trkpt lat="45.78659" lon="6.09434">
        <ele>1654.5661621</ele>
        <time>2011-02-05T16:48:31Z</time>
      </trkpt>
      <trkpt lat="45.78655" lon="6.09449">
        <ele>1653.1242676</ele>
        <time>2011-02-05T16:48:34Z</time>
      </trkpt>
      <trkpt lat="45.78652" lon="6.09462">
        <ele>1653.1242676</ele>
        <time>2011-02-05T16:48:36Z</time>
      </trkpt>
      <trkpt lat="45.78651" lon="6.09475">
        <ele>1652.6435547</ele>
        <time>2011-02-05T16:48:38Z</time>
      </trkpt>
      <trkpt lat="45.7865" lon="6.09489">
        <ele>1652.6435547</ele>
        <time>2011-02-05T16:48:40Z</time>
      </trkpt>
      <trkpt lat="45.7865" lon="6.09502">
        <ele>1652.6435547</ele>
        <time>2011-02-05T16:48:42Z</time>
      </trkpt>
      <trkpt lat="45.7865" lon="6.09514">
        <ele>1652.6435547</ele>
        <time>2011-02-05T16:48:44Z</time>
      </trkpt>
      <trkpt lat="45.7865" lon="6.09527">
        <ele>1652.1628418</ele>
        <time>2011-02-05T16:48:46Z</time>
      </trkpt>
      <trkpt lat="45.78649" lon="6.09539">
        <ele>1651.682373</ele>
        <time>2011-02-05T16:48:48Z</time>
      </trkpt>
      <trkpt lat="45.78649" lon="6.09552">
        <ele>1651.2016602</ele>
        <time>2011-02-05T16:48:50Z</time>
      </trkpt>
      <trkpt lat="45.78648" lon="6.09564">
        <ele>1650.7209473</ele>
        <time>2011-02-05T16:48:52Z</time>
      </trkpt>
      <trkpt lat="45.78646" lon="6.09581">
        <ele>1649.7597656</ele>
        <time>2011-02-05T16:48:55Z</time>
      </trkpt>
      <trkpt lat="45.78644" lon="6.09592">
        <ele>1648.7983398</ele>
        <time>2011-02-05T16:48:57Z</time>
      </trkpt>
      <trkpt lat="45.78635" lon="6.09606">
        <ele>1646.8757324</ele>
        <time>2011-02-05T16:49:00Z</time>
      </trkpt>
      <trkpt lat="45.78626" lon="6.0961">
        <ele>1645.4338379</ele>
        <time>2011-02-05T16:49:02Z</time>
      </trkpt>
      <trkpt lat="45.78616" lon="6.09608">
        <ele>1643.9916992</ele>
        <time>2011-02-05T16:49:04Z</time>
      </trkpt>
      <trkpt lat="45.78609" lon="6.09598">
        <ele>1642.5498047</ele>
        <time>2011-02-05T16:49:06Z</time>
      </trkpt>
      <trkpt lat="45.78599" lon="6.09574">
        <ele>1640.6269531</ele>
        <time>2011-02-05T16:49:10Z</time>
      </trkpt>
      <trkpt lat="45.78594" lon="6.09562">
        <ele>1639.6657715</ele>
        <time>2011-02-05T16:49:12Z</time>
      </trkpt>
      <trkpt lat="45.78592" lon="6.09556">
        <ele>1639.1850586</ele>
        <time>2011-02-05T16:49:13Z</time>
      </trkpt>
      <trkpt lat="45.78585" lon="6.09539">
        <ele>1638.223877</ele>
        <time>2011-02-05T16:49:16Z</time>
      </trkpt>
      <trkpt lat="45.78579" lon="6.09529">
        <ele>1638.223877</ele>
        <time>2011-02-05T16:49:18Z</time>
      </trkpt>
      <trkpt lat="45.78573" lon="6.09521">
        <ele>1636.7817383</ele>
        <time>2011-02-05T16:49:20Z</time>
      </trkpt>
      <trkpt lat="45.78565" lon="6.09515">
        <ele>1636.7817383</ele>
        <time>2011-02-05T16:49:22Z</time>
      </trkpt>
      <trkpt lat="45.78556" lon="6.09514">
        <ele>1635.8205566</ele>
        <time>2011-02-05T16:49:24Z</time>
      </trkpt>
      <trkpt lat="45.78548" lon="6.09515">
        <ele>1634.859375</ele>
        <time>2011-02-05T16:49:26Z</time>
      </trkpt>
      <trkpt lat="45.78535" lon="6.09522">
        <ele>1632.9365234</ele>
        <time>2011-02-05T16:49:29Z</time>
      </trkpt>
      <trkpt lat="45.78526" lon="6.09527">
        <ele>1631.4946289</ele>
        <time>2011-02-05T16:49:31Z</time>
      </trkpt>
      <trkpt lat="45.78512" lon="6.09535">
        <ele>1630.0527344</ele>
        <time>2011-02-05T16:49:34Z</time>
      </trkpt>
      <trkpt lat="45.78507" lon="6.09538">
        <ele>1629.0913086</ele>
        <time>2011-02-05T16:49:35Z</time>
      </trkpt>
      <trkpt lat="45.78489" lon="6.09542">
        <ele>1627.1687012</ele>
        <time>2011-02-05T16:49:39Z</time>
      </trkpt>
      <trkpt lat="45.7848" lon="6.09542">
        <ele>1626.6879883</ele>
        <time>2011-02-05T16:49:41Z</time>
      </trkpt>
      <trkpt lat="45.78471" lon="6.09536">
        <ele>1626.2072754</ele>
        <time>2011-02-05T16:49:43Z</time>
      </trkpt>
      <trkpt lat="45.78467" lon="6.09524">
        <ele>1624.7653809</ele>
        <time>2011-02-05T16:49:45Z</time>
      </trkpt>
      <trkpt lat="45.78465" lon="6.0951">
        <ele>1623.8039551</ele>
        <time>2011-02-05T16:49:47Z</time>
      </trkpt>
      <trkpt lat="45.78463" lon="6.09489">
        <ele>1622.3620605</ele>
        <time>2011-02-05T16:49:50Z</time>
      </trkpt>
      <trkpt lat="45.78459" lon="6.09467">
        <ele>1621.4006348</ele>
        <time>2011-02-05T16:49:53Z</time>
      </trkpt>
      <trkpt lat="45.78458" lon="6.0946">
        <ele>1620.920166</ele>
        <time>2011-02-05T16:49:54Z</time>
      </trkpt>
      <trkpt lat="45.78451" lon="6.09444">
        <ele>1619.4782715</ele>
        <time>2011-02-05T16:49:57Z</time>
      </trkpt>
      <trkpt lat="45.78444" lon="6.09435">
        <ele>1618.5168457</ele>
        <time>2011-02-05T16:49:59Z</time>
      </trkpt>
      <trkpt lat="45.78435" lon="6.09425">
        <ele>1618.5168457</ele>
        <time>2011-02-05T16:50:02Z</time>
      </trkpt>
      <trkpt lat="45.78428" lon="6.09418">
        <ele>1618.5168457</ele>
        <time>2011-02-05T16:50:04Z</time>
      </trkpt>
      <trkpt lat="45.78417" lon="6.09406">
        <ele>1619.4782715</ele>
        <time>2011-02-05T16:50:07Z</time>
      </trkpt>
      <trkpt lat="45.78414" lon="6.09403">
        <ele>1619.9587402</ele>
        <time>2011-02-05T16:50:08Z</time>
      </trkpt>
      <trkpt lat="45.78405" lon="6.09389">
        <ele>1620.4394531</ele>
        <time>2011-02-05T16:50:11Z</time>
      </trkpt>
      <trkpt lat="45.784" lon="6.09379">
        <ele>1620.4394531</ele>
        <time>2011-02-05T16:50:13Z</time>
      </trkpt>
      <trkpt lat="45.78392" lon="6.09362">
        <ele>1619.9587402</ele>
        <time>2011-02-05T16:50:16Z</time>
      </trkpt>
      <trkpt lat="45.78387" lon="6.09351">
        <ele>1619.4782715</ele>
        <time>2011-02-05T16:50:18Z</time>
      </trkpt>
      <trkpt lat="45.78384" lon="6.09346">
        <ele>1619.4782715</ele>
        <time>2011-02-05T16:50:19Z</time>
      </trkpt>
      <trkpt lat="45.78378" lon="6.09337">
        <ele>1619.4782715</ele>
        <time>2011-02-05T16:50:21Z</time>
      </trkpt>
      <trkpt lat="45.78368" lon="6.09328">
        <ele>1618.5168457</ele>
        <time>2011-02-05T16:50:24Z</time>
      </trkpt>
      <trkpt lat="45.78357" lon="6.09323">
        <ele>1618.9975586</ele>
        <time>2011-02-05T16:50:27Z</time>
      </trkpt>
      <trkpt lat="45.78348" lon="6.09318">
        <ele>1619.4782715</ele>
        <time>2011-02-05T16:50:30Z</time>
      </trkpt>
      <trkpt lat="45.78341" lon="6.09314">
        <ele>1619.9587402</ele>
        <time>2011-02-05T16:50:32Z</time>
      </trkpt>
      <trkpt lat="45.78334" lon="6.09311">
        <ele>1619.9587402</ele>
        <time>2011-02-05T16:50:34Z</time>
      </trkpt>
      <trkpt lat="45.78327" lon="6.09306">
        <ele>1619.9587402</ele>
        <time>2011-02-05T16:50:36Z</time>
      </trkpt>
      <trkpt lat="45.78321" lon="6.09301">
        <ele>1620.920166</ele>
        <time>2011-02-05T16:50:38Z</time>
      </trkpt>
      <trkpt lat="45.78313" lon="6.09297">
        <ele>1621.8813477</ele>
        <time>2011-02-05T16:50:40Z</time>
      </trkpt>
      <trkpt lat="45.78306" lon="6.09297">
        <ele>1621.8813477</ele>
        <time>2011-02-05T16:50:42Z</time>
      </trkpt>
      <trkpt lat="45.78299" lon="6.09298">
        <ele>1621.4006348</ele>
        <time>2011-02-05T16:50:44Z</time>
      </trkpt>
      <trkpt lat="45.78294" lon="6.09302">
        <ele>1621.4006348</ele>
        <time>2011-02-05T16:50:46Z</time>
      </trkpt>
      <trkpt lat="45.78288" lon="6.09306">
        <ele>1622.3620605</ele>
        <time>2011-02-05T16:50:48Z</time>
      </trkpt>
      <trkpt lat="45.78283" lon="6.09312">
        <ele>1622.3620605</ele>
        <time>2011-02-05T16:50:50Z</time>
      </trkpt>
      <trkpt lat="45.78277" lon="6.09317">
        <ele>1623.3234863</ele>
        <time>2011-02-05T16:50:52Z</time>
      </trkpt>
      <trkpt lat="45.78272" lon="6.09321">
        <ele>1624.7653809</ele>
        <time>2011-02-05T16:50:54Z</time>
      </trkpt>
      <trkpt lat="45.78266" lon="6.09325">
        <ele>1625.2458496</ele>
        <time>2011-02-05T16:50:56Z</time>
      </trkpt>
      <trkpt lat="45.7826" lon="6.09328">
        <ele>1626.2072754</ele>
        <time>2011-02-05T16:50:58Z</time>
      </trkpt>
      <trkpt lat="45.78255" lon="6.09331">
        <ele>1628.130127</ele>
        <time>2011-02-05T16:51:00Z</time>
      </trkpt>
      <trkpt lat="45.78248" lon="6.09332">
        <ele>1629.0913086</ele>
        <time>2011-02-05T16:51:02Z</time>
      </trkpt>
      <trkpt lat="45.78242" lon="6.09332">
        <ele>1630.0527344</ele>
        <time>2011-02-05T16:51:04Z</time>
      </trkpt>
      <trkpt lat="45.78235" lon="6.0933">
        <ele>1631.4946289</ele>
        <time>2011-02-05T16:51:06Z</time>
      </trkpt>
      <trkpt lat="45.78232" lon="6.09328">
        <ele>1631.9753418</ele>
        <time>2011-02-05T16:51:07Z</time>
      </trkpt>
      <trkpt lat="45.78232" lon="6.09328">
        <ele>1631.9753418</ele>
        <time>2011-02-05T16:51:07Z</time>
      </trkpt>
      <trkpt lat="45.78225" lon="6.09324">
        <ele>1632.9365234</ele>
        <time>2011-02-05T16:51:09Z</time>
      </trkpt>
      <trkpt lat="45.7822" lon="6.09318">
        <ele>1632.9365234</ele>
        <time>2011-02-05T16:51:11Z</time>
      </trkpt>
      <trkpt lat="45.78214" lon="6.09311">
        <ele>1633.4172363</ele>
        <time>2011-02-05T16:51:13Z</time>
      </trkpt>
      <trkpt lat="45.78208" lon="6.09305">
        <ele>1633.8979492</ele>
        <time>2011-02-05T16:51:15Z</time>
      </trkpt>
      <trkpt lat="45.78204" lon="6.09298">
        <ele>1634.859375</ele>
        <time>2011-02-05T16:51:17Z</time>
      </trkpt>
      <trkpt lat="45.78199" lon="6.0929">
        <ele>1635.3398438</ele>
        <time>2011-02-05T16:51:19Z</time>
      </trkpt>
      <trkpt lat="45.78194" lon="6.09283">
        <ele>1636.3012695</ele>
        <time>2011-02-05T16:51:21Z</time>
      </trkpt>
      <trkpt lat="45.78189" lon="6.09277">
        <ele>1636.7817383</ele>
        <time>2011-02-05T16:51:23Z</time>
      </trkpt>
      <trkpt lat="45.78184" lon="6.0927">
        <ele>1637.2624512</ele>
        <time>2011-02-05T16:51:25Z</time>
      </trkpt>
      <trkpt lat="45.78179" lon="6.09263">
        <ele>1637.2624512</ele>
        <time>2011-02-05T16:51:27Z</time>
      </trkpt>
      <trkpt lat="45.78174" lon="6.09256">
        <ele>1637.7431641</ele>
        <time>2011-02-05T16:51:29Z</time>
      </trkpt>
      <trkpt lat="45.78168" lon="6.09249">
        <ele>1637.2624512</ele>
        <time>2011-02-05T16:51:31Z</time>
      </trkpt>
      <trkpt lat="45.78163" lon="6.09241">
        <ele>1637.2624512</ele>
        <time>2011-02-05T16:51:33Z</time>
      </trkpt>
      <trkpt lat="45.78157" lon="6.09234">
        <ele>1637.2624512</ele>
        <time>2011-02-05T16:51:35Z</time>
      </trkpt>
      <trkpt lat="45.78151" lon="6.09227">
        <ele>1637.2624512</ele>
        <time>2011-02-05T16:51:37Z</time>
      </trkpt>
      <trkpt lat="45.78144" lon="6.09221">
        <ele>1636.7817383</ele>
        <time>2011-02-05T16:51:39Z</time>
      </trkpt>
      <trkpt lat="45.78138" lon="6.09216">
        <ele>1635.8205566</ele>
        <time>2011-02-05T16:51:41Z</time>
      </trkpt>
      <trkpt lat="45.7813" lon="6.09211">
        <ele>1634.3786621</ele>
        <time>2011-02-05T16:51:43Z</time>
      </trkpt>
      <trkpt lat="45.78127" lon="6.09208">
        <ele>1633.8979492</ele>
        <time>2011-02-05T16:51:44Z</time>
      </trkpt>
      <trkpt lat="45.78116" lon="6.09201">
        <ele>1632.4560547</ele>
        <time>2011-02-05T16:51:47Z</time>
      </trkpt>
      <trkpt lat="45.78112" lon="6.09199">
        <ele>1631.9753418</ele>
        <time>2011-02-05T16:51:48Z</time>
      </trkpt>
      <trkpt lat="45.78101" lon="6.09192">
        <ele>1630.0527344</ele>
        <time>2011-02-05T16:51:51Z</time>
      </trkpt>
      <trkpt lat="45.78093" lon="6.0919">
        <ele>1629.0913086</ele>
        <time>2011-02-05T16:51:53Z</time>
      </trkpt>
      <trkpt lat="45.78085" lon="6.09188">
        <ele>1628.130127</ele>
        <time>2011-02-05T16:51:55Z</time>
      </trkpt>
      <trkpt lat="45.78081" lon="6.09187">
        <ele>1627.6491699</ele>
        <time>2011-02-05T16:51:56Z</time>
      </trkpt>
      <trkpt lat="45.78068" lon="6.09185">
        <ele>1625.2458496</ele>
        <time>2011-02-05T16:51:59Z</time>
      </trkpt>
      <trkpt lat="45.78064" lon="6.09186">
        <ele>1624.7653809</ele>
        <time>2011-02-05T16:52:00Z</time>
      </trkpt>
      <trkpt lat="45.78056" lon="6.09187">
        <ele>1623.3234863</ele>
        <time>2011-02-05T16:52:02Z</time>
      </trkpt>
      <trkpt lat="45.78044" lon="6.09195">
        <ele>1621.4006348</ele>
        <time>2011-02-05T16:52:05Z</time>
      </trkpt>
      <trkpt lat="45.7804" lon="6.09204">
        <ele>1619.9587402</ele>
        <time>2011-02-05T16:52:07Z</time>
      </trkpt>
      <trkpt lat="45.78039" lon="6.09215">
        <ele>1618.5168457</ele>
        <time>2011-02-05T16:52:09Z</time>
      </trkpt>
      <trkpt lat="45.78041" lon="6.09227">
        <ele>1618.0361328</ele>
        <time>2011-02-05T16:52:11Z</time>
      </trkpt>
      <trkpt lat="45.78047" lon="6.0925">
        <ele>1616.1135254</ele>
        <time>2011-02-05T16:52:15Z</time>
      </trkpt>
      <trkpt lat="45.78051" lon="6.09261">
        <ele>1615.1523438</ele>
        <time>2011-02-05T16:52:17Z</time>
      </trkpt>
      <trkpt lat="45.78054" lon="6.09266">
        <ele>1614.190918</ele>
        <time>2011-02-05T16:52:18Z</time>
      </trkpt>
      <trkpt lat="45.78063" lon="6.09277">
        <ele>1612.7490234</ele>
        <time>2011-02-05T16:52:21Z</time>
      </trkpt>
      <trkpt lat="45.78068" lon="6.09282">
        <ele>1612.2683105</ele>
        <time>2011-02-05T16:52:23Z</time>
      </trkpt>
      <trkpt lat="45.78075" lon="6.09286">
        <ele>1611.7875977</ele>
        <time>2011-02-05T16:52:25Z</time>
      </trkpt>
      <trkpt lat="45.78081" lon="6.09291">
        <ele>1611.7875977</ele>
        <time>2011-02-05T16:52:27Z</time>
      </trkpt>
      <trkpt lat="45.78088" lon="6.09294">
        <ele>1612.7490234</ele>
        <time>2011-02-05T16:52:29Z</time>
      </trkpt>
      <trkpt lat="45.78094" lon="6.09298">
        <ele>1613.2297363</ele>
        <time>2011-02-05T16:52:31Z</time>
      </trkpt>
      <trkpt lat="45.781" lon="6.09302">
        <ele>1614.190918</ele>
        <time>2011-02-05T16:52:33Z</time>
      </trkpt>
      <trkpt lat="45.78106" lon="6.09307">
        <ele>1615.1523438</ele>
        <time>2011-02-05T16:52:35Z</time>
      </trkpt>
      <trkpt lat="45.78112" lon="6.09312">
        <ele>1616.1135254</ele>
        <time>2011-02-05T16:52:37Z</time>
      </trkpt>
      <trkpt lat="45.78117" lon="6.09317">
        <ele>1617.0749512</ele>
        <time>2011-02-05T16:52:39Z</time>
      </trkpt>
      <trkpt lat="45.78122" lon="6.09325">
        <ele>1617.5554199</ele>
        <time>2011-02-05T16:52:41Z</time>
      </trkpt>
      <trkpt lat="45.78125" lon="6.09334">
        <ele>1618.0361328</ele>
        <time>2011-02-05T16:52:43Z</time>
      </trkpt>
      <trkpt lat="45.78127" lon="6.09344">
        <ele>1618.5168457</ele>
        <time>2011-02-05T16:52:45Z</time>
      </trkpt>
      <trkpt lat="45.78127" lon="6.09354">
        <ele>1618.9975586</ele>
        <time>2011-02-05T16:52:47Z</time>
      </trkpt>
      <trkpt lat="45.78125" lon="6.09364">
        <ele>1619.4782715</ele>
        <time>2011-02-05T16:52:49Z</time>
      </trkpt>
      <trkpt lat="45.78123" lon="6.09373">
        <ele>1619.9587402</ele>
        <time>2011-02-05T16:52:51Z</time>
      </trkpt>
      <trkpt lat="45.78119" lon="6.09381">
        <ele>1620.920166</ele>
        <time>2011-02-05T16:52:53Z</time>
      </trkpt>
      <trkpt lat="45.78114" lon="6.09389">
        <ele>1621.4006348</ele>
        <time>2011-02-05T16:52:55Z</time>
      </trkpt>
      <trkpt lat="45.78109" lon="6.09398">
        <ele>1621.8813477</ele>
        <time>2011-02-05T16:52:57Z</time>
      </trkpt>
      <trkpt lat="45.78104" lon="6.09405">
        <ele>1621.8813477</ele>
        <time>2011-02-05T16:52:59Z</time>
      </trkpt>
      <trkpt lat="45.78099" lon="6.09413">
        <ele>1621.4006348</ele>
        <time>2011-02-05T16:53:01Z</time>
      </trkpt>
      <trkpt lat="45.78094" lon="6.09419">
        <ele>1621.4006348</ele>
        <time>2011-02-05T16:53:03Z</time>
      </trkpt>
      <trkpt lat="45.78088" lon="6.09424">
        <ele>1621.4006348</ele>
        <time>2011-02-05T16:53:05Z</time>
      </trkpt>
      <trkpt lat="45.78082" lon="6.09429">
        <ele>1620.920166</ele>
        <time>2011-02-05T16:53:07Z</time>
      </trkpt>
      <trkpt lat="45.78076" lon="6.09434">
        <ele>1620.920166</ele>
        <time>2011-02-05T16:53:09Z</time>
      </trkpt>
      <trkpt lat="45.78069" lon="6.09439">
        <ele>1620.4394531</ele>
        <time>2011-02-05T16:53:11Z</time>
      </trkpt>
      <trkpt lat="45.78063" lon="6.09444">
        <ele>1619.9587402</ele>
        <time>2011-02-05T16:53:13Z</time>
      </trkpt>
      <trkpt lat="45.78056" lon="6.09449">
        <ele>1620.4394531</ele>
        <time>2011-02-05T16:53:15Z</time>
      </trkpt>
      <trkpt lat="45.78048" lon="6.09453">
        <ele>1619.9587402</ele>
        <time>2011-02-05T16:53:17Z</time>
      </trkpt>
      <trkpt lat="45.78041" lon="6.09458">
        <ele>1619.9587402</ele>
        <time>2011-02-05T16:53:19Z</time>
      </trkpt>
      <trkpt lat="45.78034" lon="6.09464">
        <ele>1619.9587402</ele>
        <time>2011-02-05T16:53:21Z</time>
      </trkpt>
      <trkpt lat="45.78027" lon="6.09469">
        <ele>1619.9587402</ele>
        <time>2011-02-05T16:53:23Z</time>
      </trkpt>
      <trkpt lat="45.7802" lon="6.09473">
        <ele>1619.4782715</ele>
        <time>2011-02-05T16:53:25Z</time>
      </trkpt>
      <trkpt lat="45.78012" lon="6.09478">
        <ele>1618.9975586</ele>
        <time>2011-02-05T16:53:27Z</time>
      </trkpt>
      <trkpt lat="45.78004" lon="6.09484">
        <ele>1618.5168457</ele>
        <time>2011-02-05T16:53:29Z</time>
      </trkpt>
      <trkpt lat="45.77992" lon="6.09491">
        <ele>1618.0361328</ele>
        <time>2011-02-05T16:53:32Z</time>
      </trkpt>
      <trkpt lat="45.77983" lon="6.09496">
        <ele>1618.0361328</ele>
        <time>2011-02-05T16:53:34Z</time>
      </trkpt>
      <trkpt lat="45.77973" lon="6.09496">
        <ele>1617.0749512</ele>
        <time>2011-02-05T16:53:37Z</time>
      </trkpt>
      <trkpt lat="45.77966" lon="6.09492">
        <ele>1616.5942383</ele>
        <time>2011-02-05T16:53:39Z</time>
      </trkpt>
      <trkpt lat="45.77954" lon="6.09478">
        <ele>1616.5942383</ele>
        <time>2011-02-05T16:53:43Z</time>
      </trkpt>
      <trkpt lat="45.77949" lon="6.09467">
        <ele>1616.1135254</ele>
        <time>2011-02-05T16:53:45Z</time>
      </trkpt>
      <trkpt lat="45.77944" lon="6.09455">
        <ele>1615.1523438</ele>
        <time>2011-02-05T16:53:47Z</time>
      </trkpt>
      <trkpt lat="45.77942" lon="6.0945">
        <ele>1614.6716309</ele>
        <time>2011-02-05T16:53:48Z</time>
      </trkpt>
      <trkpt lat="45.77935" lon="6.09433">
        <ele>1613.7102051</ele>
        <time>2011-02-05T16:53:51Z</time>
      </trkpt>
      <trkpt lat="45.77931" lon="6.0942">
        <ele>1612.7490234</ele>
        <time>2011-02-05T16:53:53Z</time>
      </trkpt>
      <trkpt lat="45.77927" lon="6.09409">
        <ele>1611.7875977</ele>
        <time>2011-02-05T16:53:55Z</time>
      </trkpt>
      <trkpt lat="45.77923" lon="6.09398">
        <ele>1610.8261719</ele>
        <time>2011-02-05T16:53:57Z</time>
      </trkpt>
      <trkpt lat="45.77921" lon="6.09392">
        <ele>1610.345459</ele>
        <time>2011-02-05T16:53:58Z</time>
      </trkpt>
      <trkpt lat="45.77914" lon="6.09374">
        <ele>1608.9035645</ele>
        <time>2011-02-05T16:54:01Z</time>
      </trkpt>
      <trkpt lat="45.77907" lon="6.09359">
        <ele>1608.4228516</ele>
        <time>2011-02-05T16:54:04Z</time>
      </trkpt>
      <trkpt lat="45.77903" lon="6.09349">
        <ele>1607.9423828</ele>
        <time>2011-02-05T16:54:06Z</time>
      </trkpt>
      <trkpt lat="45.77899" lon="6.09339">
        <ele>1608.4228516</ele>
        <time>2011-02-05T16:54:08Z</time>
      </trkpt>
      <trkpt lat="45.77894" lon="6.09329">
        <ele>1608.4228516</ele>
        <time>2011-02-05T16:54:10Z</time>
      </trkpt>
      <trkpt lat="45.7789" lon="6.09318">
        <ele>1607.9423828</ele>
        <time>2011-02-05T16:54:12Z</time>
      </trkpt>
      <trkpt lat="45.77885" lon="6.09308">
        <ele>1607.4616699</ele>
        <time>2011-02-05T16:54:14Z</time>
      </trkpt>
      <trkpt lat="45.7788" lon="6.09297">
        <ele>1606.5002441</ele>
        <time>2011-02-05T16:54:16Z</time>
      </trkpt>
      <trkpt lat="45.77875" lon="6.09287">
        <ele>1606.5002441</ele>
        <time>2011-02-05T16:54:18Z</time>
      </trkpt>
      <trkpt lat="45.77866" lon="6.09273">
        <ele>1606.0195313</ele>
        <time>2011-02-05T16:54:21Z</time>
      </trkpt>
      <trkpt lat="45.77858" lon="6.09264">
        <ele>1605.5390625</ele>
        <time>2011-02-05T16:54:23Z</time>
      </trkpt>
      <trkpt lat="45.77848" lon="6.09257">
        <ele>1605.0583496</ele>
        <time>2011-02-05T16:54:26Z</time>
      </trkpt>
      <trkpt lat="45.7784" lon="6.09249">
        <ele>1604.5776367</ele>
        <time>2011-02-05T16:54:28Z</time>
      </trkpt>
      <trkpt lat="45.77833" lon="6.09241">
        <ele>1604.5776367</ele>
        <time>2011-02-05T16:54:30Z</time>
      </trkpt>
      <trkpt lat="45.77823" lon="6.09228">
        <ele>1604.097168</ele>
        <time>2011-02-05T16:54:33Z</time>
      </trkpt>
      <trkpt lat="45.77817" lon="6.0922">
        <ele>1604.097168</ele>
        <time>2011-02-05T16:54:35Z</time>
      </trkpt>
      <trkpt lat="45.77808" lon="6.09209">
        <ele>1605.0583496</ele>
        <time>2011-02-05T16:54:38Z</time>
      </trkpt>
      <trkpt lat="45.77801" lon="6.092">
        <ele>1605.0583496</ele>
        <time>2011-02-05T16:54:40Z</time>
      </trkpt>
      <trkpt lat="45.77798" lon="6.09196">
        <ele>1605.5390625</ele>
        <time>2011-02-05T16:54:41Z</time>
      </trkpt>
      <trkpt lat="45.77788" lon="6.09184">
        <ele>1605.5390625</ele>
        <time>2011-02-05T16:54:44Z</time>
      </trkpt>
      <trkpt lat="45.77782" lon="6.09176">
        <ele>1605.5390625</ele>
        <time>2011-02-05T16:54:46Z</time>
      </trkpt>
      <trkpt lat="45.77775" lon="6.09168">
        <ele>1605.5390625</ele>
        <time>2011-02-05T16:54:48Z</time>
      </trkpt>
      <trkpt lat="45.77769" lon="6.0916">
        <ele>1605.5390625</ele>
        <time>2011-02-05T16:54:50Z</time>
      </trkpt>
      <trkpt lat="45.77762" lon="6.09152">
        <ele>1605.5390625</ele>
        <time>2011-02-05T16:54:52Z</time>
      </trkpt>
      <trkpt lat="45.77759" lon="6.09148">
        <ele>1605.5390625</ele>
        <time>2011-02-05T16:54:53Z</time>
      </trkpt>
      <trkpt lat="45.77756" lon="6.09144">
        <ele>1605.5390625</ele>
        <time>2011-02-05T16:54:54Z</time>
      </trkpt>
      <trkpt lat="45.77756" lon="6.09144">
        <ele>1605.5390625</ele>
        <time>2011-02-05T16:54:54Z</time>
      </trkpt>
      <trkpt lat="45.7775" lon="6.09136">
        <ele>1605.0583496</ele>
        <time>2011-02-05T16:54:56Z</time>
      </trkpt>
      <trkpt lat="45.77747" lon="6.09133">
        <ele>1604.5776367</ele>
        <time>2011-02-05T16:54:57Z</time>
      </trkpt>
      <trkpt lat="45.77738" lon="6.09121">
        <ele>1602.6550293</ele>
        <time>2011-02-05T16:55:00Z</time>
      </trkpt>
      <trkpt lat="45.77732" lon="6.09112">
        <ele>1602.6550293</ele>
        <time>2011-02-05T16:55:02Z</time>
      </trkpt>
      <trkpt lat="45.77726" lon="6.09104">
        <ele>1602.6550293</ele>
        <time>2011-02-05T16:55:04Z</time>
      </trkpt>
      <trkpt lat="45.7772" lon="6.09095">
        <ele>1602.1743164</ele>
        <time>2011-02-05T16:55:06Z</time>
      </trkpt>
      <trkpt lat="45.77714" lon="6.09087">
        <ele>1602.1743164</ele>
        <time>2011-02-05T16:55:08Z</time>
      </trkpt>
      <trkpt lat="45.77709" lon="6.09079">
        <ele>1601.6938477</ele>
        <time>2011-02-05T16:55:10Z</time>
      </trkpt>
      <trkpt lat="45.77703" lon="6.09071">
        <ele>1600.7324219</ele>
        <time>2011-02-05T16:55:12Z</time>
      </trkpt>
      <trkpt lat="45.77698" lon="6.09063">
        <ele>1600.2519531</ele>
        <time>2011-02-05T16:55:14Z</time>
      </trkpt>
      <trkpt lat="45.77692" lon="6.09055">
        <ele>1599.2905273</ele>
        <time>2011-02-05T16:55:16Z</time>
      </trkpt>
      <trkpt lat="45.77682" lon="6.09043">
        <ele>1598.8098145</ele>
        <time>2011-02-05T16:55:19Z</time>
      </trkpt>
      <trkpt lat="45.77671" lon="6.09038">
        <ele>1595.9257813</ele>
        <time>2011-02-05T16:55:22Z</time>
      </trkpt>
      <trkpt lat="45.77665" lon="6.0904">
        <ele>1593.5224609</ele>
        <time>2011-02-05T16:55:24Z</time>
      </trkpt>
      <trkpt lat="45.77658" lon="6.09046">
        <ele>1592.0805664</ele>
        <time>2011-02-05T16:55:26Z</time>
      </trkpt>
      <trkpt lat="45.77653" lon="6.09055">
        <ele>1590.6384277</ele>
        <time>2011-02-05T16:55:28Z</time>
      </trkpt>
      <trkpt lat="45.77649" lon="6.09066">
        <ele>1590.157959</ele>
        <time>2011-02-05T16:55:30Z</time>
      </trkpt>
      <trkpt lat="45.77648" lon="6.09072">
        <ele>1589.6772461</ele>
        <time>2011-02-05T16:55:31Z</time>
      </trkpt>
      <trkpt lat="45.77646" lon="6.09091">
        <ele>1589.1965332</ele>
        <time>2011-02-05T16:55:34Z</time>
      </trkpt>
      <trkpt lat="45.77646" lon="6.09097">
        <ele>1589.1965332</ele>
        <time>2011-02-05T16:55:35Z</time>
      </trkpt>
      <trkpt lat="45.77645" lon="6.09114">
        <ele>1589.6772461</ele>
        <time>2011-02-05T16:55:38Z</time>
      </trkpt>
      <trkpt lat="45.77646" lon="6.09119">
        <ele>1590.157959</ele>
        <time>2011-02-05T16:55:39Z</time>
      </trkpt>
      <trkpt lat="45.77647" lon="6.09136">
        <ele>1591.5998535</ele>
        <time>2011-02-05T16:55:42Z</time>
      </trkpt>
      <trkpt lat="45.77649" lon="6.09146">
        <ele>1592.5612793</ele>
        <time>2011-02-05T16:55:44Z</time>
      </trkpt>
      <trkpt lat="45.77651" lon="6.09155">
        <ele>1593.5224609</ele>
        <time>2011-02-05T16:55:46Z</time>
      </trkpt>
      <trkpt lat="45.77653" lon="6.09159">
        <ele>1594.4836426</ele>
        <time>2011-02-05T16:55:47Z</time>
      </trkpt>
      <trkpt lat="45.77656" lon="6.09172">
        <ele>1594.9643555</ele>
        <time>2011-02-05T16:55:50Z</time>
      </trkpt>
      <trkpt lat="45.77659" lon="6.0918">
        <ele>1595.4450684</ele>
        <time>2011-02-05T16:55:52Z</time>
      </trkpt>
      <trkpt lat="45.77663" lon="6.09189">
        <ele>1595.9257813</ele>
        <time>2011-02-05T16:55:54Z</time>
      </trkpt>
      <trkpt lat="45.77666" lon="6.09197">
        <ele>1596.4067383</ele>
        <time>2011-02-05T16:55:56Z</time>
      </trkpt>
      <trkpt lat="45.7767" lon="6.09205">
        <ele>1596.887207</ele>
        <time>2011-02-05T16:55:58Z</time>
      </trkpt>
      <trkpt lat="45.77672" lon="6.09214">
        <ele>1597.3679199</ele>
        <time>2011-02-05T16:56:00Z</time>
      </trkpt>
      <trkpt lat="45.77675" lon="6.09223">
        <ele>1596.887207</ele>
        <time>2011-02-05T16:56:02Z</time>
      </trkpt>
      <trkpt lat="45.77679" lon="6.09232">
        <ele>1596.887207</ele>
        <time>2011-02-05T16:56:04Z</time>
      </trkpt>
      <trkpt lat="45.77682" lon="6.09241">
        <ele>1596.887207</ele>
        <time>2011-02-05T16:56:06Z</time>
      </trkpt>
      <trkpt lat="45.77686" lon="6.0925">
        <ele>1596.887207</ele>
        <time>2011-02-05T16:56:08Z</time>
      </trkpt>
      <trkpt lat="45.77689" lon="6.09258">
        <ele>1596.887207</ele>
        <time>2011-02-05T16:56:10Z</time>
      </trkpt>
      <trkpt lat="45.77693" lon="6.09266">
        <ele>1597.3679199</ele>
        <time>2011-02-05T16:56:12Z</time>
      </trkpt>
      <trkpt lat="45.77696" lon="6.09275">
        <ele>1597.3679199</ele>
        <time>2011-02-05T16:56:14Z</time>
      </trkpt>
      <trkpt lat="45.77698" lon="6.09284">
        <ele>1597.3679199</ele>
        <time>2011-02-05T16:56:16Z</time>
      </trkpt>
      <trkpt lat="45.77702" lon="6.09292">
        <ele>1597.3679199</ele>
        <time>2011-02-05T16:56:18Z</time>
      </trkpt>
      <trkpt lat="45.77703" lon="6.09302">
        <ele>1597.3679199</ele>
        <time>2011-02-05T16:56:20Z</time>
      </trkpt>
      <trkpt lat="45.77701" lon="6.09313">
        <ele>1597.3679199</ele>
        <time>2011-02-05T16:56:22Z</time>
      </trkpt>
      <trkpt lat="45.77697" lon="6.0932">
        <ele>1597.3679199</ele>
        <time>2011-02-05T16:56:24Z</time>
      </trkpt>
      <trkpt lat="45.77692" lon="6.09323">
        <ele>1597.3679199</ele>
        <time>2011-02-05T16:56:26Z</time>
      </trkpt>
      <trkpt lat="45.77685" lon="6.09326">
        <ele>1597.3679199</ele>
        <time>2011-02-05T16:56:28Z</time>
      </trkpt>
      <trkpt lat="45.77677" lon="6.09327">
        <ele>1597.3679199</ele>
        <time>2011-02-05T16:56:30Z</time>
      </trkpt>
      <trkpt lat="45.7767" lon="6.09328">
        <ele>1597.8486328</ele>
        <time>2011-02-05T16:56:32Z</time>
      </trkpt>
      <trkpt lat="45.77663" lon="6.09328">
        <ele>1597.8486328</ele>
        <time>2011-02-05T16:56:34Z</time>
      </trkpt>
      <trkpt lat="45.77656" lon="6.09327">
        <ele>1598.3291016</ele>
        <time>2011-02-05T16:56:36Z</time>
      </trkpt>
      <trkpt lat="45.77649" lon="6.09326">
        <ele>1598.3291016</ele>
        <time>2011-02-05T16:56:38Z</time>
      </trkpt>
      <trkpt lat="45.77642" lon="6.09324">
        <ele>1598.8098145</ele>
        <time>2011-02-05T16:56:40Z</time>
      </trkpt>
      <trkpt lat="45.77636" lon="6.09323">
        <ele>1599.2905273</ele>
        <time>2011-02-05T16:56:42Z</time>
      </trkpt>
      <trkpt lat="45.77628" lon="6.09321">
        <ele>1599.7712402</ele>
        <time>2011-02-05T16:56:44Z</time>
      </trkpt>
      <trkpt lat="45.77621" lon="6.09318">
        <ele>1600.7324219</ele>
        <time>2011-02-05T16:56:46Z</time>
      </trkpt>
      <trkpt lat="45.77614" lon="6.09316">
        <ele>1601.2131348</ele>
        <time>2011-02-05T16:56:48Z</time>
      </trkpt>
      <trkpt lat="45.77607" lon="6.09312">
        <ele>1601.6938477</ele>
        <time>2011-02-05T16:56:50Z</time>
      </trkpt>
      <trkpt lat="45.77599" lon="6.0931">
        <ele>1602.1743164</ele>
        <time>2011-02-05T16:56:52Z</time>
      </trkpt>
      <trkpt lat="45.77593" lon="6.09308">
        <ele>1602.1743164</ele>
        <time>2011-02-05T16:56:54Z</time>
      </trkpt>
      <trkpt lat="45.77586" lon="6.09305">
        <ele>1602.6550293</ele>
        <time>2011-02-05T16:56:56Z</time>
      </trkpt>
      <trkpt lat="45.77579" lon="6.09303">
        <ele>1602.6550293</ele>
        <time>2011-02-05T16:56:58Z</time>
      </trkpt>
      <trkpt lat="45.77572" lon="6.09301">
        <ele>1602.6550293</ele>
        <time>2011-02-05T16:57:00Z</time>
      </trkpt>
      <trkpt lat="45.77564" lon="6.093">
        <ele>1602.1743164</ele>
        <time>2011-02-05T16:57:02Z</time>
      </trkpt>
      <trkpt lat="45.77557" lon="6.09298">
        <ele>1601.6938477</ele>
        <time>2011-02-05T16:57:04Z</time>
      </trkpt>
      <trkpt lat="45.7755" lon="6.09296">
        <ele>1600.7324219</ele>
        <time>2011-02-05T16:57:06Z</time>
      </trkpt>
      <trkpt lat="45.77543" lon="6.09294">
        <ele>1600.7324219</ele>
        <time>2011-02-05T16:57:08Z</time>
      </trkpt>
      <trkpt lat="45.77535" lon="6.09292">
        <ele>1599.7712402</ele>
        <time>2011-02-05T16:57:10Z</time>
      </trkpt>
      <trkpt lat="45.77528" lon="6.09289">
        <ele>1599.2905273</ele>
        <time>2011-02-05T16:57:12Z</time>
      </trkpt>
      <trkpt lat="45.77521" lon="6.09286">
        <ele>1598.8098145</ele>
        <time>2011-02-05T16:57:14Z</time>
      </trkpt>
      <trkpt lat="45.77514" lon="6.09284">
        <ele>1599.2905273</ele>
        <time>2011-02-05T16:57:16Z</time>
      </trkpt>
      <trkpt lat="45.77507" lon="6.09283">
        <ele>1599.7712402</ele>
        <time>2011-02-05T16:57:18Z</time>
      </trkpt>
      <trkpt lat="45.77501" lon="6.09284">
        <ele>1599.7712402</ele>
        <time>2011-02-05T16:57:20Z</time>
      </trkpt>
      <trkpt lat="45.77494" lon="6.09286">
        <ele>1600.2519531</ele>
        <time>2011-02-05T16:57:22Z</time>
      </trkpt>
      <trkpt lat="45.77489" lon="6.09288">
        <ele>1600.2519531</ele>
        <time>2011-02-05T16:57:24Z</time>
      </trkpt>
      <trkpt lat="45.77483" lon="6.09292">
        <ele>1599.7712402</ele>
        <time>2011-02-05T16:57:26Z</time>
      </trkpt>
      <trkpt lat="45.77478" lon="6.09299">
        <ele>1599.2905273</ele>
        <time>2011-02-05T16:57:28Z</time>
      </trkpt>
      <trkpt lat="45.77474" lon="6.09308">
        <ele>1598.8098145</ele>
        <time>2011-02-05T16:57:30Z</time>
      </trkpt>
      <trkpt lat="45.77473" lon="6.09317">
        <ele>1598.8098145</ele>
        <time>2011-02-05T16:57:32Z</time>
      </trkpt>
      <trkpt lat="45.77472" lon="6.09326">
        <ele>1598.8098145</ele>
        <time>2011-02-05T16:57:34Z</time>
      </trkpt>
      <trkpt lat="45.77472" lon="6.09334">
        <ele>1599.2905273</ele>
        <time>2011-02-05T16:57:36Z</time>
      </trkpt>
      <trkpt lat="45.77473" lon="6.09342">
        <ele>1600.2519531</ele>
        <time>2011-02-05T16:57:38Z</time>
      </trkpt>
      <trkpt lat="45.77474" lon="6.09349">
        <ele>1600.7324219</ele>
        <time>2011-02-05T16:57:40Z</time>
      </trkpt>
      <trkpt lat="45.77474" lon="6.09357">
        <ele>1601.6938477</ele>
        <time>2011-02-05T16:57:42Z</time>
      </trkpt>
      <trkpt lat="45.77474" lon="6.09367">
        <ele>1602.1743164</ele>
        <time>2011-02-05T16:57:44Z</time>
      </trkpt>
      <trkpt lat="45.77475" lon="6.09376">
        <ele>1602.6550293</ele>
        <time>2011-02-05T16:57:46Z</time>
      </trkpt>
      <trkpt lat="45.77476" lon="6.09386">
        <ele>1602.1743164</ele>
        <time>2011-02-05T16:57:48Z</time>
      </trkpt>
      <trkpt lat="45.77477" lon="6.09396">
        <ele>1602.6550293</ele>
        <time>2011-02-05T16:57:50Z</time>
      </trkpt>
      <trkpt lat="45.77478" lon="6.09405">
        <ele>1603.1357422</ele>
        <time>2011-02-05T16:57:52Z</time>
      </trkpt>
      <trkpt lat="45.77479" lon="6.09414">
        <ele>1603.6164551</ele>
        <time>2011-02-05T16:57:54Z</time>
      </trkpt>
      <trkpt lat="45.77479" lon="6.09421">
        <ele>1604.5776367</ele>
        <time>2011-02-05T16:57:56Z</time>
      </trkpt>
      <trkpt lat="45.77479" lon="6.09429">
        <ele>1605.0583496</ele>
        <time>2011-02-05T16:57:58Z</time>
      </trkpt>
      <trkpt lat="45.7748" lon="6.09436">
        <ele>1605.5390625</ele>
        <time>2011-02-05T16:58:00Z</time>
      </trkpt>
      <trkpt lat="45.7748" lon="6.09444">
        <ele>1606.0195313</ele>
        <time>2011-02-05T16:58:02Z</time>
      </trkpt>
      <trkpt lat="45.77482" lon="6.09451">
        <ele>1606.5002441</ele>
        <time>2011-02-05T16:58:04Z</time>
      </trkpt>
      <trkpt lat="45.77484" lon="6.09458">
        <ele>1607.4616699</ele>
        <time>2011-02-05T16:58:06Z</time>
      </trkpt>
      <trkpt lat="45.77485" lon="6.09465">
        <ele>1608.9035645</ele>
        <time>2011-02-05T16:58:08Z</time>
      </trkpt>
      <trkpt lat="45.77487" lon="6.09471">
        <ele>1609.8647461</ele>
        <time>2011-02-05T16:58:10Z</time>
      </trkpt>
      <trkpt lat="45.77489" lon="6.09478">
        <ele>1610.8261719</ele>
        <time>2011-02-05T16:58:12Z</time>
      </trkpt>
      <trkpt lat="45.77491" lon="6.09485">
        <ele>1611.3068848</ele>
        <time>2011-02-05T16:58:14Z</time>
      </trkpt>
      <trkpt lat="45.77494" lon="6.09491">
        <ele>1611.7875977</ele>
        <time>2011-02-05T16:58:16Z</time>
      </trkpt>
      <trkpt lat="45.77497" lon="6.09499">
        <ele>1612.2683105</ele>
        <time>2011-02-05T16:58:18Z</time>
      </trkpt>
      <trkpt lat="45.77501" lon="6.09506">
        <ele>1612.2683105</ele>
        <time>2011-02-05T16:58:20Z</time>
      </trkpt>
      <trkpt lat="45.77505" lon="6.09513">
        <ele>1612.2683105</ele>
        <time>2011-02-05T16:58:22Z</time>
      </trkpt>
      <trkpt lat="45.77509" lon="6.09521">
        <ele>1612.7490234</ele>
        <time>2011-02-05T16:58:24Z</time>
      </trkpt>
      <trkpt lat="45.77513" lon="6.09528">
        <ele>1612.7490234</ele>
        <time>2011-02-05T16:58:26Z</time>
      </trkpt>
      <trkpt lat="45.77517" lon="6.09535">
        <ele>1612.2683105</ele>
        <time>2011-02-05T16:58:28Z</time>
      </trkpt>
      <trkpt lat="45.77521" lon="6.09542">
        <ele>1612.2683105</ele>
        <time>2011-02-05T16:58:30Z</time>
      </trkpt>
      <trkpt lat="45.77525" lon="6.09549">
        <ele>1612.7490234</ele>
        <time>2011-02-05T16:58:32Z</time>
      </trkpt>
      <trkpt lat="45.77528" lon="6.09556">
        <ele>1612.2683105</ele>
        <time>2011-02-05T16:58:34Z</time>
      </trkpt>
      <trkpt lat="45.77532" lon="6.09562">
        <ele>1611.7875977</ele>
        <time>2011-02-05T16:58:36Z</time>
      </trkpt>
      <trkpt lat="45.77537" lon="6.09569">
        <ele>1612.2683105</ele>
        <time>2011-02-05T16:58:38Z</time>
      </trkpt>
      <trkpt lat="45.77541" lon="6.09575">
        <ele>1612.7490234</ele>
        <time>2011-02-05T16:58:40Z</time>
      </trkpt>
      <trkpt lat="45.77545" lon="6.09581">
        <ele>1613.7102051</ele>
        <time>2011-02-05T16:58:42Z</time>
      </trkpt>
      <trkpt lat="45.77548" lon="6.09586">
        <ele>1614.6716309</ele>
        <time>2011-02-05T16:58:44Z</time>
      </trkpt>
      <trkpt lat="45.77552" lon="6.09592">
        <ele>1614.6716309</ele>
        <time>2011-02-05T16:58:46Z</time>
      </trkpt>
      <trkpt lat="45.77557" lon="6.09598">
        <ele>1615.1523438</ele>
        <time>2011-02-05T16:58:48Z</time>
      </trkpt>
      <trkpt lat="45.77562" lon="6.09604">
        <ele>1615.1523438</ele>
        <time>2011-02-05T16:58:50Z</time>
      </trkpt>
      <trkpt lat="45.77567" lon="6.0961">
        <ele>1615.1523438</ele>
        <time>2011-02-05T16:58:52Z</time>
      </trkpt>
      <trkpt lat="45.77573" lon="6.09615">
        <ele>1614.6716309</ele>
        <time>2011-02-05T16:58:54Z</time>
      </trkpt>
      <trkpt lat="45.77579" lon="6.09621">
        <ele>1614.190918</ele>
        <time>2011-02-05T16:58:56Z</time>
      </trkpt>
      <trkpt lat="45.77586" lon="6.09628">
        <ele>1614.190918</ele>
        <time>2011-02-05T16:58:58Z</time>
      </trkpt>
      <trkpt lat="45.7759" lon="6.09636">
        <ele>1612.7490234</ele>
        <time>2011-02-05T16:59:00Z</time>
      </trkpt>
      <trkpt lat="45.77596" lon="6.09644">
        <ele>1611.7875977</ele>
        <time>2011-02-05T16:59:02Z</time>
      </trkpt>
      <trkpt lat="45.77603" lon="6.09649">
        <ele>1610.8261719</ele>
        <time>2011-02-05T16:59:04Z</time>
      </trkpt>
      <trkpt lat="45.77609" lon="6.09652">
        <ele>1610.8261719</ele>
        <time>2011-02-05T16:59:06Z</time>
      </trkpt>
      <trkpt lat="45.77615" lon="6.09656">
        <ele>1610.345459</ele>
        <time>2011-02-05T16:59:08Z</time>
      </trkpt>
      <trkpt lat="45.77619" lon="6.09661">
        <ele>1607.9423828</ele>
        <time>2011-02-05T16:59:10Z</time>
      </trkpt>
      <trkpt lat="45.77625" lon="6.09666">
        <ele>1606.5002441</ele>
        <time>2011-02-05T16:59:12Z</time>
      </trkpt>
      <trkpt lat="45.77632" lon="6.09673">
        <ele>1606.0195313</ele>
        <time>2011-02-05T16:59:14Z</time>
      </trkpt>
      <trkpt lat="45.77635" lon="6.09676">
        <ele>1605.5390625</ele>
        <time>2011-02-05T16:59:15Z</time>
      </trkpt>
      <trkpt lat="45.77635" lon="6.09676">
        <ele>1605.5390625</ele>
        <time>2011-02-05T16:59:15Z</time>
      </trkpt>
      <trkpt lat="45.77639" lon="6.09681">
        <ele>1605.5390625</ele>
        <time>2011-02-05T16:59:17Z</time>
      </trkpt>
      <trkpt lat="45.77643" lon="6.09686">
        <ele>1606.0195313</ele>
        <time>2011-02-05T16:59:19Z</time>
      </trkpt>
      <trkpt lat="45.77648" lon="6.09691">
        <ele>1607.4616699</ele>
        <time>2011-02-05T16:59:21Z</time>
      </trkpt>
      <trkpt lat="45.77653" lon="6.09695">
        <ele>1606.980957</ele>
        <time>2011-02-05T16:59:23Z</time>
      </trkpt>
      <trkpt lat="45.77656" lon="6.097">
        <ele>1606.0195313</ele>
        <time>2011-02-05T16:59:25Z</time>
      </trkpt>
      <trkpt lat="45.7766" lon="6.09705">
        <ele>1606.0195313</ele>
        <time>2011-02-05T16:59:27Z</time>
      </trkpt>
      <trkpt lat="45.77666" lon="6.09711">
        <ele>1605.0583496</ele>
        <time>2011-02-05T16:59:29Z</time>
      </trkpt>
      <trkpt lat="45.77673" lon="6.09717">
        <ele>1605.0583496</ele>
        <time>2011-02-05T16:59:31Z</time>
      </trkpt>
      <trkpt lat="45.77679" lon="6.09721">
        <ele>1607.4616699</ele>
        <time>2011-02-05T16:59:33Z</time>
      </trkpt>
      <trkpt lat="45.77684" lon="6.09725">
        <ele>1606.980957</ele>
        <time>2011-02-05T16:59:35Z</time>
      </trkpt>
      <trkpt lat="45.77688" lon="6.09728">
        <ele>1607.4616699</ele>
        <time>2011-02-05T16:59:37Z</time>
      </trkpt>
      <trkpt lat="45.77692" lon="6.09731">
        <ele>1608.4228516</ele>
        <time>2011-02-05T16:59:39Z</time>
      </trkpt>
      <trkpt lat="45.77695" lon="6.09734">
        <ele>1608.9035645</ele>
        <time>2011-02-05T16:59:41Z</time>
      </trkpt>
      <trkpt lat="45.77701" lon="6.0974">
        <ele>1611.3068848</ele>
        <time>2011-02-05T16:59:44Z</time>
      </trkpt>
      <trkpt lat="45.77707" lon="6.09746">
        <ele>1614.190918</ele>
        <time>2011-02-05T16:59:47Z</time>
      </trkpt>
      <trkpt lat="45.77714" lon="6.09752">
        <ele>1617.0749512</ele>
        <time>2011-02-05T16:59:50Z</time>
      </trkpt>
      <trkpt lat="45.77721" lon="6.0976">
        <ele>1618.0361328</ele>
        <time>2011-02-05T16:59:53Z</time>
      </trkpt>
      <trkpt lat="45.77727" lon="6.09766">
        <ele>1618.5168457</ele>
        <time>2011-02-05T16:59:56Z</time>
      </trkpt>
      <trkpt lat="45.77732" lon="6.09771">
        <ele>1619.4782715</ele>
        <time>2011-02-05T16:59:58Z</time>
      </trkpt>
      <trkpt lat="45.77736" lon="6.09776">
        <ele>1619.4782715</ele>
        <time>2011-02-05T17:00:00Z</time>
      </trkpt>
      <trkpt lat="45.7774" lon="6.09781">
        <ele>1619.4782715</ele>
        <time>2011-02-05T17:00:02Z</time>
      </trkpt>
      <trkpt lat="45.77745" lon="6.09787">
        <ele>1620.4394531</ele>
        <time>2011-02-05T17:00:04Z</time>
      </trkpt>
      <trkpt lat="45.77749" lon="6.09794">
        <ele>1620.4394531</ele>
        <time>2011-02-05T17:00:06Z</time>
      </trkpt>
      <trkpt lat="45.77755" lon="6.098">
        <ele>1619.9587402</ele>
        <time>2011-02-05T17:00:08Z</time>
      </trkpt>
      <trkpt lat="45.7776" lon="6.09807">
        <ele>1619.9587402</ele>
        <time>2011-02-05T17:00:10Z</time>
      </trkpt>
      <trkpt lat="45.77765" lon="6.09813">
        <ele>1619.4782715</ele>
        <time>2011-02-05T17:00:12Z</time>
      </trkpt>
      <trkpt lat="45.7777" lon="6.09818">
        <ele>1619.9587402</ele>
        <time>2011-02-05T17:00:14Z</time>
      </trkpt>
      <trkpt lat="45.77774" lon="6.09822">
        <ele>1619.9587402</ele>
        <time>2011-02-05T17:00:16Z</time>
      </trkpt>
      <trkpt lat="45.77777" lon="6.09827">
        <ele>1618.9975586</ele>
        <time>2011-02-05T17:00:18Z</time>
      </trkpt>
      <trkpt lat="45.7778" lon="6.0983">
        <ele>1618.9975586</ele>
        <time>2011-02-05T17:00:20Z</time>
      </trkpt>
      <trkpt lat="45.77784" lon="6.09833">
        <ele>1620.4394531</ele>
        <time>2011-02-05T17:00:22Z</time>
      </trkpt>
      <trkpt lat="45.77791" lon="6.0984">
        <ele>1618.5168457</ele>
        <time>2011-02-05T17:00:26Z</time>
      </trkpt>
      <trkpt lat="45.77799" lon="6.09846">
        <ele>1618.9975586</ele>
        <time>2011-02-05T17:00:29Z</time>
      </trkpt>
      <trkpt lat="45.77807" lon="6.09852">
        <ele>1619.4782715</ele>
        <time>2011-02-05T17:00:32Z</time>
      </trkpt>
      <trkpt lat="45.77809" lon="6.09854">
        <ele>1619.4782715</ele>
        <time>2011-02-05T17:00:33Z</time>
      </trkpt>
      <trkpt lat="45.77817" lon="6.09859">
        <ele>1620.4394531</ele>
        <time>2011-02-05T17:00:37Z</time>
      </trkpt>
      <trkpt lat="45.77822" lon="6.09864">
        <ele>1619.9587402</ele>
        <time>2011-02-05T17:00:40Z</time>
      </trkpt>
      <trkpt lat="45.77829" lon="6.09869">
        <ele>1621.4006348</ele>
        <time>2011-02-05T17:00:43Z</time>
      </trkpt>
      <trkpt lat="45.77838" lon="6.09875">
        <ele>1625.7265625</ele>
        <time>2011-02-05T17:00:46Z</time>
      </trkpt>
      <trkpt lat="45.77846" lon="6.0988">
        <ele>1628.6108398</ele>
        <time>2011-02-05T17:00:49Z</time>
      </trkpt>
      <trkpt lat="45.7785" lon="6.09883">
        <ele>1630.0527344</ele>
        <time>2011-02-05T17:00:51Z</time>
      </trkpt>
      <trkpt lat="45.77854" lon="6.09884">
        <ele>1631.0141602</ele>
        <time>2011-02-05T17:00:53Z</time>
      </trkpt>
      <trkpt lat="45.77859" lon="6.09885">
        <ele>1631.4946289</ele>
        <time>2011-02-05T17:00:55Z</time>
      </trkpt>
      <trkpt lat="45.77865" lon="6.09883">
        <ele>1633.4172363</ele>
        <time>2011-02-05T17:00:58Z</time>
      </trkpt>
      <trkpt lat="45.7787" lon="6.09879">
        <ele>1635.3398438</ele>
        <time>2011-02-05T17:01:01Z</time>
      </trkpt>
      <trkpt lat="45.77875" lon="6.09872">
        <ele>1635.8205566</ele>
        <time>2011-02-05T17:01:04Z</time>
      </trkpt>
      <trkpt lat="45.77875" lon="6.09863">
        <ele>1637.2624512</ele>
        <time>2011-02-05T17:01:07Z</time>
      </trkpt>
      <trkpt lat="45.77874" lon="6.09853">
        <ele>1638.223877</ele>
        <time>2011-02-05T17:01:10Z</time>
      </trkpt>
      <trkpt lat="45.77871" lon="6.09845">
        <ele>1639.6657715</ele>
        <time>2011-02-05T17:01:13Z</time>
      </trkpt>
      <trkpt lat="45.77867" lon="6.0984">
        <ele>1640.1464844</ele>
        <time>2011-02-05T17:01:15Z</time>
      </trkpt>
      <trkpt lat="45.77862" lon="6.09835">
        <ele>1641.107666</ele>
        <time>2011-02-05T17:01:17Z</time>
      </trkpt>
      <trkpt lat="45.77857" lon="6.0983">
        <ele>1640.6269531</ele>
        <time>2011-02-05T17:01:19Z</time>
      </trkpt>
      <trkpt lat="45.77851" lon="6.09825">
        <ele>1640.1464844</ele>
        <time>2011-02-05T17:01:21Z</time>
      </trkpt>
      <trkpt lat="45.77845" lon="6.0982">
        <ele>1638.7045898</ele>
        <time>2011-02-05T17:01:23Z</time>
      </trkpt>
      <trkpt lat="45.77839" lon="6.09815">
        <ele>1637.7431641</ele>
        <time>2011-02-05T17:01:25Z</time>
      </trkpt>
      <trkpt lat="45.77835" lon="6.09808">
        <ele>1637.7431641</ele>
        <time>2011-02-05T17:01:27Z</time>
      </trkpt>
      <trkpt lat="45.77831" lon="6.09801">
        <ele>1637.7431641</ele>
        <time>2011-02-05T17:01:29Z</time>
      </trkpt>
      <trkpt lat="45.77827" lon="6.09794">
        <ele>1637.7431641</ele>
        <time>2011-02-05T17:01:31Z</time>
      </trkpt>
      <trkpt lat="45.77823" lon="6.09786">
        <ele>1637.2624512</ele>
        <time>2011-02-05T17:01:33Z</time>
      </trkpt>
      <trkpt lat="45.77819" lon="6.09779">
        <ele>1637.2624512</ele>
        <time>2011-02-05T17:01:35Z</time>
      </trkpt>
      <trkpt lat="45.77816" lon="6.0977">
        <ele>1636.3012695</ele>
        <time>2011-02-05T17:01:37Z</time>
      </trkpt>
      <trkpt lat="45.77812" lon="6.09761">
        <ele>1635.8205566</ele>
        <time>2011-02-05T17:01:39Z</time>
      </trkpt>
      <trkpt lat="45.77808" lon="6.09752">
        <ele>1635.3398438</ele>
        <time>2011-02-05T17:01:41Z</time>
      </trkpt>
      <trkpt lat="45.77805" lon="6.09742">
        <ele>1634.3786621</ele>
        <time>2011-02-05T17:01:43Z</time>
      </trkpt>
      <trkpt lat="45.77801" lon="6.09733">
        <ele>1633.4172363</ele>
        <time>2011-02-05T17:01:45Z</time>
      </trkpt>
      <trkpt lat="45.77797" lon="6.09722">
        <ele>1632.9365234</ele>
        <time>2011-02-05T17:01:47Z</time>
      </trkpt>
      <trkpt lat="45.77793" lon="6.09711">
        <ele>1632.9365234</ele>
        <time>2011-02-05T17:01:49Z</time>
      </trkpt>
      <trkpt lat="45.77789" lon="6.09701">
        <ele>1632.9365234</ele>
        <time>2011-02-05T17:01:51Z</time>
      </trkpt>
      <trkpt lat="45.77786" lon="6.09692">
        <ele>1632.9365234</ele>
        <time>2011-02-05T17:01:53Z</time>
      </trkpt>
      <trkpt lat="45.77783" lon="6.09683">
        <ele>1632.9365234</ele>
        <time>2011-02-05T17:01:55Z</time>
      </trkpt>
      <trkpt lat="45.7778" lon="6.09674">
        <ele>1633.4172363</ele>
        <time>2011-02-05T17:01:57Z</time>
      </trkpt>
      <trkpt lat="45.77776" lon="6.09665">
        <ele>1633.8979492</ele>
        <time>2011-02-05T17:01:59Z</time>
      </trkpt>
      <trkpt lat="45.77774" lon="6.09657">
        <ele>1635.3398438</ele>
        <time>2011-02-05T17:02:01Z</time>
      </trkpt>
      <trkpt lat="45.77771" lon="6.09649">
        <ele>1635.8205566</ele>
        <time>2011-02-05T17:02:03Z</time>
      </trkpt>
      <trkpt lat="45.77767" lon="6.0964">
        <ele>1635.8205566</ele>
        <time>2011-02-05T17:02:05Z</time>
      </trkpt>
      <trkpt lat="45.77763" lon="6.09631">
        <ele>1636.3012695</ele>
        <time>2011-02-05T17:02:07Z</time>
      </trkpt>
      <trkpt lat="45.7776" lon="6.09621">
        <ele>1636.3012695</ele>
        <time>2011-02-05T17:02:09Z</time>
      </trkpt>
      <trkpt lat="45.7776" lon="6.0961">
        <ele>1635.8205566</ele>
        <time>2011-02-05T17:02:11Z</time>
      </trkpt>
      <trkpt lat="45.77763" lon="6.096">
        <ele>1634.859375</ele>
        <time>2011-02-05T17:02:13Z</time>
      </trkpt>
      <trkpt lat="45.77768" lon="6.09591">
        <ele>1633.8979492</ele>
        <time>2011-02-05T17:02:15Z</time>
      </trkpt>
      <trkpt lat="45.77776" lon="6.09585">
        <ele>1633.4172363</ele>
        <time>2011-02-05T17:02:17Z</time>
      </trkpt>
      <trkpt lat="45.77784" lon="6.09581">
        <ele>1632.9365234</ele>
        <time>2011-02-05T17:02:19Z</time>
      </trkpt>
      <trkpt lat="45.77792" lon="6.09578">
        <ele>1632.4560547</ele>
        <time>2011-02-05T17:02:21Z</time>
      </trkpt>
      <trkpt lat="45.77799" lon="6.09575">
        <ele>1631.4946289</ele>
        <time>2011-02-05T17:02:23Z</time>
      </trkpt>
      <trkpt lat="45.77807" lon="6.09573">
        <ele>1631.4946289</ele>
        <time>2011-02-05T17:02:25Z</time>
      </trkpt>
      <trkpt lat="45.77816" lon="6.0957">
        <ele>1630.5334473</ele>
        <time>2011-02-05T17:02:27Z</time>
      </trkpt>
      <trkpt lat="45.77825" lon="6.09568">
        <ele>1630.5334473</ele>
        <time>2011-02-05T17:02:29Z</time>
      </trkpt>
      <trkpt lat="45.77837" lon="6.09564">
        <ele>1629.5720215</ele>
        <time>2011-02-05T17:02:32Z</time>
      </trkpt>
      <trkpt lat="45.77845" lon="6.0956">
        <ele>1629.0913086</ele>
        <time>2011-02-05T17:02:34Z</time>
      </trkpt>
      <trkpt lat="45.77854" lon="6.09558">
        <ele>1628.6108398</ele>
        <time>2011-02-05T17:02:36Z</time>
      </trkpt>
      <trkpt lat="45.77866" lon="6.09552">
        <ele>1629.0913086</ele>
        <time>2011-02-05T17:02:39Z</time>
      </trkpt>
      <trkpt lat="45.77874" lon="6.09549">
        <ele>1628.6108398</ele>
        <time>2011-02-05T17:02:41Z</time>
      </trkpt>
      <trkpt lat="45.77887" lon="6.09544">
        <ele>1627.1687012</ele>
        <time>2011-02-05T17:02:44Z</time>
      </trkpt>
      <trkpt lat="45.77895" lon="6.09541">
        <ele>1627.6491699</ele>
        <time>2011-02-05T17:02:46Z</time>
      </trkpt>
      <trkpt lat="45.77903" lon="6.09539">
        <ele>1627.6491699</ele>
        <time>2011-02-05T17:02:48Z</time>
      </trkpt>
      <trkpt lat="45.77911" lon="6.09537">
        <ele>1627.1687012</ele>
        <time>2011-02-05T17:02:50Z</time>
      </trkpt>
      <trkpt lat="45.77919" lon="6.09535">
        <ele>1626.6879883</ele>
        <time>2011-02-05T17:02:52Z</time>
      </trkpt>
      <trkpt lat="45.77924" lon="6.09536">
        <ele>1624.284668</ele>
        <time>2011-02-05T17:02:53Z</time>
      </trkpt>
      <trkpt lat="45.77936" lon="6.09537">
        <ele>1620.4394531</ele>
        <time>2011-02-05T17:02:56Z</time>
      </trkpt>
      <trkpt lat="45.77944" lon="6.09537">
        <ele>1619.4782715</ele>
        <time>2011-02-05T17:02:58Z</time>
      </trkpt>
      <trkpt lat="45.77952" lon="6.09538">
        <ele>1618.5168457</ele>
        <time>2011-02-05T17:03:00Z</time>
      </trkpt>
      <trkpt lat="45.7796" lon="6.09538">
        <ele>1618.5168457</ele>
        <time>2011-02-05T17:03:02Z</time>
      </trkpt>
      <trkpt lat="45.77968" lon="6.09539">
        <ele>1618.9975586</ele>
        <time>2011-02-05T17:03:04Z</time>
      </trkpt>
      <trkpt lat="45.77976" lon="6.09541">
        <ele>1618.9975586</ele>
        <time>2011-02-05T17:03:06Z</time>
      </trkpt>
      <trkpt lat="45.77983" lon="6.09543">
        <ele>1619.4782715</ele>
        <time>2011-02-05T17:03:08Z</time>
      </trkpt>
      <trkpt lat="45.7799" lon="6.09544">
        <ele>1619.4782715</ele>
        <time>2011-02-05T17:03:10Z</time>
      </trkpt>
      <trkpt lat="45.77998" lon="6.09546">
        <ele>1619.9587402</ele>
        <time>2011-02-05T17:03:12Z</time>
      </trkpt>
      <trkpt lat="45.78006" lon="6.09547">
        <ele>1620.920166</ele>
        <time>2011-02-05T17:03:14Z</time>
      </trkpt>
      <trkpt lat="45.78013" lon="6.09549">
        <ele>1620.4394531</ele>
        <time>2011-02-05T17:03:16Z</time>
      </trkpt>
      <trkpt lat="45.7802" lon="6.09552">
        <ele>1619.9587402</ele>
        <time>2011-02-05T17:03:18Z</time>
      </trkpt>
      <trkpt lat="45.78029" lon="6.09555">
        <ele>1619.4782715</ele>
        <time>2011-02-05T17:03:20Z</time>
      </trkpt>
      <trkpt lat="45.78037" lon="6.09558">
        <ele>1618.9975586</ele>
        <time>2011-02-05T17:03:22Z</time>
      </trkpt>
      <trkpt lat="45.78045" lon="6.09562">
        <ele>1618.0361328</ele>
        <time>2011-02-05T17:03:24Z</time>
      </trkpt>
      <trkpt lat="45.78053" lon="6.09567">
        <ele>1617.0749512</ele>
        <time>2011-02-05T17:03:26Z</time>
      </trkpt>
      <trkpt lat="45.78063" lon="6.09578">
        <ele>1616.1135254</ele>
        <time>2011-02-05T17:03:29Z</time>
      </trkpt>
      <trkpt lat="45.78073" lon="6.09585">
        <ele>1613.7102051</ele>
        <time>2011-02-05T17:03:32Z</time>
      </trkpt>
      <trkpt lat="45.78081" lon="6.09585">
        <ele>1613.2297363</ele>
        <time>2011-02-05T17:03:34Z</time>
      </trkpt>
      <trkpt lat="45.78088" lon="6.09582">
        <ele>1612.2683105</ele>
        <time>2011-02-05T17:03:36Z</time>
      </trkpt>
      <trkpt lat="45.78095" lon="6.09576">
        <ele>1611.7875977</ele>
        <time>2011-02-05T17:03:38Z</time>
      </trkpt>
      <trkpt lat="45.78101" lon="6.09568">
        <ele>1612.2683105</ele>
        <time>2011-02-05T17:03:40Z</time>
      </trkpt>
      <trkpt lat="45.78108" lon="6.09562">
        <ele>1611.7875977</ele>
        <time>2011-02-05T17:03:42Z</time>
      </trkpt>
      <trkpt lat="45.78116" lon="6.09558">
        <ele>1610.8261719</ele>
        <time>2011-02-05T17:03:44Z</time>
      </trkpt>
      <trkpt lat="45.78124" lon="6.09555">
        <ele>1609.8647461</ele>
        <time>2011-02-05T17:03:46Z</time>
      </trkpt>
      <trkpt lat="45.78128" lon="6.09555">
        <ele>1608.9035645</ele>
        <time>2011-02-05T17:03:47Z</time>
      </trkpt>
      <trkpt lat="45.78128" lon="6.09555">
        <ele>1608.9035645</ele>
        <time>2011-02-05T17:03:47Z</time>
      </trkpt>
      <trkpt lat="45.78132" lon="6.09555">
        <ele>1606.980957</ele>
        <time>2011-02-05T17:03:48Z</time>
      </trkpt>
      <trkpt lat="45.78145" lon="6.09558">
        <ele>1603.6164551</ele>
        <time>2011-02-05T17:03:51Z</time>
      </trkpt>
      <trkpt lat="45.78149" lon="6.0956">
        <ele>1602.6550293</ele>
        <time>2011-02-05T17:03:52Z</time>
      </trkpt>
      <trkpt lat="45.78163" lon="6.09571">
        <ele>1600.7324219</ele>
        <time>2011-02-05T17:03:56Z</time>
      </trkpt>
      <trkpt lat="45.78169" lon="6.09576">
        <ele>1601.2131348</ele>
        <time>2011-02-05T17:03:58Z</time>
      </trkpt>
      <trkpt lat="45.78176" lon="6.09579">
        <ele>1601.2131348</ele>
        <time>2011-02-05T17:04:00Z</time>
      </trkpt>
      <trkpt lat="45.78185" lon="6.09584">
        <ele>1600.2519531</ele>
        <time>2011-02-05T17:04:02Z</time>
      </trkpt>
      <trkpt lat="45.78192" lon="6.09588">
        <ele>1599.7712402</ele>
        <time>2011-02-05T17:04:04Z</time>
      </trkpt>
      <trkpt lat="45.782" lon="6.09594">
        <ele>1599.7712402</ele>
        <time>2011-02-05T17:04:06Z</time>
      </trkpt>
      <trkpt lat="45.78207" lon="6.09601">
        <ele>1599.7712402</ele>
        <time>2011-02-05T17:04:08Z</time>
      </trkpt>
      <trkpt lat="45.78213" lon="6.09608">
        <ele>1600.2519531</ele>
        <time>2011-02-05T17:04:10Z</time>
      </trkpt>
      <trkpt lat="45.78218" lon="6.09615">
        <ele>1599.7712402</ele>
        <time>2011-02-05T17:04:12Z</time>
      </trkpt>
      <trkpt lat="45.78224" lon="6.09622">
        <ele>1600.2519531</ele>
        <time>2011-02-05T17:04:14Z</time>
      </trkpt>
      <trkpt lat="45.78229" lon="6.09629">
        <ele>1600.7324219</ele>
        <time>2011-02-05T17:04:16Z</time>
      </trkpt>
      <trkpt lat="45.78234" lon="6.09638">
        <ele>1601.6938477</ele>
        <time>2011-02-05T17:04:18Z</time>
      </trkpt>
      <trkpt lat="45.78239" lon="6.09646">
        <ele>1602.1743164</ele>
        <time>2011-02-05T17:04:20Z</time>
      </trkpt>
      <trkpt lat="45.78244" lon="6.09654">
        <ele>1602.6550293</ele>
        <time>2011-02-05T17:04:22Z</time>
      </trkpt>
      <trkpt lat="45.78249" lon="6.09662">
        <ele>1602.1743164</ele>
        <time>2011-02-05T17:04:24Z</time>
      </trkpt>
      <trkpt lat="45.78254" lon="6.0967">
        <ele>1602.1743164</ele>
        <time>2011-02-05T17:04:26Z</time>
      </trkpt>
      <trkpt lat="45.78257" lon="6.09678">
        <ele>1602.6550293</ele>
        <time>2011-02-05T17:04:28Z</time>
      </trkpt>
      <trkpt lat="45.78263" lon="6.09684">
        <ele>1603.1357422</ele>
        <time>2011-02-05T17:04:30Z</time>
      </trkpt>
      <trkpt lat="45.78268" lon="6.0969">
        <ele>1603.6164551</ele>
        <time>2011-02-05T17:04:32Z</time>
      </trkpt>
      <trkpt lat="45.78274" lon="6.09695">
        <ele>1604.097168</ele>
        <time>2011-02-05T17:04:34Z</time>
      </trkpt>
      <trkpt lat="45.7828" lon="6.09698">
        <ele>1604.5776367</ele>
        <time>2011-02-05T17:04:36Z</time>
      </trkpt>
      <trkpt lat="45.78286" lon="6.097">
        <ele>1605.0583496</ele>
        <time>2011-02-05T17:04:38Z</time>
      </trkpt>
      <trkpt lat="45.78292" lon="6.09699">
        <ele>1606.0195313</ele>
        <time>2011-02-05T17:04:40Z</time>
      </trkpt>
      <trkpt lat="45.78298" lon="6.09697">
        <ele>1606.980957</ele>
        <time>2011-02-05T17:04:42Z</time>
      </trkpt>
      <trkpt lat="45.78303" lon="6.09692">
        <ele>1607.4616699</ele>
        <time>2011-02-05T17:04:44Z</time>
      </trkpt>
      <trkpt lat="45.78308" lon="6.09685">
        <ele>1607.9423828</ele>
        <time>2011-02-05T17:04:46Z</time>
      </trkpt>
      <trkpt lat="45.78312" lon="6.09678">
        <ele>1608.9035645</ele>
        <time>2011-02-05T17:04:48Z</time>
      </trkpt>
      <trkpt lat="45.78315" lon="6.09671">
        <ele>1609.3842773</ele>
        <time>2011-02-05T17:04:50Z</time>
      </trkpt>
      <trkpt lat="45.78318" lon="6.09664">
        <ele>1609.8647461</ele>
        <time>2011-02-05T17:04:52Z</time>
      </trkpt>
      <trkpt lat="45.78322" lon="6.09657">
        <ele>1610.8261719</ele>
        <time>2011-02-05T17:04:54Z</time>
      </trkpt>
      <trkpt lat="45.78324" lon="6.09651">
        <ele>1611.7875977</ele>
        <time>2011-02-05T17:04:56Z</time>
      </trkpt>
      <trkpt lat="45.78327" lon="6.09645">
        <ele>1613.2297363</ele>
        <time>2011-02-05T17:04:58Z</time>
      </trkpt>
      <trkpt lat="45.78331" lon="6.09639">
        <ele>1614.190918</ele>
        <time>2011-02-05T17:05:00Z</time>
      </trkpt>
      <trkpt lat="45.78334" lon="6.09633">
        <ele>1615.1523438</ele>
        <time>2011-02-05T17:05:02Z</time>
      </trkpt>
      <trkpt lat="45.78337" lon="6.09628">
        <ele>1616.5942383</ele>
        <time>2011-02-05T17:05:04Z</time>
      </trkpt>
      <trkpt lat="45.78341" lon="6.09622">
        <ele>1617.5554199</ele>
        <time>2011-02-05T17:05:06Z</time>
      </trkpt>
      <trkpt lat="45.78345" lon="6.09617">
        <ele>1618.5168457</ele>
        <time>2011-02-05T17:05:08Z</time>
      </trkpt>
      <trkpt lat="45.78349" lon="6.09612">
        <ele>1619.4782715</ele>
        <time>2011-02-05T17:05:10Z</time>
      </trkpt>
      <trkpt lat="45.78353" lon="6.09606">
        <ele>1620.4394531</ele>
        <time>2011-02-05T17:05:12Z</time>
      </trkpt>
      <trkpt lat="45.78357" lon="6.09602">
        <ele>1620.920166</ele>
        <time>2011-02-05T17:05:14Z</time>
      </trkpt>
      <trkpt lat="45.78361" lon="6.09597">
        <ele>1621.8813477</ele>
        <time>2011-02-05T17:05:16Z</time>
      </trkpt>
      <trkpt lat="45.78365" lon="6.09592">
        <ele>1622.3620605</ele>
        <time>2011-02-05T17:05:18Z</time>
      </trkpt>
      <trkpt lat="45.78369" lon="6.09588">
        <ele>1623.3234863</ele>
        <time>2011-02-05T17:05:20Z</time>
      </trkpt>
      <trkpt lat="45.78373" lon="6.09585">
        <ele>1624.284668</ele>
        <time>2011-02-05T17:05:22Z</time>
      </trkpt>
      <trkpt lat="45.78377" lon="6.09583">
        <ele>1624.7653809</ele>
        <time>2011-02-05T17:05:24Z</time>
      </trkpt>
      <trkpt lat="45.78381" lon="6.0958">
        <ele>1625.7265625</ele>
        <time>2011-02-05T17:05:26Z</time>
      </trkpt>
      <trkpt lat="45.78386" lon="6.09578">
        <ele>1626.2072754</ele>
        <time>2011-02-05T17:05:28Z</time>
      </trkpt>
      <trkpt lat="45.78391" lon="6.09575">
        <ele>1626.6879883</ele>
        <time>2011-02-05T17:05:30Z</time>
      </trkpt>
      <trkpt lat="45.78396" lon="6.09574">
        <ele>1627.1687012</ele>
        <time>2011-02-05T17:05:32Z</time>
      </trkpt>
      <trkpt lat="45.78401" lon="6.09573">
        <ele>1628.130127</ele>
        <time>2011-02-05T17:05:34Z</time>
      </trkpt>
      <trkpt lat="45.78406" lon="6.09573">
        <ele>1628.6108398</ele>
        <time>2011-02-05T17:05:36Z</time>
      </trkpt>
      <trkpt lat="45.78411" lon="6.09573">
        <ele>1629.0913086</ele>
        <time>2011-02-05T17:05:38Z</time>
      </trkpt>
      <trkpt lat="45.78416" lon="6.09573">
        <ele>1630.0527344</ele>
        <time>2011-02-05T17:05:40Z</time>
      </trkpt>
      <trkpt lat="45.78421" lon="6.09573">
        <ele>1631.0141602</ele>
        <time>2011-02-05T17:05:42Z</time>
      </trkpt>
      <trkpt lat="45.78426" lon="6.09574">
        <ele>1631.4946289</ele>
        <time>2011-02-05T17:05:44Z</time>
      </trkpt>
      <trkpt lat="45.78431" lon="6.09575">
        <ele>1632.4560547</ele>
        <time>2011-02-05T17:05:46Z</time>
      </trkpt>
      <trkpt lat="45.78436" lon="6.09576">
        <ele>1632.4560547</ele>
        <time>2011-02-05T17:05:48Z</time>
      </trkpt>
      <trkpt lat="45.78441" lon="6.09577">
        <ele>1632.9365234</ele>
        <time>2011-02-05T17:05:50Z</time>
      </trkpt>
      <trkpt lat="45.78446" lon="6.09578">
        <ele>1633.4172363</ele>
        <time>2011-02-05T17:05:52Z</time>
      </trkpt>
      <trkpt lat="45.78452" lon="6.09579">
        <ele>1634.3786621</ele>
        <time>2011-02-05T17:05:54Z</time>
      </trkpt>
      <trkpt lat="45.78458" lon="6.0958">
        <ele>1634.859375</ele>
        <time>2011-02-05T17:05:56Z</time>
      </trkpt>
      <trkpt lat="45.78463" lon="6.09581">
        <ele>1635.3398438</ele>
        <time>2011-02-05T17:05:58Z</time>
      </trkpt>
      <trkpt lat="45.78468" lon="6.09581">
        <ele>1635.3398438</ele>
        <time>2011-02-05T17:06:00Z</time>
      </trkpt>
      <trkpt lat="45.78474" lon="6.09582">
        <ele>1635.3398438</ele>
        <time>2011-02-05T17:06:02Z</time>
      </trkpt>
      <trkpt lat="45.78479" lon="6.09583">
        <ele>1635.3398438</ele>
        <time>2011-02-05T17:06:04Z</time>
      </trkpt>
      <trkpt lat="45.78485" lon="6.09584">
        <ele>1635.3398438</ele>
        <time>2011-02-05T17:06:06Z</time>
      </trkpt>
      <trkpt lat="45.78491" lon="6.09585">
        <ele>1635.8205566</ele>
        <time>2011-02-05T17:06:08Z</time>
      </trkpt>
      <trkpt lat="45.78496" lon="6.09587">
        <ele>1636.3012695</ele>
        <time>2011-02-05T17:06:10Z</time>
      </trkpt>
      <trkpt lat="45.78501" lon="6.09589">
        <ele>1636.7817383</ele>
        <time>2011-02-05T17:06:12Z</time>
      </trkpt>
      <trkpt lat="45.78507" lon="6.09591">
        <ele>1636.7817383</ele>
        <time>2011-02-05T17:06:14Z</time>
      </trkpt>
      <trkpt lat="45.78512" lon="6.09592">
        <ele>1637.2624512</ele>
        <time>2011-02-05T17:06:16Z</time>
      </trkpt>
      <trkpt lat="45.78517" lon="6.0959">
        <ele>1637.2624512</ele>
        <time>2011-02-05T17:06:18Z</time>
      </trkpt>
      <trkpt lat="45.78522" lon="6.09588">
        <ele>1637.7431641</ele>
        <time>2011-02-05T17:06:20Z</time>
      </trkpt>
      <trkpt lat="45.78526" lon="6.09586">
        <ele>1639.1850586</ele>
        <time>2011-02-05T17:06:22Z</time>
      </trkpt>
      <trkpt lat="45.78531" lon="6.09584">
        <ele>1640.1464844</ele>
        <time>2011-02-05T17:06:24Z</time>
      </trkpt>
      <trkpt lat="45.78536" lon="6.09583">
        <ele>1641.107666</ele>
        <time>2011-02-05T17:06:26Z</time>
      </trkpt>
      <trkpt lat="45.78541" lon="6.09584">
        <ele>1641.5883789</ele>
        <time>2011-02-05T17:06:28Z</time>
      </trkpt>
      <trkpt lat="45.78546" lon="6.09587">
        <ele>1642.0690918</ele>
        <time>2011-02-05T17:06:30Z</time>
      </trkpt>
      <trkpt lat="45.78552" lon="6.0959">
        <ele>1641.5883789</ele>
        <time>2011-02-05T17:06:32Z</time>
      </trkpt>
      <trkpt lat="45.78558" lon="6.09593">
        <ele>1641.107666</ele>
        <time>2011-02-05T17:06:34Z</time>
      </trkpt>
      <trkpt lat="45.78562" lon="6.09597">
        <ele>1641.107666</ele>
        <time>2011-02-05T17:06:36Z</time>
      </trkpt>
      <trkpt lat="45.78566" lon="6.09601">
        <ele>1641.107666</ele>
        <time>2011-02-05T17:06:38Z</time>
      </trkpt>
      <trkpt lat="45.78569" lon="6.09605">
        <ele>1641.5883789</ele>
        <time>2011-02-05T17:06:40Z</time>
      </trkpt>
      <trkpt lat="45.78573" lon="6.09609">
        <ele>1641.5883789</ele>
        <time>2011-02-05T17:06:42Z</time>
      </trkpt>
      <trkpt lat="45.78577" lon="6.09614">
        <ele>1641.107666</ele>
        <time>2011-02-05T17:06:44Z</time>
      </trkpt>
      <trkpt lat="45.7858" lon="6.09619">
        <ele>1641.107666</ele>
        <time>2011-02-05T17:06:46Z</time>
      </trkpt>
      <trkpt lat="45.78584" lon="6.09623">
        <ele>1641.5883789</ele>
        <time>2011-02-05T17:06:48Z</time>
      </trkpt>
      <trkpt lat="45.78587" lon="6.09628">
        <ele>1642.0690918</ele>
        <time>2011-02-05T17:06:50Z</time>
      </trkpt>
      <trkpt lat="45.78591" lon="6.09633">
        <ele>1642.0690918</ele>
        <time>2011-02-05T17:06:52Z</time>
      </trkpt>
      <trkpt lat="45.78594" lon="6.09638">
        <ele>1643.0302734</ele>
        <time>2011-02-05T17:06:54Z</time>
      </trkpt>
      <trkpt lat="45.78597" lon="6.09643">
        <ele>1643.5109863</ele>
        <time>2011-02-05T17:06:56Z</time>
      </trkpt>
      <trkpt lat="45.78601" lon="6.09647">
        <ele>1643.9916992</ele>
        <time>2011-02-05T17:06:58Z</time>
      </trkpt>
      <trkpt lat="45.78605" lon="6.0965">
        <ele>1644.4724121</ele>
        <time>2011-02-05T17:07:00Z</time>
      </trkpt>
      <trkpt lat="45.78609" lon="6.09652">
        <ele>1645.4338379</ele>
        <time>2011-02-05T17:07:02Z</time>
      </trkpt>
      <trkpt lat="45.78615" lon="6.09653">
        <ele>1645.9145508</ele>
        <time>2011-02-05T17:07:05Z</time>
      </trkpt>
      <trkpt lat="45.78622" lon="6.09654">
        <ele>1647.8371582</ele>
        <time>2011-02-05T17:07:08Z</time>
      </trkpt>
      <trkpt lat="45.78628" lon="6.09655">
        <ele>1649.2790527</ele>
        <time>2011-02-05T17:07:11Z</time>
      </trkpt>
      <trkpt lat="45.78634" lon="6.09656">
        <ele>1650.7209473</ele>
        <time>2011-02-05T17:07:14Z</time>
      </trkpt>
      <trkpt lat="45.7864" lon="6.09657">
        <ele>1651.2016602</ele>
        <time>2011-02-05T17:07:17Z</time>
      </trkpt>
      <trkpt lat="45.78646" lon="6.09658">
        <ele>1652.1628418</ele>
        <time>2011-02-05T17:07:20Z</time>
      </trkpt>
      <trkpt lat="45.78653" lon="6.09658">
        <ele>1653.1242676</ele>
        <time>2011-02-05T17:07:23Z</time>
      </trkpt>
      <trkpt lat="45.78659" lon="6.09658">
        <ele>1654.0856934</ele>
        <time>2011-02-05T17:07:26Z</time>
      </trkpt>
      <trkpt lat="45.78666" lon="6.09658">
        <ele>1655.5275879</ele>
        <time>2011-02-05T17:07:29Z</time>
      </trkpt>
      <trkpt lat="45.78672" lon="6.09657">
        <ele>1656.4887695</ele>
        <time>2011-02-05T17:07:32Z</time>
      </trkpt>
      <trkpt lat="45.78678" lon="6.09657">
        <ele>1657.4501953</ele>
        <time>2011-02-05T17:07:35Z</time>
      </trkpt>
      <trkpt lat="45.78684" lon="6.09656">
        <ele>1658.411377</ele>
        <time>2011-02-05T17:07:38Z</time>
      </trkpt>
      <trkpt lat="45.7869" lon="6.09655">
        <ele>1659.8532715</ele>
        <time>2011-02-05T17:07:41Z</time>
      </trkpt>
      <trkpt lat="45.78695" lon="6.09655">
        <ele>1660.8149414</ele>
        <time>2011-02-05T17:07:44Z</time>
      </trkpt>
      <trkpt lat="45.78701" lon="6.09655">
        <ele>1661.7763672</ele>
        <time>2011-02-05T17:07:47Z</time>
      </trkpt>
      <trkpt lat="45.78706" lon="6.09654">
        <ele>1662.7375488</ele>
        <time>2011-02-05T17:07:50Z</time>
      </trkpt>
      <trkpt lat="45.78712" lon="6.09653">
        <ele>1663.6987305</ele>
        <time>2011-02-05T17:07:53Z</time>
      </trkpt>
      <trkpt lat="45.78717" lon="6.09652">
        <ele>1665.621582</ele>
        <time>2011-02-05T17:07:56Z</time>
      </trkpt>
      <trkpt lat="45.78723" lon="6.09651">
        <ele>1666.5827637</ele>
        <time>2011-02-05T17:07:59Z</time>
      </trkpt>
      <trkpt lat="45.78729" lon="6.0965">
        <ele>1668.0246582</ele>
        <time>2011-02-05T17:08:02Z</time>
      </trkpt>
      <trkpt lat="45.78735" lon="6.09648">
        <ele>1669.4667969</ele>
        <time>2011-02-05T17:08:05Z</time>
      </trkpt>
      <trkpt lat="45.78741" lon="6.09646">
        <ele>1670.9086914</ele>
        <time>2011-02-05T17:08:08Z</time>
      </trkpt>
      <trkpt lat="45.78746" lon="6.09645">
        <ele>1672.3505859</ele>
        <time>2011-02-05T17:08:11Z</time>
      </trkpt>
      <trkpt lat="45.78753" lon="6.09643">
        <ele>1673.3120117</ele>
        <time>2011-02-05T17:08:14Z</time>
      </trkpt>
      <trkpt lat="45.78759" lon="6.09641">
        <ele>1674.7539063</ele>
        <time>2011-02-05T17:08:17Z</time>
      </trkpt>
      <trkpt lat="45.78767" lon="6.0964">
        <ele>1675.7150879</ele>
        <time>2011-02-05T17:08:20Z</time>
      </trkpt>
      <trkpt lat="45.78774" lon="6.0964">
        <ele>1676.6767578</ele>
        <time>2011-02-05T17:08:23Z</time>
      </trkpt>
      <trkpt lat="45.78779" lon="6.09642">
        <ele>1677.1574707</ele>
        <time>2011-02-05T17:08:25Z</time>
      </trkpt>
      <trkpt lat="45.78784" lon="6.09646">
        <ele>1676.6767578</ele>
        <time>2011-02-05T17:08:27Z</time>
      </trkpt>
      <trkpt lat="45.7879" lon="6.09651">
        <ele>1674.7539063</ele>
        <time>2011-02-05T17:08:29Z</time>
      </trkpt>
      <trkpt lat="45.78795" lon="6.09657">
        <ele>1673.7924805</ele>
        <time>2011-02-05T17:08:31Z</time>
      </trkpt>
      <trkpt lat="45.788" lon="6.09664">
        <ele>1672.8312988</ele>
        <time>2011-02-05T17:08:33Z</time>
      </trkpt>
      <trkpt lat="45.78803" lon="6.09672">
        <ele>1672.3505859</ele>
        <time>2011-02-05T17:08:35Z</time>
      </trkpt>
      <trkpt lat="45.78805" lon="6.09681">
        <ele>1671.869873</ele>
        <time>2011-02-05T17:08:37Z</time>
      </trkpt>
      <trkpt lat="45.78809" lon="6.09689">
        <ele>1670.9086914</ele>
        <time>2011-02-05T17:08:39Z</time>
      </trkpt>
      <trkpt lat="45.78815" lon="6.09696">
        <ele>1669.9472656</ele>
        <time>2011-02-05T17:08:41Z</time>
      </trkpt>
      <trkpt lat="45.78821" lon="6.09704">
        <ele>1668.986084</ele>
        <time>2011-02-05T17:08:43Z</time>
      </trkpt>
      <trkpt lat="45.78827" lon="6.09711">
        <ele>1667.5439453</ele>
        <time>2011-02-05T17:08:45Z</time>
      </trkpt>
      <trkpt lat="45.78834" lon="6.09718">
        <ele>1666.5827637</ele>
        <time>2011-02-05T17:08:47Z</time>
      </trkpt>
      <trkpt lat="45.78841" lon="6.09725">
        <ele>1665.1408691</ele>
        <time>2011-02-05T17:08:49Z</time>
      </trkpt>
      <trkpt lat="45.78848" lon="6.09733">
        <ele>1664.6601563</ele>
        <time>2011-02-05T17:08:51Z</time>
      </trkpt>
      <trkpt lat="45.78854" lon="6.0974">
        <ele>1663.6987305</ele>
        <time>2011-02-05T17:08:53Z</time>
      </trkpt>
      <trkpt lat="45.78857" lon="6.09744">
        <ele>1663.2182617</ele>
        <time>2011-02-05T17:08:54Z</time>
      </trkpt>
      <trkpt lat="45.78867" lon="6.09755">
        <ele>1661.2956543</ele>
        <time>2011-02-05T17:08:57Z</time>
      </trkpt>
      <trkpt lat="45.78874" lon="6.09762">
        <ele>1660.3342285</ele>
        <time>2011-02-05T17:08:59Z</time>
      </trkpt>
      <trkpt lat="45.78877" lon="6.09766">
        <ele>1659.8532715</ele>
        <time>2011-02-05T17:09:00Z</time>
      </trkpt>
      <trkpt lat="45.78887" lon="6.09777">
        <ele>1658.411377</ele>
        <time>2011-02-05T17:09:03Z</time>
      </trkpt>
      <trkpt lat="45.78894" lon="6.09785">
        <ele>1657.4501953</ele>
        <time>2011-02-05T17:09:05Z</time>
      </trkpt>
      <trkpt lat="45.78898" lon="6.09788">
        <ele>1657.4501953</ele>
        <time>2011-02-05T17:09:06Z</time>
      </trkpt>
      <trkpt lat="45.78898" lon="6.09788">
        <ele>1657.4501953</ele>
        <time>2011-02-05T17:09:06Z</time>
      </trkpt>
      <trkpt lat="45.78909" lon="6.09799">
        <ele>1656.4887695</ele>
        <time>2011-02-05T17:09:09Z</time>
      </trkpt>
      <trkpt lat="45.78915" lon="6.09806">
        <ele>1656.4887695</ele>
        <time>2011-02-05T17:09:11Z</time>
      </trkpt>
      <trkpt lat="45.78922" lon="6.09813">
        <ele>1655.5275879</ele>
        <time>2011-02-05T17:09:13Z</time>
      </trkpt>
      <trkpt lat="45.78926" lon="6.09817">
        <ele>1655.5275879</ele>
        <time>2011-02-05T17:09:14Z</time>
      </trkpt>
      <trkpt lat="45.78937" lon="6.09828">
        <ele>1654.0856934</ele>
        <time>2011-02-05T17:09:17Z</time>
      </trkpt>
      <trkpt lat="45.78948" lon="6.0984">
        <ele>1651.682373</ele>
        <time>2011-02-05T17:09:20Z</time>
      </trkpt>
      <trkpt lat="45.7896" lon="6.09852">
        <ele>1650.2404785</ele>
        <time>2011-02-05T17:09:23Z</time>
      </trkpt>
      <trkpt lat="45.78967" lon="6.0986">
        <ele>1648.7983398</ele>
        <time>2011-02-05T17:09:25Z</time>
      </trkpt>
      <trkpt lat="45.78975" lon="6.09867">
        <ele>1648.317627</ele>
        <time>2011-02-05T17:09:27Z</time>
      </trkpt>
      <trkpt lat="45.78982" lon="6.09874">
        <ele>1646.8757324</ele>
        <time>2011-02-05T17:09:29Z</time>
      </trkpt>
      <trkpt lat="45.78989" lon="6.09881">
        <ele>1646.8757324</ele>
        <time>2011-02-05T17:09:31Z</time>
      </trkpt>
      <trkpt lat="45.78996" lon="6.09887">
        <ele>1645.9145508</ele>
        <time>2011-02-05T17:09:33Z</time>
      </trkpt>
      <trkpt lat="45.79" lon="6.0989">
        <ele>1645.9145508</ele>
        <time>2011-02-05T17:09:34Z</time>
      </trkpt>
      <trkpt lat="45.79008" lon="6.09896">
        <ele>1646.3952637</ele>
        <time>2011-02-05T17:09:36Z</time>
      </trkpt>
      <trkpt lat="45.7902" lon="6.09905">
        <ele>1646.3952637</ele>
        <time>2011-02-05T17:09:39Z</time>
      </trkpt>
      <trkpt lat="45.79027" lon="6.09912">
        <ele>1645.9145508</ele>
        <time>2011-02-05T17:09:41Z</time>
      </trkpt>
      <trkpt lat="45.79033" lon="6.09919">
        <ele>1645.4338379</ele>
        <time>2011-02-05T17:09:43Z</time>
      </trkpt>
      <trkpt lat="45.79039" lon="6.09924">
        <ele>1644.953125</ele>
        <time>2011-02-05T17:09:45Z</time>
      </trkpt>
      <trkpt lat="45.79051" lon="6.0993">
        <ele>1643.9916992</ele>
        <time>2011-02-05T17:09:48Z</time>
      </trkpt>
      <trkpt lat="45.79059" lon="6.09935">
        <ele>1643.5109863</ele>
        <time>2011-02-05T17:09:50Z</time>
      </trkpt>
      <trkpt lat="45.79067" lon="6.09939">
        <ele>1642.5498047</ele>
        <time>2011-02-05T17:09:52Z</time>
      </trkpt>
      <trkpt lat="45.79071" lon="6.09942">
        <ele>1642.5498047</ele>
        <time>2011-02-05T17:09:53Z</time>
      </trkpt>
      <trkpt lat="45.79083" lon="6.09946">
        <ele>1642.0690918</ele>
        <time>2011-02-05T17:09:56Z</time>
      </trkpt>
      <trkpt lat="45.79095" lon="6.09949">
        <ele>1642.0690918</ele>
        <time>2011-02-05T17:09:59Z</time>
      </trkpt>
      <trkpt lat="45.79104" lon="6.0995">
        <ele>1641.107666</ele>
        <time>2011-02-05T17:10:01Z</time>
      </trkpt>
      <trkpt lat="45.79112" lon="6.09951">
        <ele>1641.107666</ele>
        <time>2011-02-05T17:10:03Z</time>
      </trkpt>
      <trkpt lat="45.79121" lon="6.09952">
        <ele>1641.5883789</ele>
        <time>2011-02-05T17:10:05Z</time>
      </trkpt>
      <trkpt lat="45.7913" lon="6.09954">
        <ele>1641.107666</ele>
        <time>2011-02-05T17:10:07Z</time>
      </trkpt>
      <trkpt lat="45.79139" lon="6.09955">
        <ele>1640.6269531</ele>
        <time>2011-02-05T17:10:09Z</time>
      </trkpt>
      <trkpt lat="45.79152" lon="6.09956">
        <ele>1639.6657715</ele>
        <time>2011-02-05T17:10:12Z</time>
      </trkpt>
      <trkpt lat="45.79161" lon="6.09955">
        <ele>1639.1850586</ele>
        <time>2011-02-05T17:10:14Z</time>
      </trkpt>
      <trkpt lat="45.7917" lon="6.09956">
        <ele>1638.223877</ele>
        <time>2011-02-05T17:10:16Z</time>
      </trkpt>
      <trkpt lat="45.79174" lon="6.09957">
        <ele>1638.223877</ele>
        <time>2011-02-05T17:10:17Z</time>
      </trkpt>
      <trkpt lat="45.79187" lon="6.09958">
        <ele>1638.223877</ele>
        <time>2011-02-05T17:10:20Z</time>
      </trkpt>
      <trkpt lat="45.79196" lon="6.09958">
        <ele>1637.7431641</ele>
        <time>2011-02-05T17:10:22Z</time>
      </trkpt>
      <trkpt lat="45.79205" lon="6.09959">
        <ele>1636.7817383</ele>
        <time>2011-02-05T17:10:24Z</time>
      </trkpt>
      <trkpt lat="45.79213" lon="6.0996">
        <ele>1636.3012695</ele>
        <time>2011-02-05T17:10:26Z</time>
      </trkpt>
      <trkpt lat="45.79226" lon="6.0996">
        <ele>1636.3012695</ele>
        <time>2011-02-05T17:10:29Z</time>
      </trkpt>
      <trkpt lat="45.79236" lon="6.09959">
        <ele>1636.3012695</ele>
        <time>2011-02-05T17:10:31Z</time>
      </trkpt>
      <trkpt lat="45.79244" lon="6.09958">
        <ele>1636.3012695</ele>
        <time>2011-02-05T17:10:33Z</time>
      </trkpt>
      <trkpt lat="45.79258" lon="6.09954">
        <ele>1634.859375</ele>
        <time>2011-02-05T17:10:36Z</time>
      </trkpt>
      <trkpt lat="45.79267" lon="6.09952">
        <ele>1633.4172363</ele>
        <time>2011-02-05T17:10:38Z</time>
      </trkpt>
      <trkpt lat="45.79271" lon="6.0995">
        <ele>1632.9365234</ele>
        <time>2011-02-05T17:10:39Z</time>
      </trkpt>
      <trkpt lat="45.79285" lon="6.09944">
        <ele>1631.4946289</ele>
        <time>2011-02-05T17:10:42Z</time>
      </trkpt>
      <trkpt lat="45.79299" lon="6.09935">
        <ele>1629.5720215</ele>
        <time>2011-02-05T17:10:45Z</time>
      </trkpt>
      <trkpt lat="45.79309" lon="6.09929">
        <ele>1628.130127</ele>
        <time>2011-02-05T17:10:47Z</time>
      </trkpt>
      <trkpt lat="45.79318" lon="6.09921">
        <ele>1628.130127</ele>
        <time>2011-02-05T17:10:49Z</time>
      </trkpt>
      <trkpt lat="45.79327" lon="6.09915">
        <ele>1628.130127</ele>
        <time>2011-02-05T17:10:51Z</time>
      </trkpt>
      <trkpt lat="45.79335" lon="6.09908">
        <ele>1628.130127</ele>
        <time>2011-02-05T17:10:53Z</time>
      </trkpt>
      <trkpt lat="45.79343" lon="6.09901">
        <ele>1628.130127</ele>
        <time>2011-02-05T17:10:55Z</time>
      </trkpt>
      <trkpt lat="45.79351" lon="6.09894">
        <ele>1627.6491699</ele>
        <time>2011-02-05T17:10:57Z</time>
      </trkpt>
      <trkpt lat="45.79359" lon="6.09888">
        <ele>1628.130127</ele>
        <time>2011-02-05T17:10:59Z</time>
      </trkpt>
      <trkpt lat="45.79363" lon="6.09886">
        <ele>1628.130127</ele>
        <time>2011-02-05T17:11:00Z</time>
      </trkpt>
      <trkpt lat="45.79376" lon="6.09877">
        <ele>1628.6108398</ele>
        <time>2011-02-05T17:11:03Z</time>
      </trkpt>
      <trkpt lat="45.79389" lon="6.09866">
        <ele>1628.6108398</ele>
        <time>2011-02-05T17:11:06Z</time>
      </trkpt>
      <trkpt lat="45.79394" lon="6.09863">
        <ele>1628.6108398</ele>
        <time>2011-02-05T17:11:07Z</time>
      </trkpt>
      <trkpt lat="45.79407" lon="6.09853">
        <ele>1628.130127</ele>
        <time>2011-02-05T17:11:10Z</time>
      </trkpt>
      <trkpt lat="45.79415" lon="6.09846">
        <ele>1627.1687012</ele>
        <time>2011-02-05T17:11:12Z</time>
      </trkpt>
      <trkpt lat="45.79424" lon="6.0984">
        <ele>1626.2072754</ele>
        <time>2011-02-05T17:11:14Z</time>
      </trkpt>
      <trkpt lat="45.79433" lon="6.09832">
        <ele>1625.7265625</ele>
        <time>2011-02-05T17:11:16Z</time>
      </trkpt>
      <trkpt lat="45.79442" lon="6.09826">
        <ele>1624.284668</ele>
        <time>2011-02-05T17:11:18Z</time>
      </trkpt>
      <trkpt lat="45.79451" lon="6.09819">
        <ele>1622.8427734</ele>
        <time>2011-02-05T17:11:20Z</time>
      </trkpt>
      <trkpt lat="45.79459" lon="6.09811">
        <ele>1621.8813477</ele>
        <time>2011-02-05T17:11:22Z</time>
      </trkpt>
      <trkpt lat="45.79467" lon="6.09804">
        <ele>1620.4394531</ele>
        <time>2011-02-05T17:11:24Z</time>
      </trkpt>
      <trkpt lat="45.79475" lon="6.09796">
        <ele>1618.9975586</ele>
        <time>2011-02-05T17:11:26Z</time>
      </trkpt>
      <trkpt lat="45.79483" lon="6.09789">
        <ele>1618.0361328</ele>
        <time>2011-02-05T17:11:28Z</time>
      </trkpt>
      <trkpt lat="45.7949" lon="6.09781">
        <ele>1617.0749512</ele>
        <time>2011-02-05T17:11:30Z</time>
      </trkpt>
      <trkpt lat="45.79498" lon="6.09773">
        <ele>1616.1135254</ele>
        <time>2011-02-05T17:11:32Z</time>
      </trkpt>
      <trkpt lat="45.79505" lon="6.09765">
        <ele>1615.6330566</ele>
        <time>2011-02-05T17:11:34Z</time>
      </trkpt>
      <trkpt lat="45.79513" lon="6.09757">
        <ele>1615.1523438</ele>
        <time>2011-02-05T17:11:36Z</time>
      </trkpt>
      <trkpt lat="45.7952" lon="6.09751">
        <ele>1613.7102051</ele>
        <time>2011-02-05T17:11:38Z</time>
      </trkpt>
      <trkpt lat="45.79528" lon="6.09744">
        <ele>1613.2297363</ele>
        <time>2011-02-05T17:11:40Z</time>
      </trkpt>
      <trkpt lat="45.79536" lon="6.09737">
        <ele>1612.2683105</ele>
        <time>2011-02-05T17:11:42Z</time>
      </trkpt>
      <trkpt lat="45.79543" lon="6.0973">
        <ele>1610.8261719</ele>
        <time>2011-02-05T17:11:44Z</time>
      </trkpt>
      <trkpt lat="45.79551" lon="6.09723">
        <ele>1610.345459</ele>
        <time>2011-02-05T17:11:46Z</time>
      </trkpt>
      <trkpt lat="45.79559" lon="6.09717">
        <ele>1609.3842773</ele>
        <time>2011-02-05T17:11:48Z</time>
      </trkpt>
      <trkpt lat="45.79563" lon="6.09714">
        <ele>1608.4228516</ele>
        <time>2011-02-05T17:11:49Z</time>
      </trkpt>
      <trkpt lat="45.79575" lon="6.09703">
        <ele>1606.980957</ele>
        <time>2011-02-05T17:11:52Z</time>
      </trkpt>
      <trkpt lat="45.7958" lon="6.097">
        <ele>1606.0195313</ele>
        <time>2011-02-05T17:11:53Z</time>
      </trkpt>
      <trkpt lat="45.79592" lon="6.09691">
        <ele>1604.5776367</ele>
        <time>2011-02-05T17:11:56Z</time>
      </trkpt>
      <trkpt lat="45.79605" lon="6.09682">
        <ele>1603.1357422</ele>
        <time>2011-02-05T17:11:59Z</time>
      </trkpt>
      <trkpt lat="45.79614" lon="6.09677">
        <ele>1602.6550293</ele>
        <time>2011-02-05T17:12:01Z</time>
      </trkpt>
      <trkpt lat="45.79623" lon="6.09672">
        <ele>1602.1743164</ele>
        <time>2011-02-05T17:12:03Z</time>
      </trkpt>
      <trkpt lat="45.79631" lon="6.09668">
        <ele>1601.2131348</ele>
        <time>2011-02-05T17:12:05Z</time>
      </trkpt>
      <trkpt lat="45.79645" lon="6.09663">
        <ele>1599.7712402</ele>
        <time>2011-02-05T17:12:08Z</time>
      </trkpt>
      <trkpt lat="45.79657" lon="6.0965">
        <ele>1597.8486328</ele>
        <time>2011-02-05T17:12:11Z</time>
      </trkpt>
      <trkpt lat="45.79661" lon="6.09638">
        <ele>1595.9257813</ele>
        <time>2011-02-05T17:12:13Z</time>
      </trkpt>
      <trkpt lat="45.79663" lon="6.09625">
        <ele>1593.5224609</ele>
        <time>2011-02-05T17:12:15Z</time>
      </trkpt>
      <trkpt lat="45.79664" lon="6.09611">
        <ele>1590.6384277</ele>
        <time>2011-02-05T17:12:17Z</time>
      </trkpt>
      <trkpt lat="45.79665" lon="6.09597">
        <ele>1588.2353516</ele>
        <time>2011-02-05T17:12:19Z</time>
      </trkpt>
      <trkpt lat="45.79665" lon="6.09584">
        <ele>1585.3513184</ele>
        <time>2011-02-05T17:12:21Z</time>
      </trkpt>
      <trkpt lat="45.79665" lon="6.09577">
        <ele>1584.3901367</ele>
        <time>2011-02-05T17:12:22Z</time>
      </trkpt>
      <trkpt lat="45.79665" lon="6.09577">
        <ele>1584.3901367</ele>
        <time>2011-02-05T17:12:22Z</time>
      </trkpt>
      <trkpt lat="45.79665" lon="6.09564">
        <ele>1582.4675293</ele>
        <time>2011-02-05T17:12:24Z</time>
      </trkpt>
      <trkpt lat="45.79665" lon="6.09551">
        <ele>1580.064209</ele>
        <time>2011-02-05T17:12:26Z</time>
      </trkpt>
      <trkpt lat="45.79665" lon="6.0954">
        <ele>1576.6994629</ele>
        <time>2011-02-05T17:12:28Z</time>
      </trkpt>
      <trkpt lat="45.79665" lon="6.09527">
        <ele>1574.2961426</ele>
        <time>2011-02-05T17:12:30Z</time>
      </trkpt>
      <trkpt lat="45.79668" lon="6.09515">
        <ele>1571.4121094</ele>
        <time>2011-02-05T17:12:32Z</time>
      </trkpt>
      <trkpt lat="45.79673" lon="6.09504">
        <ele>1569.0090332</ele>
        <time>2011-02-05T17:12:34Z</time>
      </trkpt>
      <trkpt lat="45.79681" lon="6.09498">
        <ele>1566.125</ele>
        <time>2011-02-05T17:12:36Z</time>
      </trkpt>
      <trkpt lat="45.79691" lon="6.09495">
        <ele>1563.2409668</ele>
        <time>2011-02-05T17:12:38Z</time>
      </trkpt>
      <trkpt lat="45.79697" lon="6.09494">
        <ele>1561.7990723</ele>
        <time>2011-02-05T17:12:39Z</time>
      </trkpt>
      <trkpt lat="45.79712" lon="6.09493">
        <ele>1557.4731445</ele>
        <time>2011-02-05T17:12:42Z</time>
      </trkpt>
      <trkpt lat="45.79723" lon="6.09492">
        <ele>1554.5891113</ele>
        <time>2011-02-05T17:12:44Z</time>
      </trkpt>
      <trkpt lat="45.79732" lon="6.09491">
        <ele>1551.7053223</ele>
        <time>2011-02-05T17:12:46Z</time>
      </trkpt>
      <trkpt lat="45.79737" lon="6.09491">
        <ele>1550.2634277</ele>
        <time>2011-02-05T17:12:47Z</time>
      </trkpt>
      <trkpt lat="45.79752" lon="6.09488">
        <ele>1544.4951172</ele>
        <time>2011-02-05T17:12:50Z</time>
      </trkpt>
      <trkpt lat="45.79757" lon="6.09487">
        <ele>1543.5339355</ele>
        <time>2011-02-05T17:12:51Z</time>
      </trkpt>
      <trkpt lat="45.79772" lon="6.09485">
        <ele>1541.1306152</ele>
        <time>2011-02-05T17:12:54Z</time>
      </trkpt>
      <trkpt lat="45.79787" lon="6.09482">
        <ele>1539.2080078</ele>
        <time>2011-02-05T17:12:57Z</time>
      </trkpt>
      <trkpt lat="45.79797" lon="6.09479">
        <ele>1537.7661133</ele>
        <time>2011-02-05T17:12:59Z</time>
      </trkpt>
      <trkpt lat="45.79807" lon="6.09477">
        <ele>1536.8046875</ele>
        <time>2011-02-05T17:13:01Z</time>
      </trkpt>
      <trkpt lat="45.79812" lon="6.09476">
        <ele>1535.8435059</ele>
        <time>2011-02-05T17:13:02Z</time>
      </trkpt>
      <trkpt lat="45.79826" lon="6.09474">
        <ele>1532.9594727</ele>
        <time>2011-02-05T17:13:05Z</time>
      </trkpt>
      <trkpt lat="45.79841" lon="6.09472">
        <ele>1531.9980469</ele>
        <time>2011-02-05T17:13:08Z</time>
      </trkpt>
      <trkpt lat="45.79846" lon="6.09472">
        <ele>1531.0368652</ele>
        <time>2011-02-05T17:13:09Z</time>
      </trkpt>
      <trkpt lat="45.79861" lon="6.09477">
        <ele>1527.6721191</ele>
        <time>2011-02-05T17:13:12Z</time>
      </trkpt>
      <trkpt lat="45.79866" lon="6.09478">
        <ele>1526.7109375</ele>
        <time>2011-02-05T17:13:13Z</time>
      </trkpt>
      <trkpt lat="45.79875" lon="6.09484">
        <ele>1524.3076172</ele>
        <time>2011-02-05T17:13:15Z</time>
      </trkpt>
      <trkpt lat="45.79888" lon="6.09491">
        <ele>1522.8657227</ele>
        <time>2011-02-05T17:13:18Z</time>
      </trkpt>
      <trkpt lat="45.79893" lon="6.09492">
        <ele>1522.3850098</ele>
        <time>2011-02-05T17:13:19Z</time>
      </trkpt>
      <trkpt lat="45.79907" lon="6.09501">
        <ele>1519.9816895</ele>
        <time>2011-02-05T17:13:22Z</time>
      </trkpt>
      <trkpt lat="45.79916" lon="6.09506">
        <ele>1519.5012207</ele>
        <time>2011-02-05T17:13:24Z</time>
      </trkpt>
      <trkpt lat="45.79926" lon="6.09513">
        <ele>1518.5397949</ele>
        <time>2011-02-05T17:13:26Z</time>
      </trkpt>
      <trkpt lat="45.79936" lon="6.09519">
        <ele>1517.0979004</ele>
        <time>2011-02-05T17:13:28Z</time>
      </trkpt>
      <trkpt lat="45.79947" lon="6.09529">
        <ele>1517.0979004</ele>
        <time>2011-02-05T17:13:31Z</time>
      </trkpt>
      <trkpt lat="45.79955" lon="6.09537">
        <ele>1515.6557617</ele>
        <time>2011-02-05T17:13:33Z</time>
      </trkpt>
      <trkpt lat="45.79958" lon="6.0954">
        <ele>1515.1750488</ele>
        <time>2011-02-05T17:13:34Z</time>
      </trkpt>
      <trkpt lat="45.79969" lon="6.0955">
        <ele>1515.6557617</ele>
        <time>2011-02-05T17:13:37Z</time>
      </trkpt>
      <trkpt lat="45.79976" lon="6.09555">
        <ele>1515.1750488</ele>
        <time>2011-02-05T17:13:39Z</time>
      </trkpt>
      <trkpt lat="45.7998" lon="6.09558">
        <ele>1515.6557617</ele>
        <time>2011-02-05T17:13:40Z</time>
      </trkpt>
      <trkpt lat="45.79992" lon="6.09563">
        <ele>1517.0979004</ele>
        <time>2011-02-05T17:13:43Z</time>
      </trkpt>
      <trkpt lat="45.80001" lon="6.09567">
        <ele>1517.5783691</ele>
        <time>2011-02-05T17:13:45Z</time>
      </trkpt>
      <trkpt lat="45.80014" lon="6.09571">
        <ele>1515.1750488</ele>
        <time>2011-02-05T17:13:48Z</time>
      </trkpt>
      <trkpt lat="45.80024" lon="6.09574">
        <ele>1514.213623</ele>
        <time>2011-02-05T17:13:50Z</time>
      </trkpt>
      <trkpt lat="45.80028" lon="6.09574">
        <ele>1513.2524414</ele>
        <time>2011-02-05T17:13:51Z</time>
      </trkpt>
      <trkpt lat="45.80042" lon="6.09578">
        <ele>1510.8491211</ele>
        <time>2011-02-05T17:13:54Z</time>
      </trkpt>
      <trkpt lat="45.80046" lon="6.09579">
        <ele>1510.3684082</ele>
        <time>2011-02-05T17:13:55Z</time>
      </trkpt>
      <trkpt lat="45.8006" lon="6.09585">
        <ele>1507.965332</ele>
        <time>2011-02-05T17:13:58Z</time>
      </trkpt>
      <trkpt lat="45.80068" lon="6.0959">
        <ele>1506.0424805</ele>
        <time>2011-02-05T17:14:00Z</time>
      </trkpt>
      <trkpt lat="45.80077" lon="6.09594">
        <ele>1504.6005859</ele>
        <time>2011-02-05T17:14:02Z</time>
      </trkpt>
      <trkpt lat="45.80088" lon="6.09603">
        <ele>1501.236084</ele>
        <time>2011-02-05T17:14:05Z</time>
      </trkpt>
      <trkpt lat="45.80092" lon="6.09606">
        <ele>1500.7553711</ele>
        <time>2011-02-05T17:14:06Z</time>
      </trkpt>
      <trkpt lat="45.80104" lon="6.09619">
        <ele>1496.9099121</ele>
        <time>2011-02-05T17:14:09Z</time>
      </trkpt>
      <trkpt lat="45.80115" lon="6.0963">
        <ele>1494.5065918</ele>
        <time>2011-02-05T17:14:12Z</time>
      </trkpt>
      <trkpt lat="45.80122" lon="6.09637">
        <ele>1493.0646973</ele>
        <time>2011-02-05T17:14:14Z</time>
      </trkpt>
      <trkpt lat="45.80131" lon="6.09645">
        <ele>1491.1420898</ele>
        <time>2011-02-05T17:14:16Z</time>
      </trkpt>
      <trkpt lat="45.8014" lon="6.09651">
        <ele>1490.1809082</ele>
        <time>2011-02-05T17:14:18Z</time>
      </trkpt>
      <trkpt lat="45.80154" lon="6.09658">
        <ele>1487.7775879</ele>
        <time>2011-02-05T17:14:21Z</time>
      </trkpt>
      <trkpt lat="45.80167" lon="6.09662">
        <ele>1486.8161621</ele>
        <time>2011-02-05T17:14:24Z</time>
      </trkpt>
      <trkpt lat="45.80172" lon="6.09664">
        <ele>1486.8161621</ele>
        <time>2011-02-05T17:14:25Z</time>
      </trkpt>
      <trkpt lat="45.8018" lon="6.09668">
        <ele>1485.8549805</ele>
        <time>2011-02-05T17:14:27Z</time>
      </trkpt>
      <trkpt lat="45.80194" lon="6.09673">
        <ele>1483.451416</ele>
        <time>2011-02-05T17:14:30Z</time>
      </trkpt>
      <trkpt lat="45.80202" lon="6.09676">
        <ele>1482.4902344</ele>
        <time>2011-02-05T17:14:32Z</time>
      </trkpt>
      <trkpt lat="45.80216" lon="6.09682">
        <ele>1479.1254883</ele>
        <time>2011-02-05T17:14:35Z</time>
      </trkpt>
      <trkpt lat="45.80225" lon="6.09686">
        <ele>1478.1643066</ele>
        <time>2011-02-05T17:14:37Z</time>
      </trkpt>
      <trkpt lat="45.80238" lon="6.09691">
        <ele>1476.2416992</ele>
        <time>2011-02-05T17:14:40Z</time>
      </trkpt>
      <trkpt lat="45.80247" lon="6.09695">
        <ele>1475.7609863</ele>
        <time>2011-02-05T17:14:42Z</time>
      </trkpt>
      <trkpt lat="45.80256" lon="6.09699">
        <ele>1475.7609863</ele>
        <time>2011-02-05T17:14:44Z</time>
      </trkpt>
      <trkpt lat="45.80269" lon="6.09703">
        <ele>1474.3190918</ele>
        <time>2011-02-05T17:14:47Z</time>
      </trkpt>
      <trkpt lat="45.80277" lon="6.09704">
        <ele>1473.8383789</ele>
        <time>2011-02-05T17:14:49Z</time>
      </trkpt>
      <trkpt lat="45.80281" lon="6.09705">
        <ele>1473.8383789</ele>
        <time>2011-02-05T17:14:50Z</time>
      </trkpt>
      <trkpt lat="45.80293" lon="6.09706">
        <ele>1473.8383789</ele>
        <time>2011-02-05T17:14:53Z</time>
      </trkpt>
      <trkpt lat="45.80297" lon="6.09706">
        <ele>1474.3190918</ele>
        <time>2011-02-05T17:14:54Z</time>
      </trkpt>
      <trkpt lat="45.80305" lon="6.09708">
        <ele>1474.3190918</ele>
        <time>2011-02-05T17:14:56Z</time>
      </trkpt>
      <trkpt lat="45.80317" lon="6.09709">
        <ele>1473.8383789</ele>
        <time>2011-02-05T17:14:59Z</time>
      </trkpt>
      <trkpt lat="45.80324" lon="6.09711">
        <ele>1473.8383789</ele>
        <time>2011-02-05T17:15:01Z</time>
      </trkpt>
      <trkpt lat="45.80332" lon="6.09715">
        <ele>1474.3190918</ele>
        <time>2011-02-05T17:15:03Z</time>
      </trkpt>
      <trkpt lat="45.80339" lon="6.09719">
        <ele>1473.8383789</ele>
        <time>2011-02-05T17:15:05Z</time>
      </trkpt>
      <trkpt lat="45.80347" lon="6.09724">
        <ele>1473.8383789</ele>
        <time>2011-02-05T17:15:07Z</time>
      </trkpt>
      <trkpt lat="45.80354" lon="6.09728">
        <ele>1473.8383789</ele>
        <time>2011-02-05T17:15:09Z</time>
      </trkpt>
      <trkpt lat="45.80362" lon="6.09733">
        <ele>1473.8383789</ele>
        <time>2011-02-05T17:15:11Z</time>
      </trkpt>
      <trkpt lat="45.80369" lon="6.09737">
        <ele>1474.7998047</ele>
        <time>2011-02-05T17:15:13Z</time>
      </trkpt>
      <trkpt lat="45.80376" lon="6.09741">
        <ele>1475.2802734</ele>
        <time>2011-02-05T17:15:15Z</time>
      </trkpt>
      <trkpt lat="45.80383" lon="6.09745">
        <ele>1475.7609863</ele>
        <time>2011-02-05T17:15:17Z</time>
      </trkpt>
      <trkpt lat="45.80389" lon="6.09747">
        <ele>1476.2416992</ele>
        <time>2011-02-05T17:15:19Z</time>
      </trkpt>
      <trkpt lat="45.80395" lon="6.09748">
        <ele>1477.203125</ele>
        <time>2011-02-05T17:15:21Z</time>
      </trkpt>
      <trkpt lat="45.80402" lon="6.0975">
        <ele>1477.6835938</ele>
        <time>2011-02-05T17:15:23Z</time>
      </trkpt>
      <trkpt lat="45.80409" lon="6.09751">
        <ele>1478.6450195</ele>
        <time>2011-02-05T17:15:25Z</time>
      </trkpt>
      <trkpt lat="45.80417" lon="6.09753">
        <ele>1478.6450195</ele>
        <time>2011-02-05T17:15:27Z</time>
      </trkpt>
      <trkpt lat="45.80424" lon="6.09756">
        <ele>1479.6062012</ele>
        <time>2011-02-05T17:15:29Z</time>
      </trkpt>
      <trkpt lat="45.8043" lon="6.09761">
        <ele>1479.1254883</ele>
        <time>2011-02-05T17:15:31Z</time>
      </trkpt>
      <trkpt lat="45.80436" lon="6.09767">
        <ele>1479.1254883</ele>
        <time>2011-02-05T17:15:33Z</time>
      </trkpt>
      <trkpt lat="45.80441" lon="6.09775">
        <ele>1479.6062012</ele>
        <time>2011-02-05T17:15:35Z</time>
      </trkpt>
      <trkpt lat="45.80446" lon="6.09782">
        <ele>1479.1254883</ele>
        <time>2011-02-05T17:15:37Z</time>
      </trkpt>
      <trkpt lat="45.80451" lon="6.0979">
        <ele>1479.1254883</ele>
        <time>2011-02-05T17:15:39Z</time>
      </trkpt>
      <trkpt lat="45.80455" lon="6.09797">
        <ele>1478.6450195</ele>
        <time>2011-02-05T17:15:41Z</time>
      </trkpt>
      <trkpt lat="45.80457" lon="6.098">
        <ele>1478.6450195</ele>
        <time>2011-02-05T17:15:42Z</time>
      </trkpt>
      <trkpt lat="45.80461" lon="6.09807">
        <ele>1478.1643066</ele>
        <time>2011-02-05T17:15:44Z</time>
      </trkpt>
      <trkpt lat="45.80466" lon="6.09814">
        <ele>1478.1643066</ele>
        <time>2011-02-05T17:15:46Z</time>
      </trkpt>
      <trkpt lat="45.8047" lon="6.0982">
        <ele>1477.203125</ele>
        <time>2011-02-05T17:15:48Z</time>
      </trkpt>
      <trkpt lat="45.80474" lon="6.09826">
        <ele>1476.7224121</ele>
        <time>2011-02-05T17:15:50Z</time>
      </trkpt>
      <trkpt lat="45.80476" lon="6.09829">
        <ele>1477.203125</ele>
        <time>2011-02-05T17:15:52Z</time>
      </trkpt>
    </trkseg>
  </trk>
</gpx>